<?xml version="1.0" encoding="UTF-8" standalone="no" ?>
<gpx xmlns="http://www.topografix.com/GPX/1/1" xmlns:xsi="http://www.w3.org/2001/XMLSchema-instance" xsi:schemaLocation="http://www.topografix.com/GPX/1/1 http://www.topografix.com/GPX/1/1/gpx.xsd" version="1.1" creator="VisuGPX - https://www.visugpx.com">
  <metadata>
    <name>Calanques de Sormiou et Morgiou</name>
    <desc><![CDATA[Superbe balabe. Facile et familiale.
Pensez aux maillots de bain.]]></desc>
  </metadata>
  <wpt lat="43.22314" lon="5.41753">
    <ele>124.2421875</ele>
    <name><![CDATA[Depart Sormiou]]></name>
    <desc><![CDATA[Route]]></desc>
    <cmt><![CDATA[Route]]></cmt>
  </wpt>
  <trk>
    <name><![CDATA[13 Calanques Sormiou]]></name>
    <trkseg>
      <trkpt lat="43.22279" lon="5.41773">
        <ele>118.38</ele>
        <time>2012-05-27T07:42:51Z</time>
      </trkpt>
      <trkpt lat="43.2228" lon="5.41762">
        <ele>115.98</ele>
        <time>2012-05-27T07:43:02Z</time>
      </trkpt>
      <trkpt lat="43.22272" lon="5.41751">
        <ele>116.94</ele>
        <time>2012-05-27T07:43:14Z</time>
      </trkpt>
      <trkpt lat="43.2227" lon="5.4175">
        <ele>117.42</ele>
        <time>2012-05-27T07:43:17Z</time>
      </trkpt>
      <trkpt lat="43.22261" lon="5.41744">
        <ele>117.42</ele>
        <time>2012-05-27T07:43:27Z</time>
      </trkpt>
      <trkpt lat="43.22254" lon="5.41732">
        <ele>117.9</ele>
        <time>2012-05-27T07:43:40Z</time>
      </trkpt>
      <trkpt lat="43.22246" lon="5.41719">
        <ele>118.38</ele>
        <time>2012-05-27T07:43:52Z</time>
      </trkpt>
      <trkpt lat="43.22237" lon="5.41702">
        <ele>119.34</ele>
        <time>2012-05-27T07:44:07Z</time>
      </trkpt>
      <trkpt lat="43.22231" lon="5.4169">
        <ele>119.82</ele>
        <time>2012-05-27T07:44:18Z</time>
      </trkpt>
      <trkpt lat="43.22224" lon="5.41684">
        <ele>120.3</ele>
        <time>2012-05-27T07:44:30Z</time>
      </trkpt>
      <trkpt lat="43.22212" lon="5.41679">
        <ele>121.26</ele>
        <time>2012-05-27T07:44:42Z</time>
      </trkpt>
      <trkpt lat="43.22202" lon="5.41676">
        <ele>121.74</ele>
        <time>2012-05-27T07:44:52Z</time>
      </trkpt>
      <trkpt lat="43.22199" lon="5.41676">
        <ele>122.22</ele>
        <time>2012-05-27T07:44:55Z</time>
      </trkpt>
      <trkpt lat="43.22189" lon="5.41673">
        <ele>121.74</ele>
        <time>2012-05-27T07:45:06Z</time>
      </trkpt>
      <trkpt lat="43.22179" lon="5.41667">
        <ele>123.19</ele>
        <time>2012-05-27T07:45:16Z</time>
      </trkpt>
      <trkpt lat="43.22166" lon="5.41671">
        <ele>123.19</ele>
        <time>2012-05-27T07:45:31Z</time>
      </trkpt>
      <trkpt lat="43.22158" lon="5.41674">
        <ele>124.15</ele>
        <time>2012-05-27T07:45:45Z</time>
      </trkpt>
      <trkpt lat="43.22156" lon="5.41678">
        <ele>124.63</ele>
        <time>2012-05-27T07:46:02Z</time>
      </trkpt>
      <trkpt lat="43.22148" lon="5.41687">
        <ele>126.07</ele>
        <time>2012-05-27T07:46:16Z</time>
      </trkpt>
      <trkpt lat="43.22147" lon="5.41687">
        <ele>126.55</ele>
        <time>2012-05-27T07:46:37Z</time>
      </trkpt>
      <trkpt lat="43.22139" lon="5.41687">
        <ele>128.47</ele>
        <time>2012-05-27T07:46:48Z</time>
      </trkpt>
      <trkpt lat="43.22137" lon="5.41685">
        <ele>128.47</ele>
        <time>2012-05-27T07:46:50Z</time>
      </trkpt>
      <trkpt lat="43.22132" lon="5.4168">
        <ele>129.43</ele>
        <time>2012-05-27T07:46:57Z</time>
      </trkpt>
      <trkpt lat="43.22127" lon="5.41668">
        <ele>130.88</ele>
        <time>2012-05-27T07:47:08Z</time>
      </trkpt>
      <trkpt lat="43.22122" lon="5.41663">
        <ele>131.84</ele>
        <time>2012-05-27T07:47:15Z</time>
      </trkpt>
      <trkpt lat="43.22107" lon="5.41664">
        <ele>132.32</ele>
        <time>2012-05-27T07:47:29Z</time>
      </trkpt>
      <trkpt lat="43.22098" lon="5.41673">
        <ele>132.32</ele>
        <time>2012-05-27T07:47:40Z</time>
      </trkpt>
      <trkpt lat="43.22099" lon="5.4169">
        <ele>134.24</ele>
        <time>2012-05-27T07:47:55Z</time>
      </trkpt>
      <trkpt lat="43.22098" lon="5.41698">
        <ele>134.24</ele>
        <time>2012-05-27T07:48:03Z</time>
      </trkpt>
      <trkpt lat="43.22099" lon="5.41716">
        <ele>134.72</ele>
        <time>2012-05-27T07:48:15Z</time>
      </trkpt>
      <trkpt lat="43.22095" lon="5.41722">
        <ele>134.24</ele>
        <time>2012-05-27T07:48:19Z</time>
      </trkpt>
      <trkpt lat="43.22084" lon="5.41736">
        <ele>135.2</ele>
        <time>2012-05-27T07:48:32Z</time>
      </trkpt>
      <trkpt lat="43.22073" lon="5.41744">
        <ele>135.68</ele>
        <time>2012-05-27T07:48:47Z</time>
      </trkpt>
      <trkpt lat="43.22066" lon="5.41752">
        <ele>135.68</ele>
        <time>2012-05-27T07:49:15Z</time>
      </trkpt>
      <trkpt lat="43.22058" lon="5.41765">
        <ele>137.13</ele>
        <time>2012-05-27T07:49:29Z</time>
      </trkpt>
      <trkpt lat="43.22045" lon="5.41778">
        <ele>138.57</ele>
        <time>2012-05-27T07:49:48Z</time>
      </trkpt>
      <trkpt lat="43.22033" lon="5.41781">
        <ele>140.01</ele>
        <time>2012-05-27T07:50:04Z</time>
      </trkpt>
      <trkpt lat="43.22031" lon="5.41782">
        <ele>140.97</ele>
        <time>2012-05-27T07:50:07Z</time>
      </trkpt>
      <trkpt lat="43.22021" lon="5.41789">
        <ele>143.37</ele>
        <time>2012-05-27T07:50:23Z</time>
      </trkpt>
      <trkpt lat="43.22015" lon="5.41796">
        <ele>146.26</ele>
        <time>2012-05-27T07:50:38Z</time>
      </trkpt>
      <trkpt lat="43.22006" lon="5.41806">
        <ele>147.22</ele>
        <time>2012-05-27T07:50:52Z</time>
      </trkpt>
      <trkpt lat="43.22" lon="5.41807">
        <ele>147.7</ele>
        <time>2012-05-27T07:50:58Z</time>
      </trkpt>
      <trkpt lat="43.21989" lon="5.41801">
        <ele>148.66</ele>
        <time>2012-05-27T07:51:12Z</time>
      </trkpt>
      <trkpt lat="43.21981" lon="5.41796">
        <ele>150.58</ele>
        <time>2012-05-27T07:51:22Z</time>
      </trkpt>
      <trkpt lat="43.21974" lon="5.41792">
        <ele>152.03</ele>
        <time>2012-05-27T07:51:33Z</time>
      </trkpt>
      <trkpt lat="43.21966" lon="5.41789">
        <ele>152.99</ele>
        <time>2012-05-27T07:51:44Z</time>
      </trkpt>
      <trkpt lat="43.21957" lon="5.41783">
        <ele>155.39</ele>
        <time>2012-05-27T07:51:55Z</time>
      </trkpt>
      <trkpt lat="43.21956" lon="5.41781">
        <ele>154.91</ele>
        <time>2012-05-27T07:51:57Z</time>
      </trkpt>
      <trkpt lat="43.21952" lon="5.41776">
        <ele>154.91</ele>
        <time>2012-05-27T07:52:03Z</time>
      </trkpt>
      <trkpt lat="43.21945" lon="5.41769">
        <ele>155.39</ele>
        <time>2012-05-27T07:52:10Z</time>
      </trkpt>
      <trkpt lat="43.21933" lon="5.41766">
        <ele>156.35</ele>
        <time>2012-05-27T07:52:22Z</time>
      </trkpt>
      <trkpt lat="43.21919" lon="5.41761">
        <ele>156.83</ele>
        <time>2012-05-27T07:52:35Z</time>
      </trkpt>
      <trkpt lat="43.21916" lon="5.41759">
        <ele>156.83</ele>
        <time>2012-05-27T07:52:38Z</time>
      </trkpt>
      <trkpt lat="43.21902" lon="5.41753">
        <ele>158.27</ele>
        <time>2012-05-27T07:52:52Z</time>
      </trkpt>
      <trkpt lat="43.21887" lon="5.41747">
        <ele>159.24</ele>
        <time>2012-05-27T07:53:05Z</time>
      </trkpt>
      <trkpt lat="43.21875" lon="5.41736">
        <ele>160.2</ele>
        <time>2012-05-27T07:53:21Z</time>
      </trkpt>
      <trkpt lat="43.21867" lon="5.41717">
        <ele>161.16</ele>
        <time>2012-05-27T07:53:35Z</time>
      </trkpt>
      <trkpt lat="43.21861" lon="5.41695">
        <ele>161.64</ele>
        <time>2012-05-27T07:53:50Z</time>
      </trkpt>
      <trkpt lat="43.21859" lon="5.4169">
        <ele>162.12</ele>
        <time>2012-05-27T07:53:55Z</time>
      </trkpt>
      <trkpt lat="43.21857" lon="5.41668">
        <ele>163.08</ele>
        <time>2012-05-27T07:54:08Z</time>
      </trkpt>
      <trkpt lat="43.21857" lon="5.41667">
        <ele>162.6</ele>
        <time>2012-05-27T07:54:09Z</time>
      </trkpt>
      <trkpt lat="43.21853" lon="5.41647">
        <ele>164.04</ele>
        <time>2012-05-27T07:54:22Z</time>
      </trkpt>
      <trkpt lat="43.21852" lon="5.41644">
        <ele>163.56</ele>
        <time>2012-05-27T07:54:24Z</time>
      </trkpt>
      <trkpt lat="43.21842" lon="5.41629">
        <ele>165</ele>
        <time>2012-05-27T07:54:37Z</time>
      </trkpt>
      <trkpt lat="43.2184" lon="5.41625">
        <ele>165.48</ele>
        <time>2012-05-27T07:54:40Z</time>
      </trkpt>
      <trkpt lat="43.2183" lon="5.41613">
        <ele>166.45</ele>
        <time>2012-05-27T07:54:53Z</time>
      </trkpt>
      <trkpt lat="43.21821" lon="5.41603">
        <ele>167.41</ele>
        <time>2012-05-27T07:55:05Z</time>
      </trkpt>
      <trkpt lat="43.21809" lon="5.41599">
        <ele>168.37</ele>
        <time>2012-05-27T07:55:19Z</time>
      </trkpt>
      <trkpt lat="43.21799" lon="5.41596">
        <ele>168.85</ele>
        <time>2012-05-27T07:55:31Z</time>
      </trkpt>
      <trkpt lat="43.21793" lon="5.41593">
        <ele>168.37</ele>
        <time>2012-05-27T07:55:40Z</time>
      </trkpt>
      <trkpt lat="43.21792" lon="5.41593">
        <ele>168.37</ele>
        <time>2012-05-27T07:55:41Z</time>
      </trkpt>
      <trkpt lat="43.2179" lon="5.4159">
        <ele>168.85</ele>
        <time>2012-05-27T07:55:45Z</time>
      </trkpt>
      <trkpt lat="43.21788" lon="5.41585">
        <ele>168.85</ele>
        <time>2012-05-27T07:55:48Z</time>
      </trkpt>
      <trkpt lat="43.21785" lon="5.41583">
        <ele>167.89</ele>
        <time>2012-05-27T07:55:55Z</time>
      </trkpt>
      <trkpt lat="43.21779" lon="5.41581">
        <ele>166.93</ele>
        <time>2012-05-27T07:56:02Z</time>
      </trkpt>
      <trkpt lat="43.21776" lon="5.41578">
        <ele>165.48</ele>
        <time>2012-05-27T07:56:11Z</time>
      </trkpt>
      <trkpt lat="43.21773" lon="5.41575">
        <ele>164.52</ele>
        <time>2012-05-27T07:56:22Z</time>
      </trkpt>
      <trkpt lat="43.21772" lon="5.41575">
        <ele>163.56</ele>
        <time>2012-05-27T07:57:03Z</time>
      </trkpt>
      <trkpt lat="43.2177" lon="5.4157">
        <ele>163.56</ele>
        <time>2012-05-27T07:57:14Z</time>
      </trkpt>
      <trkpt lat="43.21766" lon="5.41564">
        <ele>162.12</ele>
        <time>2012-05-27T07:57:23Z</time>
      </trkpt>
      <trkpt lat="43.2176" lon="5.41555">
        <ele>159.72</ele>
        <time>2012-05-27T07:57:37Z</time>
      </trkpt>
      <trkpt lat="43.21756" lon="5.4155">
        <ele>158.75</ele>
        <time>2012-05-27T07:57:47Z</time>
      </trkpt>
      <trkpt lat="43.21754" lon="5.4155">
        <ele>158.27</ele>
        <time>2012-05-27T07:57:50Z</time>
      </trkpt>
      <trkpt lat="43.21751" lon="5.41551">
        <ele>156.83</ele>
        <time>2012-05-27T07:57:53Z</time>
      </trkpt>
      <trkpt lat="43.21745" lon="5.41547">
        <ele>154.43</ele>
        <time>2012-05-27T07:58:08Z</time>
      </trkpt>
      <trkpt lat="43.2174" lon="5.4154">
        <ele>152.03</ele>
        <time>2012-05-27T07:58:18Z</time>
      </trkpt>
      <trkpt lat="43.21727" lon="5.41541">
        <ele>149.62</ele>
        <time>2012-05-27T07:58:33Z</time>
      </trkpt>
      <trkpt lat="43.2172" lon="5.41536">
        <ele>147.22</ele>
        <time>2012-05-27T07:58:44Z</time>
      </trkpt>
      <trkpt lat="43.2171" lon="5.41536">
        <ele>143.85</ele>
        <time>2012-05-27T07:58:58Z</time>
      </trkpt>
      <trkpt lat="43.21702" lon="5.41539">
        <ele>143.37</ele>
        <time>2012-05-27T07:59:06Z</time>
      </trkpt>
      <trkpt lat="43.21693" lon="5.41542">
        <ele>141.93</ele>
        <time>2012-05-27T07:59:15Z</time>
      </trkpt>
      <trkpt lat="43.21679" lon="5.41547">
        <ele>140.01</ele>
        <time>2012-05-27T07:59:30Z</time>
      </trkpt>
      <trkpt lat="43.21665" lon="5.41551">
        <ele>139.05</ele>
        <time>2012-05-27T07:59:45Z</time>
      </trkpt>
      <trkpt lat="43.21659" lon="5.41554">
        <ele>138.09</ele>
        <time>2012-05-27T07:59:51Z</time>
      </trkpt>
      <trkpt lat="43.21644" lon="5.41559">
        <ele>138.09</ele>
        <time>2012-05-27T08:00:06Z</time>
      </trkpt>
      <trkpt lat="43.21641" lon="5.41559">
        <ele>137.61</ele>
        <time>2012-05-27T08:00:09Z</time>
      </trkpt>
      <trkpt lat="43.21634" lon="5.41555">
        <ele>137.13</ele>
        <time>2012-05-27T08:00:15Z</time>
      </trkpt>
      <trkpt lat="43.21617" lon="5.4155">
        <ele>136.16</ele>
        <time>2012-05-27T08:00:29Z</time>
      </trkpt>
      <trkpt lat="43.21614" lon="5.41549">
        <ele>135.68</ele>
        <time>2012-05-27T08:00:32Z</time>
      </trkpt>
      <trkpt lat="43.21598" lon="5.41554">
        <ele>135.68</ele>
        <time>2012-05-27T08:00:46Z</time>
      </trkpt>
      <trkpt lat="43.21596" lon="5.41554">
        <ele>136.16</ele>
        <time>2012-05-27T08:00:48Z</time>
      </trkpt>
      <trkpt lat="43.21588" lon="5.41555">
        <ele>134.72</ele>
        <time>2012-05-27T08:01:03Z</time>
      </trkpt>
      <trkpt lat="43.21582" lon="5.41553">
        <ele>133.28</ele>
        <time>2012-05-27T08:01:10Z</time>
      </trkpt>
      <trkpt lat="43.21577" lon="5.41552">
        <ele>132.8</ele>
        <time>2012-05-27T08:01:30Z</time>
      </trkpt>
      <trkpt lat="43.21575" lon="5.41555">
        <ele>132.32</ele>
        <time>2012-05-27T08:01:44Z</time>
      </trkpt>
      <trkpt lat="43.21575" lon="5.4156">
        <ele>131.36</ele>
        <time>2012-05-27T08:02:27Z</time>
      </trkpt>
      <trkpt lat="43.21573" lon="5.41563">
        <ele>130.4</ele>
        <time>2012-05-27T08:02:38Z</time>
      </trkpt>
      <trkpt lat="43.21567" lon="5.41568">
        <ele>128.95</ele>
        <time>2012-05-27T08:02:50Z</time>
      </trkpt>
      <trkpt lat="43.2157" lon="5.41576">
        <ele>126.07</ele>
        <time>2012-05-27T08:03:02Z</time>
      </trkpt>
      <trkpt lat="43.21563" lon="5.41576">
        <ele>124.63</ele>
        <time>2012-05-27T08:03:12Z</time>
      </trkpt>
      <trkpt lat="43.21551" lon="5.41579">
        <ele>123.19</ele>
        <time>2012-05-27T08:03:26Z</time>
      </trkpt>
      <trkpt lat="43.21549" lon="5.41585">
        <ele>121.26</ele>
        <time>2012-05-27T08:03:38Z</time>
      </trkpt>
      <trkpt lat="43.21557" lon="5.41586">
        <ele>120.3</ele>
        <time>2012-05-27T08:03:49Z</time>
      </trkpt>
      <trkpt lat="43.21561" lon="5.41591">
        <ele>117.42</ele>
        <time>2012-05-27T08:04:02Z</time>
      </trkpt>
      <trkpt lat="43.21564" lon="5.41604">
        <ele>115.5</ele>
        <time>2012-05-27T08:04:16Z</time>
      </trkpt>
      <trkpt lat="43.21556" lon="5.41599">
        <ele>114.05</ele>
        <time>2012-05-27T08:04:30Z</time>
      </trkpt>
      <trkpt lat="43.21557" lon="5.41612">
        <ele>111.65</ele>
        <time>2012-05-27T08:04:44Z</time>
      </trkpt>
      <trkpt lat="43.21557" lon="5.41616">
        <ele>109.25</ele>
        <time>2012-05-27T08:04:58Z</time>
      </trkpt>
      <trkpt lat="43.21553" lon="5.41621">
        <ele>107.81</ele>
        <time>2012-05-27T08:05:12Z</time>
      </trkpt>
      <trkpt lat="43.21548" lon="5.41624">
        <ele>104.92</ele>
        <time>2012-05-27T08:05:24Z</time>
      </trkpt>
      <trkpt lat="43.21541" lon="5.41625">
        <ele>102.52</ele>
        <time>2012-05-27T08:05:37Z</time>
      </trkpt>
      <trkpt lat="43.21529" lon="5.41628">
        <ele>101.08</ele>
        <time>2012-05-27T08:05:49Z</time>
      </trkpt>
      <trkpt lat="43.21522" lon="5.41623">
        <ele>99.63</ele>
        <time>2012-05-27T08:06:00Z</time>
      </trkpt>
      <trkpt lat="43.21513" lon="5.41626">
        <ele>96.27</ele>
        <time>2012-05-27T08:06:11Z</time>
      </trkpt>
      <trkpt lat="43.21509" lon="5.41627">
        <ele>95.31</ele>
        <time>2012-05-27T08:06:16Z</time>
      </trkpt>
      <trkpt lat="43.21508" lon="5.41625">
        <ele>94.83</ele>
        <time>2012-05-27T08:06:19Z</time>
      </trkpt>
      <trkpt lat="43.21502" lon="5.41618">
        <ele>92.42</ele>
        <time>2012-05-27T08:06:33Z</time>
      </trkpt>
      <trkpt lat="43.21491" lon="5.41615">
        <ele>89.54</ele>
        <time>2012-05-27T08:06:48Z</time>
      </trkpt>
      <trkpt lat="43.21487" lon="5.41616">
        <ele>89.06</ele>
        <time>2012-05-27T08:06:53Z</time>
      </trkpt>
      <trkpt lat="43.21471" lon="5.41617">
        <ele>87.14</ele>
        <time>2012-05-27T08:07:09Z</time>
      </trkpt>
      <trkpt lat="43.21461" lon="5.41614">
        <ele>85.21</ele>
        <time>2012-05-27T08:07:21Z</time>
      </trkpt>
      <trkpt lat="43.21449" lon="5.41607">
        <ele>84.73</ele>
        <time>2012-05-27T08:07:35Z</time>
      </trkpt>
      <trkpt lat="43.2144" lon="5.41601">
        <ele>85.69</ele>
        <time>2012-05-27T08:07:45Z</time>
      </trkpt>
      <trkpt lat="43.21432" lon="5.41604">
        <ele>85.21</ele>
        <time>2012-05-27T08:07:58Z</time>
      </trkpt>
      <trkpt lat="43.21431" lon="5.41607">
        <ele>84.25</ele>
        <time>2012-05-27T08:08:09Z</time>
      </trkpt>
      <trkpt lat="43.21431" lon="5.41607">
        <ele>83.77</ele>
        <time>2012-05-27T08:08:26Z</time>
      </trkpt>
      <trkpt lat="43.21427" lon="5.41612">
        <ele>82.33</ele>
        <time>2012-05-27T08:08:50Z</time>
      </trkpt>
      <trkpt lat="43.21425" lon="5.41614">
        <ele>80.89</ele>
        <time>2012-05-27T08:09:04Z</time>
      </trkpt>
      <trkpt lat="43.21421" lon="5.41616">
        <ele>80.41</ele>
        <time>2012-05-27T08:09:17Z</time>
      </trkpt>
      <trkpt lat="43.21421" lon="5.41616">
        <ele>79.93</ele>
        <time>2012-05-27T08:09:26Z</time>
      </trkpt>
      <trkpt lat="43.21416" lon="5.41629">
        <ele>77.04</ele>
        <time>2012-05-27T08:09:40Z</time>
      </trkpt>
      <trkpt lat="43.21415" lon="5.4163">
        <ele>76.56</ele>
        <time>2012-05-27T08:09:41Z</time>
      </trkpt>
      <trkpt lat="43.21409" lon="5.41642">
        <ele>75.12</ele>
        <time>2012-05-27T08:09:54Z</time>
      </trkpt>
      <trkpt lat="43.21405" lon="5.41648">
        <ele>73.2</ele>
        <time>2012-05-27T08:10:08Z</time>
      </trkpt>
      <trkpt lat="43.21401" lon="5.41652">
        <ele>69.83</ele>
        <time>2012-05-27T08:10:20Z</time>
      </trkpt>
      <trkpt lat="43.21395" lon="5.41656">
        <ele>66.95</ele>
        <time>2012-05-27T08:10:33Z</time>
      </trkpt>
      <trkpt lat="43.21393" lon="5.41658">
        <ele>66.47</ele>
        <time>2012-05-27T08:10:39Z</time>
      </trkpt>
      <trkpt lat="43.21386" lon="5.4167">
        <ele>64.07</ele>
        <time>2012-05-27T08:10:51Z</time>
      </trkpt>
      <trkpt lat="43.21381" lon="5.41679">
        <ele>61.18</ele>
        <time>2012-05-27T08:11:04Z</time>
      </trkpt>
      <trkpt lat="43.2138" lon="5.41685">
        <ele>59.74</ele>
        <time>2012-05-27T08:11:16Z</time>
      </trkpt>
      <trkpt lat="43.21374" lon="5.41695">
        <ele>57.34</ele>
        <time>2012-05-27T08:11:32Z</time>
      </trkpt>
      <trkpt lat="43.21373" lon="5.41699">
        <ele>56.86</ele>
        <time>2012-05-27T08:11:39Z</time>
      </trkpt>
      <trkpt lat="43.2136" lon="5.4171">
        <ele>54.45</ele>
        <time>2012-05-27T08:11:55Z</time>
      </trkpt>
      <trkpt lat="43.21357" lon="5.41713">
        <ele>53.49</ele>
        <time>2012-05-27T08:11:59Z</time>
      </trkpt>
      <trkpt lat="43.21355" lon="5.41716">
        <ele>53.49</ele>
        <time>2012-05-27T08:12:01Z</time>
      </trkpt>
      <trkpt lat="43.21344" lon="5.41726">
        <ele>52.05</ele>
        <time>2012-05-27T08:12:14Z</time>
      </trkpt>
      <trkpt lat="43.21327" lon="5.41737">
        <ele>52.05</ele>
        <time>2012-05-27T08:12:31Z</time>
      </trkpt>
      <trkpt lat="43.21321" lon="5.41756">
        <ele>50.61</ele>
        <time>2012-05-27T08:12:46Z</time>
      </trkpt>
      <trkpt lat="43.21317" lon="5.41768">
        <ele>49.16</ele>
        <time>2012-05-27T08:12:58Z</time>
      </trkpt>
      <trkpt lat="43.21314" lon="5.41777">
        <ele>47.72</ele>
        <time>2012-05-27T08:13:13Z</time>
      </trkpt>
      <trkpt lat="43.2131" lon="5.41779">
        <ele>46.76</ele>
        <time>2012-05-27T08:13:21Z</time>
      </trkpt>
      <trkpt lat="43.21306" lon="5.4179">
        <ele>43.88</ele>
        <time>2012-05-27T08:13:35Z</time>
      </trkpt>
      <trkpt lat="43.21305" lon="5.418">
        <ele>41.47</ele>
        <time>2012-05-27T08:13:49Z</time>
      </trkpt>
      <trkpt lat="43.213" lon="5.41809">
        <ele>39.55</ele>
        <time>2012-05-27T08:14:00Z</time>
      </trkpt>
      <trkpt lat="43.21299" lon="5.41817">
        <ele>36.67</ele>
        <time>2012-05-27T08:14:12Z</time>
      </trkpt>
      <trkpt lat="43.21292" lon="5.41819">
        <ele>34.74</ele>
        <time>2012-05-27T08:14:24Z</time>
      </trkpt>
      <trkpt lat="43.2128" lon="5.41817">
        <ele>32.34</ele>
        <time>2012-05-27T08:14:38Z</time>
      </trkpt>
      <trkpt lat="43.21278" lon="5.4182">
        <ele>31.86</ele>
        <time>2012-05-27T08:14:41Z</time>
      </trkpt>
      <trkpt lat="43.2128" lon="5.41833">
        <ele>29.94</ele>
        <time>2012-05-27T08:14:56Z</time>
      </trkpt>
      <trkpt lat="43.21271" lon="5.4184">
        <ele>26.09</ele>
        <time>2012-05-27T08:15:12Z</time>
      </trkpt>
      <trkpt lat="43.21268" lon="5.41844">
        <ele>24.65</ele>
        <time>2012-05-27T08:15:21Z</time>
      </trkpt>
      <trkpt lat="43.21266" lon="5.41848">
        <ele>24.65</ele>
        <time>2012-05-27T08:15:24Z</time>
      </trkpt>
      <trkpt lat="43.21258" lon="5.41855">
        <ele>23.21</ele>
        <time>2012-05-27T08:15:34Z</time>
      </trkpt>
      <trkpt lat="43.21254" lon="5.41857">
        <ele>21.77</ele>
        <time>2012-05-27T08:15:39Z</time>
      </trkpt>
      <trkpt lat="43.21242" lon="5.41863">
        <ele>20.81</ele>
        <time>2012-05-27T08:15:54Z</time>
      </trkpt>
      <trkpt lat="43.21241" lon="5.41864">
        <ele>20.32</ele>
        <time>2012-05-27T08:15:55Z</time>
      </trkpt>
      <trkpt lat="43.21235" lon="5.41869">
        <ele>19.84</ele>
        <time>2012-05-27T08:16:08Z</time>
      </trkpt>
      <trkpt lat="43.21222" lon="5.41876">
        <ele>19.84</ele>
        <time>2012-05-27T08:16:21Z</time>
      </trkpt>
      <trkpt lat="43.2122" lon="5.41877">
        <ele>19.36</ele>
        <time>2012-05-27T08:16:23Z</time>
      </trkpt>
      <trkpt lat="43.21208" lon="5.41882">
        <ele>19.36</ele>
        <time>2012-05-27T08:16:34Z</time>
      </trkpt>
      <trkpt lat="43.21204" lon="5.41884">
        <ele>19.36</ele>
        <time>2012-05-27T08:16:37Z</time>
      </trkpt>
      <trkpt lat="43.21196" lon="5.41889">
        <ele>19.36</ele>
        <time>2012-05-27T08:16:45Z</time>
      </trkpt>
      <trkpt lat="43.21193" lon="5.41891">
        <ele>19.36</ele>
        <time>2012-05-27T08:16:48Z</time>
      </trkpt>
      <trkpt lat="43.21182" lon="5.41901">
        <ele>19.36</ele>
        <time>2012-05-27T08:17:02Z</time>
      </trkpt>
      <trkpt lat="43.21165" lon="5.4191">
        <ele>16.96</ele>
        <time>2012-05-27T08:17:17Z</time>
      </trkpt>
      <trkpt lat="43.21164" lon="5.4191">
        <ele>16.48</ele>
        <time>2012-05-27T08:17:18Z</time>
      </trkpt>
      <trkpt lat="43.2116" lon="5.41912">
        <ele>16.48</ele>
        <time>2012-05-27T08:17:23Z</time>
      </trkpt>
      <trkpt lat="43.21153" lon="5.41924">
        <ele>15.04</ele>
        <time>2012-05-27T08:17:34Z</time>
      </trkpt>
      <trkpt lat="43.21146" lon="5.41932">
        <ele>14.08</ele>
        <time>2012-05-27T08:17:43Z</time>
      </trkpt>
      <trkpt lat="43.21131" lon="5.41947">
        <ele>11.67</ele>
        <time>2012-05-27T08:18:01Z</time>
      </trkpt>
      <trkpt lat="43.21129" lon="5.41949">
        <ele>10.71</ele>
        <time>2012-05-27T08:18:04Z</time>
      </trkpt>
      <trkpt lat="43.21123" lon="5.41962">
        <ele>10.71</ele>
        <time>2012-05-27T08:18:15Z</time>
      </trkpt>
      <trkpt lat="43.2112" lon="5.41974">
        <ele>10.23</ele>
        <time>2012-05-27T08:18:23Z</time>
      </trkpt>
      <trkpt lat="43.21118" lon="5.41987">
        <ele>9.75</ele>
        <time>2012-05-27T08:18:31Z</time>
      </trkpt>
      <trkpt lat="43.21115" lon="5.41998">
        <ele>8.31</ele>
        <time>2012-05-27T08:18:44Z</time>
      </trkpt>
      <trkpt lat="43.21107" lon="5.4201">
        <ele>7.83</ele>
        <time>2012-05-27T08:18:55Z</time>
      </trkpt>
      <trkpt lat="43.211" lon="5.42014">
        <ele>6.39</ele>
        <time>2012-05-27T08:19:02Z</time>
      </trkpt>
      <trkpt lat="43.21092" lon="5.42017">
        <ele>5.91</ele>
        <time>2012-05-27T08:19:11Z</time>
      </trkpt>
      <trkpt lat="43.21083" lon="5.42035">
        <ele>4.94</ele>
        <time>2012-05-27T08:19:28Z</time>
      </trkpt>
      <trkpt lat="43.21078" lon="5.42053">
        <ele>2.54</ele>
        <time>2012-05-27T08:19:44Z</time>
      </trkpt>
      <trkpt lat="43.21078" lon="5.42053">
        <ele>2.54</ele>
        <time>2012-05-27T08:20:23Z</time>
      </trkpt>
      <trkpt lat="43.21078" lon="5.42052">
        <ele>2.54</ele>
        <time>2012-05-27T08:20:51Z</time>
      </trkpt>
      <trkpt lat="43.21078" lon="5.42051">
        <ele>2.54</ele>
        <time>2012-05-27T08:21:46Z</time>
      </trkpt>
      <trkpt lat="43.21079" lon="5.42049">
        <ele>2.54</ele>
        <time>2012-05-27T08:22:51Z</time>
      </trkpt>
      <trkpt lat="43.21083" lon="5.42035">
        <ele>4.94</ele>
        <time>2012-05-27T08:23:03Z</time>
      </trkpt>
      <trkpt lat="43.21083" lon="5.42028">
        <ele>4.94</ele>
        <time>2012-05-27T08:23:15Z</time>
      </trkpt>
      <trkpt lat="43.21084" lon="5.42023">
        <ele>5.42</ele>
        <time>2012-05-27T08:23:29Z</time>
      </trkpt>
      <trkpt lat="43.21091" lon="5.42017">
        <ele>5.42</ele>
        <time>2012-05-27T08:23:40Z</time>
      </trkpt>
      <trkpt lat="43.21092" lon="5.42015">
        <ele>5.42</ele>
        <time>2012-05-27T08:23:42Z</time>
      </trkpt>
      <trkpt lat="43.21103" lon="5.42016">
        <ele>6.87</ele>
        <time>2012-05-27T08:23:55Z</time>
      </trkpt>
      <trkpt lat="43.21103" lon="5.42017">
        <ele>7.35</ele>
        <time>2012-05-27T08:23:57Z</time>
      </trkpt>
      <trkpt lat="43.21108" lon="5.42019">
        <ele>7.35</ele>
        <time>2012-05-27T08:24:01Z</time>
      </trkpt>
      <trkpt lat="43.21108" lon="5.42024">
        <ele>7.83</ele>
        <time>2012-05-27T08:24:06Z</time>
      </trkpt>
      <trkpt lat="43.21108" lon="5.42031">
        <ele>7.83</ele>
        <time>2012-05-27T08:24:11Z</time>
      </trkpt>
      <trkpt lat="43.21104" lon="5.42048">
        <ele>7.83</ele>
        <time>2012-05-27T08:24:23Z</time>
      </trkpt>
      <trkpt lat="43.21105" lon="5.42054">
        <ele>8.31</ele>
        <time>2012-05-27T08:24:36Z</time>
      </trkpt>
      <trkpt lat="43.21102" lon="5.42063">
        <ele>8.31</ele>
        <time>2012-05-27T08:24:44Z</time>
      </trkpt>
      <trkpt lat="43.21102" lon="5.4208">
        <ele>7.83</ele>
        <time>2012-05-27T08:24:57Z</time>
      </trkpt>
      <trkpt lat="43.21102" lon="5.42083">
        <ele>6.87</ele>
        <time>2012-05-27T08:24:59Z</time>
      </trkpt>
      <trkpt lat="43.21101" lon="5.42088">
        <ele>7.35</ele>
        <time>2012-05-27T08:25:19Z</time>
      </trkpt>
      <trkpt lat="43.211" lon="5.42099">
        <ele>7.83</ele>
        <time>2012-05-27T08:26:02Z</time>
      </trkpt>
      <trkpt lat="43.21097" lon="5.4211">
        <ele>7.35</ele>
        <time>2012-05-27T08:26:15Z</time>
      </trkpt>
      <trkpt lat="43.21093" lon="5.42124">
        <ele>6.87</ele>
        <time>2012-05-27T08:26:26Z</time>
      </trkpt>
      <trkpt lat="43.21092" lon="5.42128">
        <ele>6.87</ele>
        <time>2012-05-27T08:26:46Z</time>
      </trkpt>
      <trkpt lat="43.21092" lon="5.42133">
        <ele>7.35</ele>
        <time>2012-05-27T08:27:07Z</time>
      </trkpt>
      <trkpt lat="43.21087" lon="5.42149">
        <ele>7.35</ele>
        <time>2012-05-27T08:27:22Z</time>
      </trkpt>
      <trkpt lat="43.21086" lon="5.42151">
        <ele>7.35</ele>
        <time>2012-05-27T08:27:23Z</time>
      </trkpt>
      <trkpt lat="43.21087" lon="5.42157">
        <ele>7.35</ele>
        <time>2012-05-27T08:27:27Z</time>
      </trkpt>
      <trkpt lat="43.21087" lon="5.42174">
        <ele>6.87</ele>
        <time>2012-05-27T08:27:39Z</time>
      </trkpt>
      <trkpt lat="43.21084" lon="5.42193">
        <ele>6.39</ele>
        <time>2012-05-27T08:27:52Z</time>
      </trkpt>
      <trkpt lat="43.21085" lon="5.42216">
        <ele>5.91</ele>
        <time>2012-05-27T08:28:09Z</time>
      </trkpt>
      <trkpt lat="43.21088" lon="5.42232">
        <ele>5.91</ele>
        <time>2012-05-27T08:28:23Z</time>
      </trkpt>
      <trkpt lat="43.21089" lon="5.42234">
        <ele>5.91</ele>
        <time>2012-05-27T08:28:29Z</time>
      </trkpt>
      <trkpt lat="43.21093" lon="5.42246">
        <ele>5.42</ele>
        <time>2012-05-27T08:28:45Z</time>
      </trkpt>
      <trkpt lat="43.21095" lon="5.4225">
        <ele>5.42</ele>
        <time>2012-05-27T08:29:07Z</time>
      </trkpt>
      <trkpt lat="43.21097" lon="5.42257">
        <ele>5.42</ele>
        <time>2012-05-27T08:29:28Z</time>
      </trkpt>
      <trkpt lat="43.21097" lon="5.42256">
        <ele>4.46</ele>
        <time>2012-05-27T08:30:31Z</time>
      </trkpt>
      <trkpt lat="43.21095" lon="5.42253">
        <ele>3.98</ele>
        <time>2012-05-27T08:31:00Z</time>
      </trkpt>
      <trkpt lat="43.21095" lon="5.42253">
        <ele>3.98</ele>
        <time>2012-05-27T08:33:21Z</time>
      </trkpt>
      <trkpt lat="43.21095" lon="5.42251">
        <ele>3.5</ele>
        <time>2012-05-27T08:35:33Z</time>
      </trkpt>
      <trkpt lat="43.21095" lon="5.42251">
        <ele>3.5</ele>
        <time>2012-05-27T08:36:09Z</time>
      </trkpt>
      <trkpt lat="43.21098" lon="5.42252">
        <ele>4.46</ele>
        <time>2012-05-27T08:40:46Z</time>
      </trkpt>
      <trkpt lat="43.21107" lon="5.42255">
        <ele>4.46</ele>
        <time>2012-05-27T08:41:00Z</time>
      </trkpt>
      <trkpt lat="43.2111" lon="5.42258">
        <ele>4.46</ele>
        <time>2012-05-27T08:41:20Z</time>
      </trkpt>
      <trkpt lat="43.21116" lon="5.42258">
        <ele>5.42</ele>
        <time>2012-05-27T08:41:33Z</time>
      </trkpt>
      <trkpt lat="43.21118" lon="5.4226">
        <ele>4.94</ele>
        <time>2012-05-27T08:41:56Z</time>
      </trkpt>
      <trkpt lat="43.21127" lon="5.42264">
        <ele>4.94</ele>
        <time>2012-05-27T08:42:30Z</time>
      </trkpt>
      <trkpt lat="43.21139" lon="5.4227">
        <ele>5.91</ele>
        <time>2012-05-27T08:42:41Z</time>
      </trkpt>
      <trkpt lat="43.21143" lon="5.42274">
        <ele>5.91</ele>
        <time>2012-05-27T08:42:46Z</time>
      </trkpt>
      <trkpt lat="43.21154" lon="5.42285">
        <ele>5.42</ele>
        <time>2012-05-27T08:42:56Z</time>
      </trkpt>
      <trkpt lat="43.21156" lon="5.42287">
        <ele>5.42</ele>
        <time>2012-05-27T08:42:58Z</time>
      </trkpt>
      <trkpt lat="43.21167" lon="5.42299">
        <ele>3.02</ele>
        <time>2012-05-27T08:43:12Z</time>
      </trkpt>
      <trkpt lat="43.21168" lon="5.423">
        <ele>3.02</ele>
        <time>2012-05-27T08:43:13Z</time>
      </trkpt>
      <trkpt lat="43.21172" lon="5.42308">
        <ele>2.06</ele>
        <time>2012-05-27T08:43:19Z</time>
      </trkpt>
      <trkpt lat="43.21179" lon="5.42324">
        <ele>1.58</ele>
        <time>2012-05-27T08:43:33Z</time>
      </trkpt>
      <trkpt lat="43.21179" lon="5.42325">
        <ele>2.54</ele>
        <time>2012-05-27T08:44:05Z</time>
      </trkpt>
      <trkpt lat="43.21173" lon="5.42332">
        <ele>2.06</ele>
        <time>2012-05-27T08:44:18Z</time>
      </trkpt>
      <trkpt lat="43.2116" lon="5.4234">
        <ele>1.58</ele>
        <time>2012-05-27T08:44:33Z</time>
      </trkpt>
      <trkpt lat="43.21155" lon="5.42343">
        <ele>1.1</ele>
        <time>2012-05-27T08:44:45Z</time>
      </trkpt>
      <trkpt lat="43.21149" lon="5.42346">
        <ele>3.02</ele>
        <time>2012-05-27T08:44:54Z</time>
      </trkpt>
      <trkpt lat="43.2114" lon="5.42357">
        <ele>3.5</ele>
        <time>2012-05-27T08:45:06Z</time>
      </trkpt>
      <trkpt lat="43.21135" lon="5.42366">
        <ele>3.02</ele>
        <time>2012-05-27T08:45:22Z</time>
      </trkpt>
      <trkpt lat="43.21135" lon="5.4237">
        <ele>2.54</ele>
        <time>2012-05-27T08:45:26Z</time>
      </trkpt>
      <trkpt lat="43.21137" lon="5.42377">
        <ele>3.02</ele>
        <time>2012-05-27T08:45:33Z</time>
      </trkpt>
      <trkpt lat="43.21134" lon="5.42391">
        <ele>3.98</ele>
        <time>2012-05-27T08:45:44Z</time>
      </trkpt>
      <trkpt lat="43.21131" lon="5.42393">
        <ele>4.46</ele>
        <time>2012-05-27T08:45:49Z</time>
      </trkpt>
      <trkpt lat="43.21127" lon="5.42395">
        <ele>5.91</ele>
        <time>2012-05-27T08:46:04Z</time>
      </trkpt>
      <trkpt lat="43.21121" lon="5.424">
        <ele>5.42</ele>
        <time>2012-05-27T08:46:17Z</time>
      </trkpt>
      <trkpt lat="43.21121" lon="5.42399">
        <ele>5.91</ele>
        <time>2012-05-27T08:47:20Z</time>
      </trkpt>
      <trkpt lat="43.21118" lon="5.42407">
        <ele>7.83</ele>
        <time>2012-05-27T08:48:02Z</time>
      </trkpt>
      <trkpt lat="43.21112" lon="5.42414">
        <ele>8.31</ele>
        <time>2012-05-27T08:48:17Z</time>
      </trkpt>
      <trkpt lat="43.21098" lon="5.42424">
        <ele>8.31</ele>
        <time>2012-05-27T08:48:30Z</time>
      </trkpt>
      <trkpt lat="43.21096" lon="5.42425">
        <ele>8.31</ele>
        <time>2012-05-27T08:48:32Z</time>
      </trkpt>
      <trkpt lat="43.21079" lon="5.42426">
        <ele>8.79</ele>
        <time>2012-05-27T08:48:46Z</time>
      </trkpt>
      <trkpt lat="43.21074" lon="5.42426">
        <ele>8.79</ele>
        <time>2012-05-27T08:48:51Z</time>
      </trkpt>
      <trkpt lat="43.21071" lon="5.42433">
        <ele>10.23</ele>
        <time>2012-05-27T08:49:07Z</time>
      </trkpt>
      <trkpt lat="43.21066" lon="5.42443">
        <ele>12.63</ele>
        <time>2012-05-27T08:49:21Z</time>
      </trkpt>
      <trkpt lat="43.21061" lon="5.42452">
        <ele>15.52</ele>
        <time>2012-05-27T08:49:34Z</time>
      </trkpt>
      <trkpt lat="43.21061" lon="5.4246">
        <ele>18.4</ele>
        <time>2012-05-27T08:49:47Z</time>
      </trkpt>
      <trkpt lat="43.21068" lon="5.42463">
        <ele>21.77</ele>
        <time>2012-05-27T08:50:00Z</time>
      </trkpt>
      <trkpt lat="43.21074" lon="5.42465">
        <ele>24.17</ele>
        <time>2012-05-27T08:50:13Z</time>
      </trkpt>
      <trkpt lat="43.21081" lon="5.42472">
        <ele>25.13</ele>
        <time>2012-05-27T08:50:26Z</time>
      </trkpt>
      <trkpt lat="43.21087" lon="5.42476">
        <ele>27.53</ele>
        <time>2012-05-27T08:50:40Z</time>
      </trkpt>
      <trkpt lat="43.21091" lon="5.42482">
        <ele>29.46</ele>
        <time>2012-05-27T08:50:54Z</time>
      </trkpt>
      <trkpt lat="43.21085" lon="5.42487">
        <ele>31.38</ele>
        <time>2012-05-27T08:51:07Z</time>
      </trkpt>
      <trkpt lat="43.2108" lon="5.42497">
        <ele>33.78</ele>
        <time>2012-05-27T08:51:21Z</time>
      </trkpt>
      <trkpt lat="43.21078" lon="5.42505">
        <ele>34.26</ele>
        <time>2012-05-27T08:51:30Z</time>
      </trkpt>
      <trkpt lat="43.21077" lon="5.42507">
        <ele>35.71</ele>
        <time>2012-05-27T08:51:33Z</time>
      </trkpt>
      <trkpt lat="43.21078" lon="5.42509">
        <ele>35.71</ele>
        <time>2012-05-27T08:51:52Z</time>
      </trkpt>
      <trkpt lat="43.21078" lon="5.42509">
        <ele>35.71</ele>
        <time>2012-05-27T08:52:26Z</time>
      </trkpt>
      <trkpt lat="43.21084" lon="5.42514">
        <ele>36.67</ele>
        <time>2012-05-27T08:52:38Z</time>
      </trkpt>
      <trkpt lat="43.21092" lon="5.42523">
        <ele>38.59</ele>
        <time>2012-05-27T08:52:53Z</time>
      </trkpt>
      <trkpt lat="43.211" lon="5.42525">
        <ele>40.51</ele>
        <time>2012-05-27T08:53:06Z</time>
      </trkpt>
      <trkpt lat="43.2111" lon="5.4253">
        <ele>42.92</ele>
        <time>2012-05-27T08:53:21Z</time>
      </trkpt>
      <trkpt lat="43.2111" lon="5.42534">
        <ele>45.32</ele>
        <time>2012-05-27T08:53:35Z</time>
      </trkpt>
      <trkpt lat="43.21112" lon="5.42538">
        <ele>48.2</ele>
        <time>2012-05-27T08:53:47Z</time>
      </trkpt>
      <trkpt lat="43.21114" lon="5.42537">
        <ele>48.2</ele>
        <time>2012-05-27T08:53:50Z</time>
      </trkpt>
      <trkpt lat="43.21122" lon="5.42541">
        <ele>49.16</ele>
        <time>2012-05-27T08:54:01Z</time>
      </trkpt>
      <trkpt lat="43.21124" lon="5.42552">
        <ele>50.61</ele>
        <time>2012-05-27T08:54:16Z</time>
      </trkpt>
      <trkpt lat="43.21128" lon="5.42562">
        <ele>53.49</ele>
        <time>2012-05-27T08:54:31Z</time>
      </trkpt>
      <trkpt lat="43.21131" lon="5.42571">
        <ele>55.89</ele>
        <time>2012-05-27T08:54:45Z</time>
      </trkpt>
      <trkpt lat="43.21134" lon="5.42581">
        <ele>57.82</ele>
        <time>2012-05-27T08:54:58Z</time>
      </trkpt>
      <trkpt lat="43.21136" lon="5.42589">
        <ele>61.18</ele>
        <time>2012-05-27T08:55:12Z</time>
      </trkpt>
      <trkpt lat="43.21142" lon="5.42592">
        <ele>62.62</ele>
        <time>2012-05-27T08:55:24Z</time>
      </trkpt>
      <trkpt lat="43.21146" lon="5.42597">
        <ele>65.51</ele>
        <time>2012-05-27T08:55:38Z</time>
      </trkpt>
      <trkpt lat="43.21153" lon="5.42601">
        <ele>67.91</ele>
        <time>2012-05-27T08:55:51Z</time>
      </trkpt>
      <trkpt lat="43.21156" lon="5.42606">
        <ele>69.83</ele>
        <time>2012-05-27T08:56:05Z</time>
      </trkpt>
      <trkpt lat="43.21159" lon="5.42609">
        <ele>72.72</ele>
        <time>2012-05-27T08:56:19Z</time>
      </trkpt>
      <trkpt lat="43.21163" lon="5.42616">
        <ele>75.12</ele>
        <time>2012-05-27T08:56:35Z</time>
      </trkpt>
      <trkpt lat="43.21164" lon="5.42618">
        <ele>75.12</ele>
        <time>2012-05-27T08:56:53Z</time>
      </trkpt>
      <trkpt lat="43.21169" lon="5.42622">
        <ele>77.52</ele>
        <time>2012-05-27T08:57:12Z</time>
      </trkpt>
      <trkpt lat="43.21173" lon="5.42628">
        <ele>79.93</ele>
        <time>2012-05-27T08:57:24Z</time>
      </trkpt>
      <trkpt lat="43.21174" lon="5.42631">
        <ele>81.85</ele>
        <time>2012-05-27T08:57:35Z</time>
      </trkpt>
      <trkpt lat="43.21174" lon="5.42638">
        <ele>85.21</ele>
        <time>2012-05-27T08:57:46Z</time>
      </trkpt>
      <trkpt lat="43.21179" lon="5.42638">
        <ele>87.14</ele>
        <time>2012-05-27T08:57:56Z</time>
      </trkpt>
      <trkpt lat="43.21186" lon="5.4264">
        <ele>88.58</ele>
        <time>2012-05-27T08:58:08Z</time>
      </trkpt>
      <trkpt lat="43.21192" lon="5.4264">
        <ele>89.54</ele>
        <time>2012-05-27T08:58:17Z</time>
      </trkpt>
      <trkpt lat="43.21198" lon="5.4264">
        <ele>90.98</ele>
        <time>2012-05-27T08:58:28Z</time>
      </trkpt>
      <trkpt lat="43.21201" lon="5.42639">
        <ele>91.94</ele>
        <time>2012-05-27T08:58:33Z</time>
      </trkpt>
      <trkpt lat="43.21206" lon="5.42643">
        <ele>94.35</ele>
        <time>2012-05-27T08:58:43Z</time>
      </trkpt>
      <trkpt lat="43.21201" lon="5.42649">
        <ele>96.75</ele>
        <time>2012-05-27T08:58:55Z</time>
      </trkpt>
      <trkpt lat="43.21194" lon="5.42656">
        <ele>97.71</ele>
        <time>2012-05-27T08:59:07Z</time>
      </trkpt>
      <trkpt lat="43.21194" lon="5.42659">
        <ele>99.63</ele>
        <time>2012-05-27T08:59:13Z</time>
      </trkpt>
      <trkpt lat="43.21199" lon="5.42663">
        <ele>101.56</ele>
        <time>2012-05-27T08:59:28Z</time>
      </trkpt>
      <trkpt lat="43.21202" lon="5.42671">
        <ele>104.44</ele>
        <time>2012-05-27T08:59:41Z</time>
      </trkpt>
      <trkpt lat="43.21209" lon="5.42669">
        <ele>106.84</ele>
        <time>2012-05-27T08:59:55Z</time>
      </trkpt>
      <trkpt lat="43.21215" lon="5.42673">
        <ele>109.73</ele>
        <time>2012-05-27T09:00:08Z</time>
      </trkpt>
      <trkpt lat="43.21217" lon="5.42675">
        <ele>111.65</ele>
        <time>2012-05-27T09:00:19Z</time>
      </trkpt>
      <trkpt lat="43.2122" lon="5.42679">
        <ele>113.57</ele>
        <time>2012-05-27T09:00:31Z</time>
      </trkpt>
      <trkpt lat="43.21217" lon="5.42685">
        <ele>115.01</ele>
        <time>2012-05-27T09:00:43Z</time>
      </trkpt>
      <trkpt lat="43.21222" lon="5.42682">
        <ele>116.94</ele>
        <time>2012-05-27T09:01:09Z</time>
      </trkpt>
      <trkpt lat="43.21227" lon="5.42685">
        <ele>119.34</ele>
        <time>2012-05-27T09:01:21Z</time>
      </trkpt>
      <trkpt lat="43.21236" lon="5.42691">
        <ele>121.26</ele>
        <time>2012-05-27T09:01:34Z</time>
      </trkpt>
      <trkpt lat="43.21238" lon="5.42697">
        <ele>124.63</ele>
        <time>2012-05-27T09:01:48Z</time>
      </trkpt>
      <trkpt lat="43.21239" lon="5.42702">
        <ele>127.03</ele>
        <time>2012-05-27T09:02:01Z</time>
      </trkpt>
      <trkpt lat="43.21248" lon="5.42708">
        <ele>128.95</ele>
        <time>2012-05-27T09:02:13Z</time>
      </trkpt>
      <trkpt lat="43.21251" lon="5.42707">
        <ele>130.88</ele>
        <time>2012-05-27T09:02:25Z</time>
      </trkpt>
      <trkpt lat="43.21257" lon="5.42708">
        <ele>133.28</ele>
        <time>2012-05-27T09:02:38Z</time>
      </trkpt>
      <trkpt lat="43.21265" lon="5.42712">
        <ele>135.68</ele>
        <time>2012-05-27T09:02:51Z</time>
      </trkpt>
      <trkpt lat="43.2127" lon="5.42721">
        <ele>138.57</ele>
        <time>2012-05-27T09:03:05Z</time>
      </trkpt>
      <trkpt lat="43.21276" lon="5.42727">
        <ele>141.45</ele>
        <time>2012-05-27T09:03:19Z</time>
      </trkpt>
      <trkpt lat="43.21279" lon="5.42731">
        <ele>143.85</ele>
        <time>2012-05-27T09:03:32Z</time>
      </trkpt>
      <trkpt lat="43.21289" lon="5.42733">
        <ele>146.74</ele>
        <time>2012-05-27T09:03:45Z</time>
      </trkpt>
      <trkpt lat="43.21288" lon="5.42736">
        <ele>148.18</ele>
        <time>2012-05-27T09:03:59Z</time>
      </trkpt>
      <trkpt lat="43.21285" lon="5.42739">
        <ele>149.62</ele>
        <time>2012-05-27T09:04:12Z</time>
      </trkpt>
      <trkpt lat="43.21283" lon="5.42742">
        <ele>151.54</ele>
        <time>2012-05-27T09:04:36Z</time>
      </trkpt>
      <trkpt lat="43.21281" lon="5.42744">
        <ele>153.47</ele>
        <time>2012-05-27T09:04:42Z</time>
      </trkpt>
      <trkpt lat="43.21278" lon="5.42745">
        <ele>155.39</ele>
        <time>2012-05-27T09:04:52Z</time>
      </trkpt>
      <trkpt lat="43.21276" lon="5.42753">
        <ele>156.83</ele>
        <time>2012-05-27T09:05:03Z</time>
      </trkpt>
      <trkpt lat="43.2128" lon="5.42761">
        <ele>159.72</ele>
        <time>2012-05-27T09:05:17Z</time>
      </trkpt>
      <trkpt lat="43.21286" lon="5.42763">
        <ele>161.64</ele>
        <time>2012-05-27T09:05:29Z</time>
      </trkpt>
      <trkpt lat="43.21288" lon="5.42765">
        <ele>165</ele>
        <time>2012-05-27T09:05:40Z</time>
      </trkpt>
      <trkpt lat="43.21288" lon="5.42766">
        <ele>166.93</ele>
        <time>2012-05-27T09:05:54Z</time>
      </trkpt>
      <trkpt lat="43.21293" lon="5.42767">
        <ele>169.33</ele>
        <time>2012-05-27T09:06:07Z</time>
      </trkpt>
      <trkpt lat="43.21293" lon="5.42767">
        <ele>169.81</ele>
        <time>2012-05-27T09:06:12Z</time>
      </trkpt>
      <trkpt lat="43.21301" lon="5.42782">
        <ele>171.25</ele>
        <time>2012-05-27T09:06:25Z</time>
      </trkpt>
      <trkpt lat="43.21314" lon="5.42799">
        <ele>169.33</ele>
        <time>2012-05-27T09:06:40Z</time>
      </trkpt>
      <trkpt lat="43.21315" lon="5.428">
        <ele>169.33</ele>
        <time>2012-05-27T09:06:41Z</time>
      </trkpt>
      <trkpt lat="43.21328" lon="5.42812">
        <ele>170.29</ele>
        <time>2012-05-27T09:06:53Z</time>
      </trkpt>
      <trkpt lat="43.2134" lon="5.42818">
        <ele>172.69</ele>
        <time>2012-05-27T09:07:09Z</time>
      </trkpt>
      <trkpt lat="43.21342" lon="5.42819">
        <ele>173.66</ele>
        <time>2012-05-27T09:07:14Z</time>
      </trkpt>
      <trkpt lat="43.21346" lon="5.42828">
        <ele>176.06</ele>
        <time>2012-05-27T09:07:27Z</time>
      </trkpt>
      <trkpt lat="43.21359" lon="5.42838">
        <ele>178.94</ele>
        <time>2012-05-27T09:07:44Z</time>
      </trkpt>
      <trkpt lat="43.21367" lon="5.42847">
        <ele>181.35</ele>
        <time>2012-05-27T09:07:58Z</time>
      </trkpt>
      <trkpt lat="43.21368" lon="5.42861">
        <ele>183.27</ele>
        <time>2012-05-27T09:08:12Z</time>
      </trkpt>
      <trkpt lat="43.21364" lon="5.42886">
        <ele>182.31</ele>
        <time>2012-05-27T09:08:27Z</time>
      </trkpt>
      <trkpt lat="43.21364" lon="5.4291">
        <ele>180.87</ele>
        <time>2012-05-27T09:08:41Z</time>
      </trkpt>
      <trkpt lat="43.21361" lon="5.42931">
        <ele>181.83</ele>
        <time>2012-05-27T09:08:54Z</time>
      </trkpt>
      <trkpt lat="43.21358" lon="5.42937">
        <ele>182.31</ele>
        <time>2012-05-27T09:09:12Z</time>
      </trkpt>
      <trkpt lat="43.21355" lon="5.42937">
        <ele>182.31</ele>
        <time>2012-05-27T09:09:35Z</time>
      </trkpt>
      <trkpt lat="43.21351" lon="5.42946">
        <ele>184.23</ele>
        <time>2012-05-27T09:09:43Z</time>
      </trkpt>
      <trkpt lat="43.21339" lon="5.42955">
        <ele>186.63</ele>
        <time>2012-05-27T09:09:56Z</time>
      </trkpt>
      <trkpt lat="43.21335" lon="5.42957">
        <ele>186.15</ele>
        <time>2012-05-27T09:10:00Z</time>
      </trkpt>
      <trkpt lat="43.21328" lon="5.42972">
        <ele>185.67</ele>
        <time>2012-05-27T09:10:15Z</time>
      </trkpt>
      <trkpt lat="43.21326" lon="5.42979">
        <ele>185.19</ele>
        <time>2012-05-27T09:10:30Z</time>
      </trkpt>
      <trkpt lat="43.21319" lon="5.42995">
        <ele>185.19</ele>
        <time>2012-05-27T09:10:48Z</time>
      </trkpt>
      <trkpt lat="43.21318" lon="5.42996">
        <ele>185.19</ele>
        <time>2012-05-27T09:10:49Z</time>
      </trkpt>
      <trkpt lat="43.21309" lon="5.43011">
        <ele>187.11</ele>
        <time>2012-05-27T09:11:03Z</time>
      </trkpt>
      <trkpt lat="43.21302" lon="5.43017">
        <ele>187.59</ele>
        <time>2012-05-27T09:11:14Z</time>
      </trkpt>
      <trkpt lat="43.213" lon="5.43017">
        <ele>187.59</ele>
        <time>2012-05-27T09:11:16Z</time>
      </trkpt>
      <trkpt lat="43.21285" lon="5.43021">
        <ele>187.11</ele>
        <time>2012-05-27T09:11:32Z</time>
      </trkpt>
      <trkpt lat="43.21268" lon="5.43022">
        <ele>187.59</ele>
        <time>2012-05-27T09:11:48Z</time>
      </trkpt>
      <trkpt lat="43.2126" lon="5.43029">
        <ele>188.08</ele>
        <time>2012-05-27T09:12:03Z</time>
      </trkpt>
      <trkpt lat="43.21259" lon="5.43028">
        <ele>189.04</ele>
        <time>2012-05-27T09:12:48Z</time>
      </trkpt>
      <trkpt lat="43.2126" lon="5.43027">
        <ele>188.56</ele>
        <time>2012-05-27T09:13:34Z</time>
      </trkpt>
      <trkpt lat="43.21259" lon="5.43026">
        <ele>188.56</ele>
        <time>2012-05-27T09:14:35Z</time>
      </trkpt>
      <trkpt lat="43.21258" lon="5.43034">
        <ele>188.56</ele>
        <time>2012-05-27T09:14:55Z</time>
      </trkpt>
      <trkpt lat="43.21256" lon="5.43051">
        <ele>189.52</ele>
        <time>2012-05-27T09:15:08Z</time>
      </trkpt>
      <trkpt lat="43.21251" lon="5.43069">
        <ele>192.4</ele>
        <time>2012-05-27T09:15:23Z</time>
      </trkpt>
      <trkpt lat="43.21244" lon="5.43084">
        <ele>193.84</ele>
        <time>2012-05-27T09:15:37Z</time>
      </trkpt>
      <trkpt lat="43.21244" lon="5.43086">
        <ele>193.84</ele>
        <time>2012-05-27T09:15:38Z</time>
      </trkpt>
      <trkpt lat="43.21233" lon="5.43104">
        <ele>193.36</ele>
        <time>2012-05-27T09:15:55Z</time>
      </trkpt>
      <trkpt lat="43.21226" lon="5.43119">
        <ele>195.28</ele>
        <time>2012-05-27T09:16:09Z</time>
      </trkpt>
      <trkpt lat="43.21223" lon="5.43134">
        <ele>197.69</ele>
        <time>2012-05-27T09:16:24Z</time>
      </trkpt>
      <trkpt lat="43.21223" lon="5.43136">
        <ele>197.69</ele>
        <time>2012-05-27T09:16:25Z</time>
      </trkpt>
      <trkpt lat="43.21225" lon="5.43153">
        <ele>200.09</ele>
        <time>2012-05-27T09:16:40Z</time>
      </trkpt>
      <trkpt lat="43.21228" lon="5.43164">
        <ele>203.46</ele>
        <time>2012-05-27T09:16:54Z</time>
      </trkpt>
      <trkpt lat="43.2123" lon="5.43176">
        <ele>206.34</ele>
        <time>2012-05-27T09:17:08Z</time>
      </trkpt>
      <trkpt lat="43.21234" lon="5.43186">
        <ele>209.22</ele>
        <time>2012-05-27T09:17:23Z</time>
      </trkpt>
      <trkpt lat="43.21238" lon="5.43191">
        <ele>212.11</ele>
        <time>2012-05-27T09:17:38Z</time>
      </trkpt>
      <trkpt lat="43.21242" lon="5.43196">
        <ele>214.51</ele>
        <time>2012-05-27T09:17:50Z</time>
      </trkpt>
      <trkpt lat="43.21248" lon="5.43205">
        <ele>216.91</ele>
        <time>2012-05-27T09:18:04Z</time>
      </trkpt>
      <trkpt lat="43.2125" lon="5.43208">
        <ele>217.88</ele>
        <time>2012-05-27T09:18:09Z</time>
      </trkpt>
      <trkpt lat="43.21258" lon="5.43214">
        <ele>220.28</ele>
        <time>2012-05-27T09:18:22Z</time>
      </trkpt>
      <trkpt lat="43.21259" lon="5.43216">
        <ele>220.76</ele>
        <time>2012-05-27T09:18:25Z</time>
      </trkpt>
      <trkpt lat="43.21267" lon="5.4323">
        <ele>223.16</ele>
        <time>2012-05-27T09:18:41Z</time>
      </trkpt>
      <trkpt lat="43.21265" lon="5.43232">
        <ele>222.68</ele>
        <time>2012-05-27T09:18:43Z</time>
      </trkpt>
      <trkpt lat="43.21266" lon="5.43235">
        <ele>222.2</ele>
        <time>2012-05-27T09:18:53Z</time>
      </trkpt>
      <trkpt lat="43.21264" lon="5.43239">
        <ele>222.2</ele>
        <time>2012-05-27T09:19:04Z</time>
      </trkpt>
      <trkpt lat="43.21264" lon="5.43239">
        <ele>221.72</ele>
        <time>2012-05-27T09:19:35Z</time>
      </trkpt>
      <trkpt lat="43.21263" lon="5.43239">
        <ele>222.68</ele>
        <time>2012-05-27T09:19:58Z</time>
      </trkpt>
      <trkpt lat="43.21263" lon="5.43236">
        <ele>222.68</ele>
        <time>2012-05-27T09:21:04Z</time>
      </trkpt>
      <trkpt lat="43.21264" lon="5.43236">
        <ele>222.68</ele>
        <time>2012-05-27T09:23:12Z</time>
      </trkpt>
      <trkpt lat="43.21262" lon="5.43247">
        <ele>222.68</ele>
        <time>2012-05-27T09:23:52Z</time>
      </trkpt>
      <trkpt lat="43.21264" lon="5.43263">
        <ele>222.68</ele>
        <time>2012-05-27T09:24:02Z</time>
      </trkpt>
      <trkpt lat="43.21264" lon="5.43264">
        <ele>222.68</ele>
        <time>2012-05-27T09:24:03Z</time>
      </trkpt>
      <trkpt lat="43.21265" lon="5.43278">
        <ele>222.2</ele>
        <time>2012-05-27T09:24:14Z</time>
      </trkpt>
      <trkpt lat="43.21265" lon="5.43282">
        <ele>221.24</ele>
        <time>2012-05-27T09:24:18Z</time>
      </trkpt>
      <trkpt lat="43.21267" lon="5.43289">
        <ele>221.72</ele>
        <time>2012-05-27T09:24:22Z</time>
      </trkpt>
      <trkpt lat="43.21269" lon="5.4329">
        <ele>221.24</ele>
        <time>2012-05-27T09:24:24Z</time>
      </trkpt>
      <trkpt lat="43.21273" lon="5.43296">
        <ele>221.72</ele>
        <time>2012-05-27T09:24:29Z</time>
      </trkpt>
      <trkpt lat="43.21275" lon="5.43301">
        <ele>220.76</ele>
        <time>2012-05-27T09:24:40Z</time>
      </trkpt>
      <trkpt lat="43.21278" lon="5.43308">
        <ele>221.24</ele>
        <time>2012-05-27T09:24:46Z</time>
      </trkpt>
      <trkpt lat="43.21281" lon="5.4332">
        <ele>220.76</ele>
        <time>2012-05-27T09:24:55Z</time>
      </trkpt>
      <trkpt lat="43.21284" lon="5.43332">
        <ele>220.76</ele>
        <time>2012-05-27T09:25:04Z</time>
      </trkpt>
      <trkpt lat="43.21286" lon="5.43334">
        <ele>220.28</ele>
        <time>2012-05-27T09:25:06Z</time>
      </trkpt>
      <trkpt lat="43.2129" lon="5.43356">
        <ele>220.28</ele>
        <time>2012-05-27T09:25:21Z</time>
      </trkpt>
      <trkpt lat="43.2129" lon="5.43359">
        <ele>220.28</ele>
        <time>2012-05-27T09:25:23Z</time>
      </trkpt>
      <trkpt lat="43.2129" lon="5.43366">
        <ele>219.8</ele>
        <time>2012-05-27T09:25:41Z</time>
      </trkpt>
      <trkpt lat="43.21291" lon="5.43382">
        <ele>219.8</ele>
        <time>2012-05-27T09:25:55Z</time>
      </trkpt>
      <trkpt lat="43.21287" lon="5.43397">
        <ele>218.84</ele>
        <time>2012-05-27T09:26:08Z</time>
      </trkpt>
      <trkpt lat="43.21285" lon="5.43404">
        <ele>218.84</ele>
        <time>2012-05-27T09:26:14Z</time>
      </trkpt>
      <trkpt lat="43.21285" lon="5.43413">
        <ele>218.84</ele>
        <time>2012-05-27T09:26:21Z</time>
      </trkpt>
      <trkpt lat="43.21286" lon="5.43424">
        <ele>220.28</ele>
        <time>2012-05-27T09:26:30Z</time>
      </trkpt>
      <trkpt lat="43.21284" lon="5.43426">
        <ele>219.8</ele>
        <time>2012-05-27T09:26:32Z</time>
      </trkpt>
      <trkpt lat="43.21281" lon="5.43442">
        <ele>220.28</ele>
        <time>2012-05-27T09:26:44Z</time>
      </trkpt>
      <trkpt lat="43.21273" lon="5.43457">
        <ele>220.76</ele>
        <time>2012-05-27T09:26:58Z</time>
      </trkpt>
      <trkpt lat="43.2127" lon="5.43473">
        <ele>221.24</ele>
        <time>2012-05-27T09:27:12Z</time>
      </trkpt>
      <trkpt lat="43.21268" lon="5.43474">
        <ele>221.24</ele>
        <time>2012-05-27T09:27:14Z</time>
      </trkpt>
      <trkpt lat="43.21259" lon="5.43485">
        <ele>222.2</ele>
        <time>2012-05-27T09:27:26Z</time>
      </trkpt>
      <trkpt lat="43.21247" lon="5.43496">
        <ele>223.16</ele>
        <time>2012-05-27T09:27:39Z</time>
      </trkpt>
      <trkpt lat="43.21236" lon="5.43508">
        <ele>224.12</ele>
        <time>2012-05-27T09:27:52Z</time>
      </trkpt>
      <trkpt lat="43.2123" lon="5.43519">
        <ele>225.09</ele>
        <time>2012-05-27T09:28:03Z</time>
      </trkpt>
      <trkpt lat="43.21224" lon="5.43528">
        <ele>226.05</ele>
        <time>2012-05-27T09:28:12Z</time>
      </trkpt>
      <trkpt lat="43.21211" lon="5.43538">
        <ele>226.53</ele>
        <time>2012-05-27T09:28:25Z</time>
      </trkpt>
      <trkpt lat="43.21206" lon="5.43542">
        <ele>226.53</ele>
        <time>2012-05-27T09:28:30Z</time>
      </trkpt>
      <trkpt lat="43.21203" lon="5.43546">
        <ele>227.01</ele>
        <time>2012-05-27T09:28:33Z</time>
      </trkpt>
      <trkpt lat="43.21198" lon="5.43553">
        <ele>226.53</ele>
        <time>2012-05-27T09:28:41Z</time>
      </trkpt>
      <trkpt lat="43.21195" lon="5.43563">
        <ele>226.05</ele>
        <time>2012-05-27T09:28:54Z</time>
      </trkpt>
      <trkpt lat="43.21193" lon="5.43568">
        <ele>226.05</ele>
        <time>2012-05-27T09:29:03Z</time>
      </trkpt>
      <trkpt lat="43.21184" lon="5.43584">
        <ele>226.05</ele>
        <time>2012-05-27T09:29:15Z</time>
      </trkpt>
      <trkpt lat="43.21184" lon="5.43585">
        <ele>226.05</ele>
        <time>2012-05-27T09:29:16Z</time>
      </trkpt>
      <trkpt lat="43.21183" lon="5.43588">
        <ele>226.05</ele>
        <time>2012-05-27T09:29:18Z</time>
      </trkpt>
      <trkpt lat="43.21179" lon="5.436">
        <ele>225.09</ele>
        <time>2012-05-27T09:29:27Z</time>
      </trkpt>
      <trkpt lat="43.21176" lon="5.43602">
        <ele>225.57</ele>
        <time>2012-05-27T09:29:31Z</time>
      </trkpt>
      <trkpt lat="43.21173" lon="5.43615">
        <ele>226.05</ele>
        <time>2012-05-27T09:29:39Z</time>
      </trkpt>
      <trkpt lat="43.21169" lon="5.43634">
        <ele>226.05</ele>
        <time>2012-05-27T09:29:52Z</time>
      </trkpt>
      <trkpt lat="43.21168" lon="5.43638">
        <ele>226.05</ele>
        <time>2012-05-27T09:29:54Z</time>
      </trkpt>
      <trkpt lat="43.21168" lon="5.43653">
        <ele>226.53</ele>
        <time>2012-05-27T09:30:03Z</time>
      </trkpt>
      <trkpt lat="43.2117" lon="5.43674">
        <ele>226.53</ele>
        <time>2012-05-27T09:30:17Z</time>
      </trkpt>
      <trkpt lat="43.21169" lon="5.43692">
        <ele>227.49</ele>
        <time>2012-05-27T09:30:31Z</time>
      </trkpt>
      <trkpt lat="43.21171" lon="5.43701">
        <ele>227.49</ele>
        <time>2012-05-27T09:30:43Z</time>
      </trkpt>
      <trkpt lat="43.21173" lon="5.4371">
        <ele>227.01</ele>
        <time>2012-05-27T09:30:55Z</time>
      </trkpt>
      <trkpt lat="43.21176" lon="5.43724">
        <ele>225.09</ele>
        <time>2012-05-27T09:31:15Z</time>
      </trkpt>
      <trkpt lat="43.21177" lon="5.43726">
        <ele>225.09</ele>
        <time>2012-05-27T09:31:16Z</time>
      </trkpt>
      <trkpt lat="43.2118" lon="5.43733">
        <ele>223.64</ele>
        <time>2012-05-27T09:31:29Z</time>
      </trkpt>
      <trkpt lat="43.21181" lon="5.43735">
        <ele>223.64</ele>
        <time>2012-05-27T09:33:16Z</time>
      </trkpt>
      <trkpt lat="43.21181" lon="5.43742">
        <ele>221.24</ele>
        <time>2012-05-27T09:33:26Z</time>
      </trkpt>
      <trkpt lat="43.2117" lon="5.43746">
        <ele>219.32</ele>
        <time>2012-05-27T09:33:40Z</time>
      </trkpt>
      <trkpt lat="43.21169" lon="5.43747">
        <ele>218.84</ele>
        <time>2012-05-27T09:33:41Z</time>
      </trkpt>
      <trkpt lat="43.21161" lon="5.43749">
        <ele>217.88</ele>
        <time>2012-05-27T09:33:49Z</time>
      </trkpt>
      <trkpt lat="43.21156" lon="5.43747">
        <ele>216.43</ele>
        <time>2012-05-27T09:33:56Z</time>
      </trkpt>
      <trkpt lat="43.2115" lon="5.4375">
        <ele>214.51</ele>
        <time>2012-05-27T09:34:09Z</time>
      </trkpt>
      <trkpt lat="43.21143" lon="5.43751">
        <ele>213.55</ele>
        <time>2012-05-27T09:34:16Z</time>
      </trkpt>
      <trkpt lat="43.21129" lon="5.43753">
        <ele>213.55</ele>
        <time>2012-05-27T09:34:30Z</time>
      </trkpt>
      <trkpt lat="43.21116" lon="5.4376">
        <ele>213.07</ele>
        <time>2012-05-27T09:34:44Z</time>
      </trkpt>
      <trkpt lat="43.21105" lon="5.43765">
        <ele>214.51</ele>
        <time>2012-05-27T09:34:56Z</time>
      </trkpt>
      <trkpt lat="43.21096" lon="5.43772">
        <ele>215.95</ele>
        <time>2012-05-27T09:35:08Z</time>
      </trkpt>
      <trkpt lat="43.21095" lon="5.43776">
        <ele>215.95</ele>
        <time>2012-05-27T09:35:12Z</time>
      </trkpt>
      <trkpt lat="43.2109" lon="5.43783">
        <ele>216.43</ele>
        <time>2012-05-27T09:35:20Z</time>
      </trkpt>
      <trkpt lat="43.21081" lon="5.43793">
        <ele>216.43</ele>
        <time>2012-05-27T09:35:33Z</time>
      </trkpt>
      <trkpt lat="43.21072" lon="5.43815">
        <ele>214.99</ele>
        <time>2012-05-27T09:35:47Z</time>
      </trkpt>
      <trkpt lat="43.21069" lon="5.43823">
        <ele>215.47</ele>
        <time>2012-05-27T09:35:53Z</time>
      </trkpt>
      <trkpt lat="43.21066" lon="5.43839">
        <ele>215.47</ele>
        <time>2012-05-27T09:36:04Z</time>
      </trkpt>
      <trkpt lat="43.21062" lon="5.43846">
        <ele>214.99</ele>
        <time>2012-05-27T09:36:10Z</time>
      </trkpt>
      <trkpt lat="43.21057" lon="5.43861">
        <ele>215.47</ele>
        <time>2012-05-27T09:36:22Z</time>
      </trkpt>
      <trkpt lat="43.21057" lon="5.43866">
        <ele>215.47</ele>
        <time>2012-05-27T09:36:26Z</time>
      </trkpt>
      <trkpt lat="43.21054" lon="5.43883">
        <ele>216.43</ele>
        <time>2012-05-27T09:36:42Z</time>
      </trkpt>
      <trkpt lat="43.21054" lon="5.43893">
        <ele>216.43</ele>
        <time>2012-05-27T09:36:51Z</time>
      </trkpt>
      <trkpt lat="43.21056" lon="5.43904">
        <ele>216.43</ele>
        <time>2012-05-27T09:36:57Z</time>
      </trkpt>
      <trkpt lat="43.21055" lon="5.43921">
        <ele>217.88</ele>
        <time>2012-05-27T09:37:11Z</time>
      </trkpt>
      <trkpt lat="43.21054" lon="5.43924">
        <ele>217.88</ele>
        <time>2012-05-27T09:37:14Z</time>
      </trkpt>
      <trkpt lat="43.21048" lon="5.43939">
        <ele>219.8</ele>
        <time>2012-05-27T09:37:26Z</time>
      </trkpt>
      <trkpt lat="43.21044" lon="5.43946">
        <ele>223.16</ele>
        <time>2012-05-27T09:37:41Z</time>
      </trkpt>
      <trkpt lat="43.21042" lon="5.43952">
        <ele>224.12</ele>
        <time>2012-05-27T09:37:56Z</time>
      </trkpt>
      <trkpt lat="43.2104" lon="5.43962">
        <ele>223.64</ele>
        <time>2012-05-27T09:38:03Z</time>
      </trkpt>
      <trkpt lat="43.21039" lon="5.43967">
        <ele>223.16</ele>
        <time>2012-05-27T09:38:06Z</time>
      </trkpt>
      <trkpt lat="43.21033" lon="5.43982">
        <ele>221.72</ele>
        <time>2012-05-27T09:38:18Z</time>
      </trkpt>
      <trkpt lat="43.21031" lon="5.43986">
        <ele>221.72</ele>
        <time>2012-05-27T09:38:21Z</time>
      </trkpt>
      <trkpt lat="43.21025" lon="5.44004">
        <ele>218.84</ele>
        <time>2012-05-27T09:38:35Z</time>
      </trkpt>
      <trkpt lat="43.21019" lon="5.44013">
        <ele>217.4</ele>
        <time>2012-05-27T09:38:47Z</time>
      </trkpt>
      <trkpt lat="43.21016" lon="5.4402">
        <ele>215.95</ele>
        <time>2012-05-27T09:38:56Z</time>
      </trkpt>
      <trkpt lat="43.21007" lon="5.44032">
        <ele>214.03</ele>
        <time>2012-05-27T09:39:10Z</time>
      </trkpt>
      <trkpt lat="43.21003" lon="5.44043">
        <ele>211.63</ele>
        <time>2012-05-27T09:39:20Z</time>
      </trkpt>
      <trkpt lat="43.20998" lon="5.44046">
        <ele>209.7</ele>
        <time>2012-05-27T09:39:28Z</time>
      </trkpt>
      <trkpt lat="43.2099" lon="5.44052">
        <ele>208.74</ele>
        <time>2012-05-27T09:39:41Z</time>
      </trkpt>
      <trkpt lat="43.20983" lon="5.44058">
        <ele>205.86</ele>
        <time>2012-05-27T09:39:52Z</time>
      </trkpt>
      <trkpt lat="43.20975" lon="5.44067">
        <ele>204.42</ele>
        <time>2012-05-27T09:40:04Z</time>
      </trkpt>
      <trkpt lat="43.20966" lon="5.44083">
        <ele>203.94</ele>
        <time>2012-05-27T09:40:17Z</time>
      </trkpt>
      <trkpt lat="43.20957" lon="5.44091">
        <ele>204.9</ele>
        <time>2012-05-27T09:40:31Z</time>
      </trkpt>
      <trkpt lat="43.20949" lon="5.44095">
        <ele>204.9</ele>
        <time>2012-05-27T09:40:44Z</time>
      </trkpt>
      <trkpt lat="43.20938" lon="5.44105">
        <ele>204.42</ele>
        <time>2012-05-27T09:40:58Z</time>
      </trkpt>
      <trkpt lat="43.20934" lon="5.44113">
        <ele>205.38</ele>
        <time>2012-05-27T09:41:10Z</time>
      </trkpt>
      <trkpt lat="43.20923" lon="5.44122">
        <ele>204.42</ele>
        <time>2012-05-27T09:41:21Z</time>
      </trkpt>
      <trkpt lat="43.20922" lon="5.44127">
        <ele>204.42</ele>
        <time>2012-05-27T09:41:26Z</time>
      </trkpt>
      <trkpt lat="43.20921" lon="5.4413">
        <ele>204.42</ele>
        <time>2012-05-27T09:41:28Z</time>
      </trkpt>
      <trkpt lat="43.20916" lon="5.44143">
        <ele>204.9</ele>
        <time>2012-05-27T09:41:37Z</time>
      </trkpt>
      <trkpt lat="43.20912" lon="5.44159">
        <ele>204.9</ele>
        <time>2012-05-27T09:41:49Z</time>
      </trkpt>
      <trkpt lat="43.2091" lon="5.44174">
        <ele>202.49</ele>
        <time>2012-05-27T09:42:03Z</time>
      </trkpt>
      <trkpt lat="43.20907" lon="5.44187">
        <ele>200.57</ele>
        <time>2012-05-27T09:42:16Z</time>
      </trkpt>
      <trkpt lat="43.20906" lon="5.4419">
        <ele>200.57</ele>
        <time>2012-05-27T09:42:34Z</time>
      </trkpt>
      <trkpt lat="43.20905" lon="5.44202">
        <ele>199.13</ele>
        <time>2012-05-27T09:42:49Z</time>
      </trkpt>
      <trkpt lat="43.20901" lon="5.4422">
        <ele>198.17</ele>
        <time>2012-05-27T09:43:01Z</time>
      </trkpt>
      <trkpt lat="43.20897" lon="5.44237">
        <ele>197.21</ele>
        <time>2012-05-27T09:43:15Z</time>
      </trkpt>
      <trkpt lat="43.20895" lon="5.44258">
        <ele>195.77</ele>
        <time>2012-05-27T09:43:30Z</time>
      </trkpt>
      <trkpt lat="43.20891" lon="5.44266">
        <ele>195.77</ele>
        <time>2012-05-27T09:43:38Z</time>
      </trkpt>
      <trkpt lat="43.20884" lon="5.4427">
        <ele>196.25</ele>
        <time>2012-05-27T09:43:49Z</time>
      </trkpt>
      <trkpt lat="43.20881" lon="5.44276">
        <ele>196.73</ele>
        <time>2012-05-27T09:43:54Z</time>
      </trkpt>
      <trkpt lat="43.20879" lon="5.44278">
        <ele>196.73</ele>
        <time>2012-05-27T09:43:56Z</time>
      </trkpt>
      <trkpt lat="43.20872" lon="5.44294">
        <ele>198.65</ele>
        <time>2012-05-27T09:44:11Z</time>
      </trkpt>
      <trkpt lat="43.20867" lon="5.44303">
        <ele>200.09</ele>
        <time>2012-05-27T09:44:24Z</time>
      </trkpt>
      <trkpt lat="43.20859" lon="5.44306">
        <ele>201.53</ele>
        <time>2012-05-27T09:44:36Z</time>
      </trkpt>
      <trkpt lat="43.20851" lon="5.44315">
        <ele>202.98</ele>
        <time>2012-05-27T09:44:49Z</time>
      </trkpt>
      <trkpt lat="43.20845" lon="5.44324">
        <ele>205.38</ele>
        <time>2012-05-27T09:45:01Z</time>
      </trkpt>
      <trkpt lat="43.20838" lon="5.44332">
        <ele>206.82</ele>
        <time>2012-05-27T09:45:13Z</time>
      </trkpt>
      <trkpt lat="43.20834" lon="5.44333">
        <ele>207.3</ele>
        <time>2012-05-27T09:45:18Z</time>
      </trkpt>
      <trkpt lat="43.20828" lon="5.44334">
        <ele>208.74</ele>
        <time>2012-05-27T09:45:31Z</time>
      </trkpt>
      <trkpt lat="43.20825" lon="5.44334">
        <ele>208.74</ele>
        <time>2012-05-27T09:45:40Z</time>
      </trkpt>
      <trkpt lat="43.20818" lon="5.44331">
        <ele>209.22</ele>
        <time>2012-05-27T09:45:55Z</time>
      </trkpt>
      <trkpt lat="43.20812" lon="5.44333">
        <ele>209.22</ele>
        <time>2012-05-27T09:46:01Z</time>
      </trkpt>
      <trkpt lat="43.20802" lon="5.44338">
        <ele>209.7</ele>
        <time>2012-05-27T09:46:12Z</time>
      </trkpt>
      <trkpt lat="43.208" lon="5.44339">
        <ele>209.7</ele>
        <time>2012-05-27T09:46:14Z</time>
      </trkpt>
      <trkpt lat="43.20796" lon="5.44346">
        <ele>210.19</ele>
        <time>2012-05-27T09:46:30Z</time>
      </trkpt>
      <trkpt lat="43.208" lon="5.4435">
        <ele>210.19</ele>
        <time>2012-05-27T09:47:39Z</time>
      </trkpt>
      <trkpt lat="43.208" lon="5.4435">
        <ele>211.63</ele>
        <time>2012-05-27T09:48:18Z</time>
      </trkpt>
      <trkpt lat="43.208" lon="5.44349">
        <ele>211.63</ele>
        <time>2012-05-27T09:49:41Z</time>
      </trkpt>
      <trkpt lat="43.20799" lon="5.44348">
        <ele>211.63</ele>
        <time>2012-05-27T09:50:30Z</time>
      </trkpt>
      <trkpt lat="43.20796" lon="5.44349">
        <ele>211.15</ele>
        <time>2012-05-27T09:51:10Z</time>
      </trkpt>
      <trkpt lat="43.20794" lon="5.44352">
        <ele>210.19</ele>
        <time>2012-05-27T09:51:16Z</time>
      </trkpt>
      <trkpt lat="43.20791" lon="5.44355">
        <ele>208.26</ele>
        <time>2012-05-27T09:51:23Z</time>
      </trkpt>
      <trkpt lat="43.2079" lon="5.44357">
        <ele>207.78</ele>
        <time>2012-05-27T09:51:28Z</time>
      </trkpt>
      <trkpt lat="43.20789" lon="5.44359">
        <ele>207.3</ele>
        <time>2012-05-27T09:51:30Z</time>
      </trkpt>
      <trkpt lat="43.20789" lon="5.44362">
        <ele>205.86</ele>
        <time>2012-05-27T09:51:33Z</time>
      </trkpt>
      <trkpt lat="43.20781" lon="5.4437">
        <ele>204.42</ele>
        <time>2012-05-27T09:51:46Z</time>
      </trkpt>
      <trkpt lat="43.20775" lon="5.44377">
        <ele>204.42</ele>
        <time>2012-05-27T09:51:58Z</time>
      </trkpt>
      <trkpt lat="43.20775" lon="5.44376">
        <ele>205.38</ele>
        <time>2012-05-27T09:52:56Z</time>
      </trkpt>
      <trkpt lat="43.20775" lon="5.44377">
        <ele>205.38</ele>
        <time>2012-05-27T09:53:19Z</time>
      </trkpt>
      <trkpt lat="43.2077" lon="5.44377">
        <ele>203.94</ele>
        <time>2012-05-27T09:53:54Z</time>
      </trkpt>
      <trkpt lat="43.20766" lon="5.44379">
        <ele>202.49</ele>
        <time>2012-05-27T09:54:04Z</time>
      </trkpt>
      <trkpt lat="43.20762" lon="5.44379">
        <ele>201.53</ele>
        <time>2012-05-27T09:54:14Z</time>
      </trkpt>
      <trkpt lat="43.20762" lon="5.44379">
        <ele>201.53</ele>
        <time>2012-05-27T09:54:15Z</time>
      </trkpt>
      <trkpt lat="43.20754" lon="5.44376">
        <ele>198.17</ele>
        <time>2012-05-27T09:54:26Z</time>
      </trkpt>
      <trkpt lat="43.20743" lon="5.4437">
        <ele>195.28</ele>
        <time>2012-05-27T09:54:39Z</time>
      </trkpt>
      <trkpt lat="43.20742" lon="5.44371">
        <ele>194.8</ele>
        <time>2012-05-27T09:54:41Z</time>
      </trkpt>
      <trkpt lat="43.20739" lon="5.4437">
        <ele>193.84</ele>
        <time>2012-05-27T09:54:43Z</time>
      </trkpt>
      <trkpt lat="43.20734" lon="5.44371">
        <ele>191.44</ele>
        <time>2012-05-27T09:54:57Z</time>
      </trkpt>
      <trkpt lat="43.20731" lon="5.44375">
        <ele>189.52</ele>
        <time>2012-05-27T09:55:09Z</time>
      </trkpt>
      <trkpt lat="43.20723" lon="5.44371">
        <ele>186.63</ele>
        <time>2012-05-27T09:55:22Z</time>
      </trkpt>
      <trkpt lat="43.20723" lon="5.44375">
        <ele>184.23</ele>
        <time>2012-05-27T09:55:32Z</time>
      </trkpt>
      <trkpt lat="43.2072" lon="5.44374">
        <ele>183.27</ele>
        <time>2012-05-27T09:55:46Z</time>
      </trkpt>
      <trkpt lat="43.20718" lon="5.44377">
        <ele>180.38</ele>
        <time>2012-05-27T09:55:58Z</time>
      </trkpt>
      <trkpt lat="43.20717" lon="5.4438">
        <ele>179.42</ele>
        <time>2012-05-27T09:56:07Z</time>
      </trkpt>
      <trkpt lat="43.20719" lon="5.4439">
        <ele>177.02</ele>
        <time>2012-05-27T09:56:20Z</time>
      </trkpt>
      <trkpt lat="43.2072" lon="5.44395">
        <ele>175.58</ele>
        <time>2012-05-27T09:56:29Z</time>
      </trkpt>
      <trkpt lat="43.20721" lon="5.44399">
        <ele>174.14</ele>
        <time>2012-05-27T09:56:39Z</time>
      </trkpt>
      <trkpt lat="43.2072" lon="5.44406">
        <ele>171.25</ele>
        <time>2012-05-27T09:56:52Z</time>
      </trkpt>
      <trkpt lat="43.20716" lon="5.44404">
        <ele>170.29</ele>
        <time>2012-05-27T09:57:05Z</time>
      </trkpt>
      <trkpt lat="43.20713" lon="5.44406">
        <ele>169.81</ele>
        <time>2012-05-27T09:57:21Z</time>
      </trkpt>
      <trkpt lat="43.20709" lon="5.44404">
        <ele>167.41</ele>
        <time>2012-05-27T09:57:35Z</time>
      </trkpt>
      <trkpt lat="43.20706" lon="5.44406">
        <ele>165.96</ele>
        <time>2012-05-27T09:57:45Z</time>
      </trkpt>
      <trkpt lat="43.20705" lon="5.44408">
        <ele>164.52</ele>
        <time>2012-05-27T09:57:57Z</time>
      </trkpt>
      <trkpt lat="43.20706" lon="5.44411">
        <ele>162.12</ele>
        <time>2012-05-27T09:58:08Z</time>
      </trkpt>
      <trkpt lat="43.20706" lon="5.44418">
        <ele>160.68</ele>
        <time>2012-05-27T09:58:19Z</time>
      </trkpt>
      <trkpt lat="43.20704" lon="5.44422">
        <ele>158.75</ele>
        <time>2012-05-27T09:58:30Z</time>
      </trkpt>
      <trkpt lat="43.20704" lon="5.44426">
        <ele>157.79</ele>
        <time>2012-05-27T09:58:46Z</time>
      </trkpt>
      <trkpt lat="43.20703" lon="5.44429">
        <ele>156.35</ele>
        <time>2012-05-27T09:58:59Z</time>
      </trkpt>
      <trkpt lat="43.20698" lon="5.44433">
        <ele>154.43</ele>
        <time>2012-05-27T09:59:15Z</time>
      </trkpt>
      <trkpt lat="43.20696" lon="5.44431">
        <ele>152.51</ele>
        <time>2012-05-27T09:59:26Z</time>
      </trkpt>
      <trkpt lat="43.20696" lon="5.44432">
        <ele>151.06</ele>
        <time>2012-05-27T09:59:37Z</time>
      </trkpt>
      <trkpt lat="43.2069" lon="5.44433">
        <ele>149.14</ele>
        <time>2012-05-27T09:59:46Z</time>
      </trkpt>
      <trkpt lat="43.20685" lon="5.44432">
        <ele>147.22</ele>
        <time>2012-05-27T10:00:02Z</time>
      </trkpt>
      <trkpt lat="43.20682" lon="5.44431">
        <ele>145.78</ele>
        <time>2012-05-27T10:00:13Z</time>
      </trkpt>
      <trkpt lat="43.20681" lon="5.44434">
        <ele>144.82</ele>
        <time>2012-05-27T10:00:21Z</time>
      </trkpt>
      <trkpt lat="43.20681" lon="5.44436">
        <ele>142.89</ele>
        <time>2012-05-27T10:00:33Z</time>
      </trkpt>
      <trkpt lat="43.20682" lon="5.44437">
        <ele>140.97</ele>
        <time>2012-05-27T10:00:43Z</time>
      </trkpt>
      <trkpt lat="43.20681" lon="5.44443">
        <ele>139.05</ele>
        <time>2012-05-27T10:00:52Z</time>
      </trkpt>
      <trkpt lat="43.20681" lon="5.44451">
        <ele>137.61</ele>
        <time>2012-05-27T10:01:03Z</time>
      </trkpt>
      <trkpt lat="43.20673" lon="5.44454">
        <ele>136.16</ele>
        <time>2012-05-27T10:01:15Z</time>
      </trkpt>
      <trkpt lat="43.20673" lon="5.44458">
        <ele>134.72</ele>
        <time>2012-05-27T10:01:20Z</time>
      </trkpt>
      <trkpt lat="43.20674" lon="5.44461">
        <ele>133.28</ele>
        <time>2012-05-27T10:01:31Z</time>
      </trkpt>
      <trkpt lat="43.20673" lon="5.44461">
        <ele>133.28</ele>
        <time>2012-05-27T10:02:01Z</time>
      </trkpt>
      <trkpt lat="43.20673" lon="5.44462">
        <ele>132.8</ele>
        <time>2012-05-27T10:02:46Z</time>
      </trkpt>
      <trkpt lat="43.20673" lon="5.44459">
        <ele>132.8</ele>
        <time>2012-05-27T10:03:12Z</time>
      </trkpt>
      <trkpt lat="43.20673" lon="5.4446">
        <ele>133.76</ele>
        <time>2012-05-27T10:04:38Z</time>
      </trkpt>
      <trkpt lat="43.20675" lon="5.44466">
        <ele>133.28</ele>
        <time>2012-05-27T10:06:12Z</time>
      </trkpt>
      <trkpt lat="43.20677" lon="5.44474">
        <ele>130.4</ele>
        <time>2012-05-27T10:06:26Z</time>
      </trkpt>
      <trkpt lat="43.20675" lon="5.44475">
        <ele>127.99</ele>
        <time>2012-05-27T10:06:38Z</time>
      </trkpt>
      <trkpt lat="43.2067" lon="5.4448">
        <ele>126.07</ele>
        <time>2012-05-27T10:06:48Z</time>
      </trkpt>
      <trkpt lat="43.2067" lon="5.4448">
        <ele>125.11</ele>
        <time>2012-05-27T10:06:50Z</time>
      </trkpt>
      <trkpt lat="43.20668" lon="5.44483">
        <ele>124.15</ele>
        <time>2012-05-27T10:07:02Z</time>
      </trkpt>
      <trkpt lat="43.20667" lon="5.44484">
        <ele>123.19</ele>
        <time>2012-05-27T10:07:07Z</time>
      </trkpt>
      <trkpt lat="43.20663" lon="5.44484">
        <ele>121.26</ele>
        <time>2012-05-27T10:07:19Z</time>
      </trkpt>
      <trkpt lat="43.20661" lon="5.44486">
        <ele>118.86</ele>
        <time>2012-05-27T10:07:31Z</time>
      </trkpt>
      <trkpt lat="43.20661" lon="5.44493">
        <ele>115.98</ele>
        <time>2012-05-27T10:07:44Z</time>
      </trkpt>
      <trkpt lat="43.20661" lon="5.44495">
        <ele>113.57</ele>
        <time>2012-05-27T10:07:56Z</time>
      </trkpt>
      <trkpt lat="43.20661" lon="5.44496">
        <ele>112.13</ele>
        <time>2012-05-27T10:08:08Z</time>
      </trkpt>
      <trkpt lat="43.20655" lon="5.44502">
        <ele>108.77</ele>
        <time>2012-05-27T10:08:22Z</time>
      </trkpt>
      <trkpt lat="43.20652" lon="5.44507">
        <ele>106.84</ele>
        <time>2012-05-27T10:08:34Z</time>
      </trkpt>
      <trkpt lat="43.20652" lon="5.44511">
        <ele>105.4</ele>
        <time>2012-05-27T10:08:44Z</time>
      </trkpt>
      <trkpt lat="43.20652" lon="5.44519">
        <ele>102.52</ele>
        <time>2012-05-27T10:08:57Z</time>
      </trkpt>
      <trkpt lat="43.20652" lon="5.44525">
        <ele>102.52</ele>
        <time>2012-05-27T10:09:01Z</time>
      </trkpt>
      <trkpt lat="43.20652" lon="5.44537">
        <ele>100.11</ele>
        <time>2012-05-27T10:09:13Z</time>
      </trkpt>
      <trkpt lat="43.20652" lon="5.44545">
        <ele>97.23</ele>
        <time>2012-05-27T10:09:25Z</time>
      </trkpt>
      <trkpt lat="43.20649" lon="5.44552">
        <ele>95.79</ele>
        <time>2012-05-27T10:09:36Z</time>
      </trkpt>
      <trkpt lat="43.20648" lon="5.44565">
        <ele>92.9</ele>
        <time>2012-05-27T10:09:50Z</time>
      </trkpt>
      <trkpt lat="43.20642" lon="5.44563">
        <ele>90.02</ele>
        <time>2012-05-27T10:10:02Z</time>
      </trkpt>
      <trkpt lat="43.2064" lon="5.44569">
        <ele>88.1</ele>
        <time>2012-05-27T10:10:13Z</time>
      </trkpt>
      <trkpt lat="43.20642" lon="5.44575">
        <ele>86.18</ele>
        <time>2012-05-27T10:10:25Z</time>
      </trkpt>
      <trkpt lat="43.20643" lon="5.4458">
        <ele>86.18</ele>
        <time>2012-05-27T10:10:28Z</time>
      </trkpt>
      <trkpt lat="43.20646" lon="5.44593">
        <ele>84.73</ele>
        <time>2012-05-27T10:10:38Z</time>
      </trkpt>
      <trkpt lat="43.20645" lon="5.44597">
        <ele>84.25</ele>
        <time>2012-05-27T10:10:52Z</time>
      </trkpt>
      <trkpt lat="43.20645" lon="5.44597">
        <ele>84.73</ele>
        <time>2012-05-27T10:11:32Z</time>
      </trkpt>
      <trkpt lat="43.20644" lon="5.44597">
        <ele>84.73</ele>
        <time>2012-05-27T10:12:57Z</time>
      </trkpt>
      <trkpt lat="43.20644" lon="5.44597">
        <ele>85.21</ele>
        <time>2012-05-27T10:14:28Z</time>
      </trkpt>
      <trkpt lat="43.20644" lon="5.44602">
        <ele>85.69</ele>
        <time>2012-05-27T10:16:02Z</time>
      </trkpt>
      <trkpt lat="43.20644" lon="5.44602">
        <ele>85.69</ele>
        <time>2012-05-27T10:16:04Z</time>
      </trkpt>
      <trkpt lat="43.20643" lon="5.44604">
        <ele>85.69</ele>
        <time>2012-05-27T10:16:06Z</time>
      </trkpt>
      <trkpt lat="43.20644" lon="5.44607">
        <ele>85.21</ele>
        <time>2012-05-27T10:16:08Z</time>
      </trkpt>
      <trkpt lat="43.20647" lon="5.44625">
        <ele>85.69</ele>
        <time>2012-05-27T10:16:20Z</time>
      </trkpt>
      <trkpt lat="43.20648" lon="5.44634">
        <ele>86.66</ele>
        <time>2012-05-27T10:16:27Z</time>
      </trkpt>
      <trkpt lat="43.20648" lon="5.44653">
        <ele>84.73</ele>
        <time>2012-05-27T10:16:41Z</time>
      </trkpt>
      <trkpt lat="43.2065" lon="5.44664">
        <ele>84.73</ele>
        <time>2012-05-27T10:16:52Z</time>
      </trkpt>
      <trkpt lat="43.20651" lon="5.44686">
        <ele>84.25</ele>
        <time>2012-05-27T10:17:08Z</time>
      </trkpt>
      <trkpt lat="43.20649" lon="5.44704">
        <ele>83.29</ele>
        <time>2012-05-27T10:17:22Z</time>
      </trkpt>
      <trkpt lat="43.20646" lon="5.44715">
        <ele>82.81</ele>
        <time>2012-05-27T10:17:37Z</time>
      </trkpt>
      <trkpt lat="43.20646" lon="5.44716">
        <ele>81.85</ele>
        <time>2012-05-27T10:18:07Z</time>
      </trkpt>
      <trkpt lat="43.20636" lon="5.44723">
        <ele>78.97</ele>
        <time>2012-05-27T10:18:21Z</time>
      </trkpt>
      <trkpt lat="43.20635" lon="5.44726">
        <ele>78.97</ele>
        <time>2012-05-27T10:18:24Z</time>
      </trkpt>
      <trkpt lat="43.20628" lon="5.44744">
        <ele>78.97</ele>
        <time>2012-05-27T10:18:36Z</time>
      </trkpt>
      <trkpt lat="43.20619" lon="5.44757">
        <ele>78.97</ele>
        <time>2012-05-27T10:18:49Z</time>
      </trkpt>
      <trkpt lat="43.20611" lon="5.44765">
        <ele>79.93</ele>
        <time>2012-05-27T10:19:02Z</time>
      </trkpt>
      <trkpt lat="43.20603" lon="5.4477">
        <ele>80.89</ele>
        <time>2012-05-27T10:19:15Z</time>
      </trkpt>
      <trkpt lat="43.20598" lon="5.44774">
        <ele>82.81</ele>
        <time>2012-05-27T10:19:24Z</time>
      </trkpt>
      <trkpt lat="43.20588" lon="5.4478">
        <ele>83.77</ele>
        <time>2012-05-27T10:19:35Z</time>
      </trkpt>
      <trkpt lat="43.20585" lon="5.44782">
        <ele>86.18</ele>
        <time>2012-05-27T10:19:48Z</time>
      </trkpt>
      <trkpt lat="43.20575" lon="5.44789">
        <ele>87.62</ele>
        <time>2012-05-27T10:19:59Z</time>
      </trkpt>
      <trkpt lat="43.20561" lon="5.4479">
        <ele>86.66</ele>
        <time>2012-05-27T10:20:13Z</time>
      </trkpt>
      <trkpt lat="43.20561" lon="5.4479">
        <ele>87.14</ele>
        <time>2012-05-27T10:20:31Z</time>
      </trkpt>
      <trkpt lat="43.20561" lon="5.4479">
        <ele>87.14</ele>
        <time>2012-05-27T10:20:47Z</time>
      </trkpt>
      <trkpt lat="43.2056" lon="5.4479">
        <ele>86.66</ele>
        <time>2012-05-27T10:21:08Z</time>
      </trkpt>
      <trkpt lat="43.2056" lon="5.4479">
        <ele>87.62</ele>
        <time>2012-05-27T10:21:10Z</time>
      </trkpt>
      <trkpt lat="43.20551" lon="5.44799">
        <ele>88.1</ele>
        <time>2012-05-27T10:21:20Z</time>
      </trkpt>
      <trkpt lat="43.20551" lon="5.44799">
        <ele>91.46</ele>
        <time>2012-05-27T10:21:34Z</time>
      </trkpt>
      <trkpt lat="43.20546" lon="5.44802">
        <ele>91.46</ele>
        <time>2012-05-27T10:21:45Z</time>
      </trkpt>
      <trkpt lat="43.2054" lon="5.44803">
        <ele>92.42</ele>
        <time>2012-05-27T10:21:51Z</time>
      </trkpt>
      <trkpt lat="43.20527" lon="5.44807">
        <ele>92.9</ele>
        <time>2012-05-27T10:22:03Z</time>
      </trkpt>
      <trkpt lat="43.20519" lon="5.44811">
        <ele>92.9</ele>
        <time>2012-05-27T10:22:22Z</time>
      </trkpt>
      <trkpt lat="43.20504" lon="5.44815">
        <ele>92.42</ele>
        <time>2012-05-27T10:22:36Z</time>
      </trkpt>
      <trkpt lat="43.20489" lon="5.4482">
        <ele>92.42</ele>
        <time>2012-05-27T10:22:50Z</time>
      </trkpt>
      <trkpt lat="43.20482" lon="5.44836">
        <ele>92.42</ele>
        <time>2012-05-27T10:23:07Z</time>
      </trkpt>
      <trkpt lat="43.20479" lon="5.44847">
        <ele>90.5</ele>
        <time>2012-05-27T10:23:19Z</time>
      </trkpt>
      <trkpt lat="43.20479" lon="5.44859">
        <ele>89.54</ele>
        <time>2012-05-27T10:23:33Z</time>
      </trkpt>
      <trkpt lat="43.20479" lon="5.44859">
        <ele>89.06</ele>
        <time>2012-05-27T10:23:34Z</time>
      </trkpt>
      <trkpt lat="43.2048" lon="5.4487">
        <ele>87.62</ele>
        <time>2012-05-27T10:23:43Z</time>
      </trkpt>
      <trkpt lat="43.20479" lon="5.44879">
        <ele>86.66</ele>
        <time>2012-05-27T10:23:49Z</time>
      </trkpt>
      <trkpt lat="43.20478" lon="5.44883">
        <ele>86.66</ele>
        <time>2012-05-27T10:23:52Z</time>
      </trkpt>
      <trkpt lat="43.20479" lon="5.44894">
        <ele>85.69</ele>
        <time>2012-05-27T10:23:58Z</time>
      </trkpt>
      <trkpt lat="43.20478" lon="5.44911">
        <ele>83.29</ele>
        <time>2012-05-27T10:24:11Z</time>
      </trkpt>
      <trkpt lat="43.20478" lon="5.44913">
        <ele>82.81</ele>
        <time>2012-05-27T10:24:15Z</time>
      </trkpt>
      <trkpt lat="43.20477" lon="5.44932">
        <ele>80.89</ele>
        <time>2012-05-27T10:24:28Z</time>
      </trkpt>
      <trkpt lat="43.20476" lon="5.44934">
        <ele>80.41</ele>
        <time>2012-05-27T10:24:30Z</time>
      </trkpt>
      <trkpt lat="43.20471" lon="5.44951">
        <ele>78.48</ele>
        <time>2012-05-27T10:24:43Z</time>
      </trkpt>
      <trkpt lat="43.20468" lon="5.44965">
        <ele>76.56</ele>
        <time>2012-05-27T10:24:57Z</time>
      </trkpt>
      <trkpt lat="43.20464" lon="5.44973">
        <ele>76.08</ele>
        <time>2012-05-27T10:25:03Z</time>
      </trkpt>
      <trkpt lat="43.20456" lon="5.44986">
        <ele>74.16</ele>
        <time>2012-05-27T10:25:16Z</time>
      </trkpt>
      <trkpt lat="43.20448" lon="5.45">
        <ele>71.76</ele>
        <time>2012-05-27T10:25:31Z</time>
      </trkpt>
      <trkpt lat="43.2044" lon="5.45012">
        <ele>69.35</ele>
        <time>2012-05-27T10:25:43Z</time>
      </trkpt>
      <trkpt lat="43.20436" lon="5.45025">
        <ele>69.35</ele>
        <time>2012-05-27T10:25:55Z</time>
      </trkpt>
      <trkpt lat="43.20431" lon="5.45035">
        <ele>68.39</ele>
        <time>2012-05-27T10:26:03Z</time>
      </trkpt>
      <trkpt lat="43.20425" lon="5.45049">
        <ele>67.43</ele>
        <time>2012-05-27T10:26:14Z</time>
      </trkpt>
      <trkpt lat="43.20426" lon="5.45055">
        <ele>67.91</ele>
        <time>2012-05-27T10:26:35Z</time>
      </trkpt>
      <trkpt lat="43.20419" lon="5.45052">
        <ele>66.95</ele>
        <time>2012-05-27T10:27:26Z</time>
      </trkpt>
      <trkpt lat="43.20418" lon="5.45052">
        <ele>66.47</ele>
        <time>2012-05-27T10:27:27Z</time>
      </trkpt>
      <trkpt lat="43.20413" lon="5.45063">
        <ele>65.03</ele>
        <time>2012-05-27T10:27:36Z</time>
      </trkpt>
      <trkpt lat="43.20408" lon="5.45072">
        <ele>63.58</ele>
        <time>2012-05-27T10:27:45Z</time>
      </trkpt>
      <trkpt lat="43.20403" lon="5.4509">
        <ele>62.14</ele>
        <time>2012-05-27T10:27:59Z</time>
      </trkpt>
      <trkpt lat="43.20401" lon="5.45095">
        <ele>61.66</ele>
        <time>2012-05-27T10:28:03Z</time>
      </trkpt>
      <trkpt lat="43.20395" lon="5.45113">
        <ele>60.22</ele>
        <time>2012-05-27T10:28:15Z</time>
      </trkpt>
      <trkpt lat="43.20387" lon="5.45117">
        <ele>59.26</ele>
        <time>2012-05-27T10:28:22Z</time>
      </trkpt>
      <trkpt lat="43.20384" lon="5.45121">
        <ele>58.78</ele>
        <time>2012-05-27T10:28:26Z</time>
      </trkpt>
      <trkpt lat="43.20382" lon="5.45129">
        <ele>57.34</ele>
        <time>2012-05-27T10:28:32Z</time>
      </trkpt>
      <trkpt lat="43.20379" lon="5.45134">
        <ele>56.37</ele>
        <time>2012-05-27T10:28:36Z</time>
      </trkpt>
      <trkpt lat="43.2037" lon="5.45155">
        <ele>55.41</ele>
        <time>2012-05-27T10:28:53Z</time>
      </trkpt>
      <trkpt lat="43.20368" lon="5.45157">
        <ele>54.93</ele>
        <time>2012-05-27T10:28:55Z</time>
      </trkpt>
      <trkpt lat="43.20359" lon="5.45163">
        <ele>53.01</ele>
        <time>2012-05-27T10:29:08Z</time>
      </trkpt>
      <trkpt lat="43.20349" lon="5.45175">
        <ele>51.57</ele>
        <time>2012-05-27T10:29:20Z</time>
      </trkpt>
      <trkpt lat="43.20346" lon="5.45189">
        <ele>51.09</ele>
        <time>2012-05-27T10:29:31Z</time>
      </trkpt>
      <trkpt lat="43.20344" lon="5.45193">
        <ele>51.57</ele>
        <time>2012-05-27T10:29:34Z</time>
      </trkpt>
      <trkpt lat="43.20333" lon="5.45212">
        <ele>49.65</ele>
        <time>2012-05-27T10:29:50Z</time>
      </trkpt>
      <trkpt lat="43.20322" lon="5.45226">
        <ele>47.72</ele>
        <time>2012-05-27T10:30:03Z</time>
      </trkpt>
      <trkpt lat="43.20316" lon="5.4523">
        <ele>46.76</ele>
        <time>2012-05-27T10:30:11Z</time>
      </trkpt>
      <trkpt lat="43.20309" lon="5.45229">
        <ele>45.32</ele>
        <time>2012-05-27T10:30:24Z</time>
      </trkpt>
      <trkpt lat="43.20306" lon="5.45239">
        <ele>44.36</ele>
        <time>2012-05-27T10:31:16Z</time>
      </trkpt>
      <trkpt lat="43.20303" lon="5.45242">
        <ele>44.84</ele>
        <time>2012-05-27T10:31:19Z</time>
      </trkpt>
      <trkpt lat="43.20301" lon="5.45247">
        <ele>43.88</ele>
        <time>2012-05-27T10:31:22Z</time>
      </trkpt>
      <trkpt lat="43.20286" lon="5.45254">
        <ele>41.47</ele>
        <time>2012-05-27T10:31:36Z</time>
      </trkpt>
      <trkpt lat="43.20285" lon="5.45254">
        <ele>41.47</ele>
        <time>2012-05-27T10:31:37Z</time>
      </trkpt>
      <trkpt lat="43.20279" lon="5.45254">
        <ele>40.03</ele>
        <time>2012-05-27T10:31:44Z</time>
      </trkpt>
      <trkpt lat="43.20274" lon="5.45255">
        <ele>38.59</ele>
        <time>2012-05-27T10:31:52Z</time>
      </trkpt>
      <trkpt lat="43.20267" lon="5.45257">
        <ele>37.63</ele>
        <time>2012-05-27T10:31:59Z</time>
      </trkpt>
      <trkpt lat="43.20261" lon="5.4526">
        <ele>35.71</ele>
        <time>2012-05-27T10:32:05Z</time>
      </trkpt>
      <trkpt lat="43.20252" lon="5.45255">
        <ele>35.23</ele>
        <time>2012-05-27T10:32:13Z</time>
      </trkpt>
      <trkpt lat="43.20251" lon="5.45254">
        <ele>34.74</ele>
        <time>2012-05-27T10:32:15Z</time>
      </trkpt>
      <trkpt lat="43.20248" lon="5.45252">
        <ele>34.74</ele>
        <time>2012-05-27T10:32:18Z</time>
      </trkpt>
      <trkpt lat="43.20247" lon="5.4525">
        <ele>35.23</ele>
        <time>2012-05-27T10:32:20Z</time>
      </trkpt>
      <trkpt lat="43.20244" lon="5.45242">
        <ele>34.26</ele>
        <time>2012-05-27T10:32:33Z</time>
      </trkpt>
      <trkpt lat="43.20244" lon="5.45242">
        <ele>34.26</ele>
        <time>2012-05-27T10:33:02Z</time>
      </trkpt>
      <trkpt lat="43.20244" lon="5.45242">
        <ele>34.26</ele>
        <time>2012-05-27T10:33:32Z</time>
      </trkpt>
      <trkpt lat="43.20239" lon="5.4524">
        <ele>33.78</ele>
        <time>2012-05-27T10:33:56Z</time>
      </trkpt>
      <trkpt lat="43.20236" lon="5.45237">
        <ele>33.78</ele>
        <time>2012-05-27T10:34:00Z</time>
      </trkpt>
      <trkpt lat="43.20231" lon="5.45234">
        <ele>34.26</ele>
        <time>2012-05-27T10:34:06Z</time>
      </trkpt>
      <trkpt lat="43.20226" lon="5.45229">
        <ele>33.78</ele>
        <time>2012-05-27T10:34:21Z</time>
      </trkpt>
      <trkpt lat="43.20223" lon="5.45224">
        <ele>34.26</ele>
        <time>2012-05-27T10:34:33Z</time>
      </trkpt>
      <trkpt lat="43.20221" lon="5.45219">
        <ele>34.74</ele>
        <time>2012-05-27T10:34:37Z</time>
      </trkpt>
      <trkpt lat="43.2022" lon="5.45216">
        <ele>34.74</ele>
        <time>2012-05-27T10:34:40Z</time>
      </trkpt>
      <trkpt lat="43.2022" lon="5.45212">
        <ele>34.74</ele>
        <time>2012-05-27T10:34:52Z</time>
      </trkpt>
      <trkpt lat="43.20215" lon="5.45212">
        <ele>34.74</ele>
        <time>2012-05-27T10:35:13Z</time>
      </trkpt>
      <trkpt lat="43.20215" lon="5.45212">
        <ele>35.23</ele>
        <time>2012-05-27T10:35:18Z</time>
      </trkpt>
      <trkpt lat="43.20214" lon="5.45214">
        <ele>35.23</ele>
        <time>2012-05-27T10:35:20Z</time>
      </trkpt>
      <trkpt lat="43.20212" lon="5.45217">
        <ele>34.26</ele>
        <time>2012-05-27T10:35:23Z</time>
      </trkpt>
      <trkpt lat="43.20207" lon="5.45215">
        <ele>33.78</ele>
        <time>2012-05-27T10:35:29Z</time>
      </trkpt>
      <trkpt lat="43.20203" lon="5.45214">
        <ele>33.3</ele>
        <time>2012-05-27T10:35:34Z</time>
      </trkpt>
      <trkpt lat="43.20191" lon="5.45205">
        <ele>32.82</ele>
        <time>2012-05-27T10:35:47Z</time>
      </trkpt>
      <trkpt lat="43.20184" lon="5.45189">
        <ele>32.34</ele>
        <time>2012-05-27T10:36:01Z</time>
      </trkpt>
      <trkpt lat="43.20184" lon="5.45188">
        <ele>32.34</ele>
        <time>2012-05-27T10:36:02Z</time>
      </trkpt>
      <trkpt lat="43.20181" lon="5.45178">
        <ele>32.34</ele>
        <time>2012-05-27T10:36:20Z</time>
      </trkpt>
      <trkpt lat="43.20171" lon="5.45169">
        <ele>31.38</ele>
        <time>2012-05-27T10:36:36Z</time>
      </trkpt>
      <trkpt lat="43.20161" lon="5.45162">
        <ele>30.9</ele>
        <time>2012-05-27T10:36:48Z</time>
      </trkpt>
      <trkpt lat="43.2016" lon="5.45164">
        <ele>30.42</ele>
        <time>2012-05-27T10:37:03Z</time>
      </trkpt>
      <trkpt lat="43.20156" lon="5.45163">
        <ele>30.9</ele>
        <time>2012-05-27T10:37:26Z</time>
      </trkpt>
      <trkpt lat="43.20155" lon="5.45161">
        <ele>30.42</ele>
        <time>2012-05-27T10:37:47Z</time>
      </trkpt>
      <trkpt lat="43.20151" lon="5.45161">
        <ele>29.46</ele>
        <time>2012-05-27T10:38:00Z</time>
      </trkpt>
      <trkpt lat="43.20148" lon="5.45164">
        <ele>28.02</ele>
        <time>2012-05-27T10:38:12Z</time>
      </trkpt>
      <trkpt lat="43.20145" lon="5.45163">
        <ele>28.5</ele>
        <time>2012-05-27T10:38:15Z</time>
      </trkpt>
      <trkpt lat="43.20144" lon="5.45162">
        <ele>27.53</ele>
        <time>2012-05-27T10:38:17Z</time>
      </trkpt>
      <trkpt lat="43.20144" lon="5.45163">
        <ele>27.53</ele>
        <time>2012-05-27T10:38:40Z</time>
      </trkpt>
      <trkpt lat="43.20144" lon="5.45158">
        <ele>27.53</ele>
        <time>2012-05-27T10:38:53Z</time>
      </trkpt>
      <trkpt lat="43.20144" lon="5.4515">
        <ele>28.02</ele>
        <time>2012-05-27T10:39:01Z</time>
      </trkpt>
      <trkpt lat="43.2014" lon="5.45141">
        <ele>28.5</ele>
        <time>2012-05-27T10:39:15Z</time>
      </trkpt>
      <trkpt lat="43.20136" lon="5.4514">
        <ele>28.02</ele>
        <time>2012-05-27T10:39:24Z</time>
      </trkpt>
      <trkpt lat="43.20138" lon="5.4514">
        <ele>28.02</ele>
        <time>2012-05-27T10:39:41Z</time>
      </trkpt>
      <trkpt lat="43.20138" lon="5.4514">
        <ele>28.02</ele>
        <time>2012-05-27T10:39:46Z</time>
      </trkpt>
      <trkpt lat="43.20143" lon="5.45142">
        <ele>28.5</ele>
        <time>2012-05-27T10:39:50Z</time>
      </trkpt>
      <trkpt lat="43.20147" lon="5.4514">
        <ele>28.98</ele>
        <time>2012-05-27T10:39:54Z</time>
      </trkpt>
      <trkpt lat="43.20147" lon="5.45138">
        <ele>28.5</ele>
        <time>2012-05-27T10:40:15Z</time>
      </trkpt>
      <trkpt lat="43.20146" lon="5.45141">
        <ele>28.02</ele>
        <time>2012-05-27T10:40:36Z</time>
      </trkpt>
      <trkpt lat="43.20148" lon="5.45147">
        <ele>28.5</ele>
        <time>2012-05-27T10:40:41Z</time>
      </trkpt>
      <trkpt lat="43.2015" lon="5.45151">
        <ele>28.98</ele>
        <time>2012-05-27T10:40:45Z</time>
      </trkpt>
      <trkpt lat="43.20152" lon="5.45154">
        <ele>29.46</ele>
        <time>2012-05-27T10:40:51Z</time>
      </trkpt>
      <trkpt lat="43.20154" lon="5.45154">
        <ele>28.98</ele>
        <time>2012-05-27T10:40:53Z</time>
      </trkpt>
      <trkpt lat="43.20163" lon="5.4516">
        <ele>29.94</ele>
        <time>2012-05-27T10:41:06Z</time>
      </trkpt>
      <trkpt lat="43.2017" lon="5.45168">
        <ele>30.9</ele>
        <time>2012-05-27T10:41:16Z</time>
      </trkpt>
      <trkpt lat="43.20182" lon="5.45182">
        <ele>31.86</ele>
        <time>2012-05-27T10:41:33Z</time>
      </trkpt>
      <trkpt lat="43.20194" lon="5.45193">
        <ele>32.82</ele>
        <time>2012-05-27T10:41:50Z</time>
      </trkpt>
      <trkpt lat="43.20196" lon="5.45198">
        <ele>33.3</ele>
        <time>2012-05-27T10:41:56Z</time>
      </trkpt>
      <trkpt lat="43.20199" lon="5.45205">
        <ele>32.82</ele>
        <time>2012-05-27T10:42:01Z</time>
      </trkpt>
      <trkpt lat="43.2021" lon="5.45218">
        <ele>33.3</ele>
        <time>2012-05-27T10:42:18Z</time>
      </trkpt>
      <trkpt lat="43.20221" lon="5.45224">
        <ele>33.3</ele>
        <time>2012-05-27T10:42:29Z</time>
      </trkpt>
      <trkpt lat="43.20227" lon="5.45228">
        <ele>32.82</ele>
        <time>2012-05-27T10:42:43Z</time>
      </trkpt>
      <trkpt lat="43.20231" lon="5.45236">
        <ele>32.82</ele>
        <time>2012-05-27T10:43:18Z</time>
      </trkpt>
      <trkpt lat="43.20242" lon="5.45246">
        <ele>32.34</ele>
        <time>2012-05-27T10:43:33Z</time>
      </trkpt>
      <trkpt lat="43.20253" lon="5.45254">
        <ele>33.78</ele>
        <time>2012-05-27T10:43:47Z</time>
      </trkpt>
      <trkpt lat="43.20255" lon="5.45254">
        <ele>34.26</ele>
        <time>2012-05-27T10:43:49Z</time>
      </trkpt>
      <trkpt lat="43.20267" lon="5.45256">
        <ele>36.19</ele>
        <time>2012-05-27T10:44:04Z</time>
      </trkpt>
      <trkpt lat="43.20272" lon="5.45255">
        <ele>36.67</ele>
        <time>2012-05-27T10:44:10Z</time>
      </trkpt>
      <trkpt lat="43.20283" lon="5.45255">
        <ele>39.07</ele>
        <time>2012-05-27T10:44:26Z</time>
      </trkpt>
      <trkpt lat="43.2029" lon="5.45249">
        <ele>40.51</ele>
        <time>2012-05-27T10:44:37Z</time>
      </trkpt>
      <trkpt lat="43.20298" lon="5.45246">
        <ele>42.92</ele>
        <time>2012-05-27T10:44:49Z</time>
      </trkpt>
      <trkpt lat="43.20303" lon="5.45239">
        <ele>43.4</ele>
        <time>2012-05-27T10:44:58Z</time>
      </trkpt>
      <trkpt lat="43.20311" lon="5.45232">
        <ele>45.32</ele>
        <time>2012-05-27T10:45:08Z</time>
      </trkpt>
      <trkpt lat="43.20316" lon="5.4523">
        <ele>45.8</ele>
        <time>2012-05-27T10:45:13Z</time>
      </trkpt>
      <trkpt lat="43.20322" lon="5.45223">
        <ele>46.76</ele>
        <time>2012-05-27T10:45:23Z</time>
      </trkpt>
      <trkpt lat="43.20327" lon="5.45214">
        <ele>47.72</ele>
        <time>2012-05-27T10:45:33Z</time>
      </trkpt>
      <trkpt lat="43.20337" lon="5.45207">
        <ele>49.65</ele>
        <time>2012-05-27T10:45:47Z</time>
      </trkpt>
      <trkpt lat="43.20339" lon="5.45203">
        <ele>49.65</ele>
        <time>2012-05-27T10:45:50Z</time>
      </trkpt>
      <trkpt lat="43.20344" lon="5.45181">
        <ele>50.61</ele>
        <time>2012-05-27T10:46:06Z</time>
      </trkpt>
      <trkpt lat="43.20349" lon="5.4517">
        <ele>51.57</ele>
        <time>2012-05-27T10:46:19Z</time>
      </trkpt>
      <trkpt lat="43.20361" lon="5.4516">
        <ele>53.01</ele>
        <time>2012-05-27T10:46:36Z</time>
      </trkpt>
      <trkpt lat="43.20367" lon="5.45154">
        <ele>54.93</ele>
        <time>2012-05-27T10:46:47Z</time>
      </trkpt>
      <trkpt lat="43.20374" lon="5.45143">
        <ele>55.41</ele>
        <time>2012-05-27T10:47:00Z</time>
      </trkpt>
      <trkpt lat="43.20381" lon="5.45125">
        <ele>57.34</ele>
        <time>2012-05-27T10:47:14Z</time>
      </trkpt>
      <trkpt lat="43.2039" lon="5.45117">
        <ele>58.78</ele>
        <time>2012-05-27T10:47:26Z</time>
      </trkpt>
      <trkpt lat="43.20396" lon="5.45104">
        <ele>60.22</ele>
        <time>2012-05-27T10:47:39Z</time>
      </trkpt>
      <trkpt lat="43.20399" lon="5.45094">
        <ele>60.7</ele>
        <time>2012-05-27T10:47:48Z</time>
      </trkpt>
      <trkpt lat="43.20403" lon="5.45078">
        <ele>62.14</ele>
        <time>2012-05-27T10:48:01Z</time>
      </trkpt>
      <trkpt lat="43.2041" lon="5.45065">
        <ele>63.58</ele>
        <time>2012-05-27T10:48:14Z</time>
      </trkpt>
      <trkpt lat="43.20415" lon="5.45052">
        <ele>64.55</ele>
        <time>2012-05-27T10:48:25Z</time>
      </trkpt>
      <trkpt lat="43.20422" lon="5.45045">
        <ele>66.47</ele>
        <time>2012-05-27T10:48:36Z</time>
      </trkpt>
      <trkpt lat="43.20427" lon="5.4504">
        <ele>67.43</ele>
        <time>2012-05-27T10:48:44Z</time>
      </trkpt>
      <trkpt lat="43.20432" lon="5.45018">
        <ele>68.39</ele>
        <time>2012-05-27T10:49:00Z</time>
      </trkpt>
      <trkpt lat="43.20441" lon="5.45008">
        <ele>69.83</ele>
        <time>2012-05-27T10:49:14Z</time>
      </trkpt>
      <trkpt lat="43.20442" lon="5.45006">
        <ele>70.31</ele>
        <time>2012-05-27T10:49:16Z</time>
      </trkpt>
      <trkpt lat="43.20449" lon="5.44995">
        <ele>72.24</ele>
        <time>2012-05-27T10:49:28Z</time>
      </trkpt>
      <trkpt lat="43.20456" lon="5.44987">
        <ele>73.68</ele>
        <time>2012-05-27T10:49:40Z</time>
      </trkpt>
      <trkpt lat="43.20462" lon="5.44973">
        <ele>75.12</ele>
        <time>2012-05-27T10:49:52Z</time>
      </trkpt>
      <trkpt lat="43.20466" lon="5.44966">
        <ele>76.56</ele>
        <time>2012-05-27T10:50:03Z</time>
      </trkpt>
      <trkpt lat="43.20467" lon="5.44951">
        <ele>77.52</ele>
        <time>2012-05-27T10:50:15Z</time>
      </trkpt>
      <trkpt lat="43.20471" lon="5.44938">
        <ele>79.93</ele>
        <time>2012-05-27T10:50:28Z</time>
      </trkpt>
      <trkpt lat="43.2047" lon="5.44921">
        <ele>80.41</ele>
        <time>2012-05-27T10:50:40Z</time>
      </trkpt>
      <trkpt lat="43.20472" lon="5.44914">
        <ele>82.33</ele>
        <time>2012-05-27T10:50:50Z</time>
      </trkpt>
      <trkpt lat="43.20472" lon="5.44902">
        <ele>84.25</ele>
        <time>2012-05-27T10:51:02Z</time>
      </trkpt>
      <trkpt lat="43.20471" lon="5.44889">
        <ele>85.21</ele>
        <time>2012-05-27T10:51:14Z</time>
      </trkpt>
      <trkpt lat="43.2047" lon="5.44876">
        <ele>87.14</ele>
        <time>2012-05-27T10:51:27Z</time>
      </trkpt>
      <trkpt lat="43.2047" lon="5.4487">
        <ele>87.62</ele>
        <time>2012-05-27T10:51:32Z</time>
      </trkpt>
      <trkpt lat="43.20472" lon="5.44855">
        <ele>89.06</ele>
        <time>2012-05-27T10:51:44Z</time>
      </trkpt>
      <trkpt lat="43.20476" lon="5.44843">
        <ele>90.02</ele>
        <time>2012-05-27T10:51:55Z</time>
      </trkpt>
      <trkpt lat="43.20478" lon="5.44839">
        <ele>90.98</ele>
        <time>2012-05-27T10:51:59Z</time>
      </trkpt>
      <trkpt lat="43.20478" lon="5.44834">
        <ele>91.46</ele>
        <time>2012-05-27T10:52:02Z</time>
      </trkpt>
      <trkpt lat="43.20479" lon="5.4483">
        <ele>90.98</ele>
        <time>2012-05-27T10:52:05Z</time>
      </trkpt>
      <trkpt lat="43.20487" lon="5.44819">
        <ele>90.98</ele>
        <time>2012-05-27T10:52:18Z</time>
      </trkpt>
      <trkpt lat="43.20492" lon="5.44813">
        <ele>90.5</ele>
        <time>2012-05-27T10:52:25Z</time>
      </trkpt>
      <trkpt lat="43.20504" lon="5.44808">
        <ele>90.98</ele>
        <time>2012-05-27T10:52:38Z</time>
      </trkpt>
      <trkpt lat="43.20507" lon="5.44808">
        <ele>90.98</ele>
        <time>2012-05-27T10:52:41Z</time>
      </trkpt>
      <trkpt lat="43.2052" lon="5.44802">
        <ele>90.5</ele>
        <time>2012-05-27T10:52:55Z</time>
      </trkpt>
      <trkpt lat="43.2052" lon="5.44802">
        <ele>90.98</ele>
        <time>2012-05-27T10:53:16Z</time>
      </trkpt>
      <trkpt lat="43.20523" lon="5.44802">
        <ele>90.98</ele>
        <time>2012-05-27T10:53:51Z</time>
      </trkpt>
      <trkpt lat="43.20533" lon="5.44802">
        <ele>89.06</ele>
        <time>2012-05-27T10:54:02Z</time>
      </trkpt>
      <trkpt lat="43.20537" lon="5.44803">
        <ele>88.58</ele>
        <time>2012-05-27T10:54:07Z</time>
      </trkpt>
      <trkpt lat="43.2054" lon="5.44796">
        <ele>86.18</ele>
        <time>2012-05-27T10:54:18Z</time>
      </trkpt>
      <trkpt lat="43.20541" lon="5.44796">
        <ele>85.69</ele>
        <time>2012-05-27T10:54:20Z</time>
      </trkpt>
      <trkpt lat="43.20547" lon="5.44792">
        <ele>85.21</ele>
        <time>2012-05-27T10:54:27Z</time>
      </trkpt>
      <trkpt lat="43.20559" lon="5.44789">
        <ele>85.21</ele>
        <time>2012-05-27T10:54:40Z</time>
      </trkpt>
      <trkpt lat="43.20572" lon="5.44785">
        <ele>85.21</ele>
        <time>2012-05-27T10:54:52Z</time>
      </trkpt>
      <trkpt lat="43.20577" lon="5.44786">
        <ele>84.25</ele>
        <time>2012-05-27T10:55:02Z</time>
      </trkpt>
      <trkpt lat="43.20583" lon="5.44783">
        <ele>82.81</ele>
        <time>2012-05-27T10:55:12Z</time>
      </trkpt>
      <trkpt lat="43.20593" lon="5.44776">
        <ele>81.85</ele>
        <time>2012-05-27T10:55:23Z</time>
      </trkpt>
      <trkpt lat="43.20599" lon="5.44771">
        <ele>79.93</ele>
        <time>2012-05-27T10:55:33Z</time>
      </trkpt>
      <trkpt lat="43.20607" lon="5.44767">
        <ele>77.52</ele>
        <time>2012-05-27T10:55:45Z</time>
      </trkpt>
      <trkpt lat="43.20619" lon="5.44759">
        <ele>76.56</ele>
        <time>2012-05-27T10:55:58Z</time>
      </trkpt>
      <trkpt lat="43.20627" lon="5.44747">
        <ele>76.56</ele>
        <time>2012-05-27T10:56:11Z</time>
      </trkpt>
      <trkpt lat="43.20632" lon="5.44734">
        <ele>77.52</ele>
        <time>2012-05-27T10:56:22Z</time>
      </trkpt>
      <trkpt lat="43.2064" lon="5.44725">
        <ele>79.45</ele>
        <time>2012-05-27T10:56:34Z</time>
      </trkpt>
      <trkpt lat="43.20644" lon="5.44717">
        <ele>80.41</ele>
        <time>2012-05-27T10:56:42Z</time>
      </trkpt>
      <trkpt lat="43.20647" lon="5.44698">
        <ele>81.85</ele>
        <time>2012-05-27T10:56:57Z</time>
      </trkpt>
      <trkpt lat="43.20646" lon="5.44685">
        <ele>82.81</ele>
        <time>2012-05-27T10:57:06Z</time>
      </trkpt>
      <trkpt lat="43.20643" lon="5.44665">
        <ele>83.29</ele>
        <time>2012-05-27T10:57:20Z</time>
      </trkpt>
      <trkpt lat="43.20643" lon="5.44648">
        <ele>82.33</ele>
        <time>2012-05-27T10:57:32Z</time>
      </trkpt>
      <trkpt lat="43.20644" lon="5.44631">
        <ele>84.25</ele>
        <time>2012-05-27T10:57:45Z</time>
      </trkpt>
      <trkpt lat="43.20644" lon="5.44628">
        <ele>84.25</ele>
        <time>2012-05-27T10:57:47Z</time>
      </trkpt>
      <trkpt lat="43.20642" lon="5.44616">
        <ele>83.29</ele>
        <time>2012-05-27T10:57:55Z</time>
      </trkpt>
      <trkpt lat="43.20643" lon="5.44601">
        <ele>84.25</ele>
        <time>2012-05-27T10:58:08Z</time>
      </trkpt>
      <trkpt lat="43.20643" lon="5.446">
        <ele>83.77</ele>
        <time>2012-05-27T10:58:09Z</time>
      </trkpt>
      <trkpt lat="43.20642" lon="5.44595">
        <ele>83.77</ele>
        <time>2012-05-27T10:58:24Z</time>
      </trkpt>
      <trkpt lat="43.20645" lon="5.44596">
        <ele>83.77</ele>
        <time>2012-05-27T10:58:31Z</time>
      </trkpt>
      <trkpt lat="43.20652" lon="5.44594">
        <ele>81.37</ele>
        <time>2012-05-27T10:58:44Z</time>
      </trkpt>
      <trkpt lat="43.20653" lon="5.44593">
        <ele>80.41</ele>
        <time>2012-05-27T10:58:59Z</time>
      </trkpt>
      <trkpt lat="43.20659" lon="5.44591">
        <ele>78.97</ele>
        <time>2012-05-27T10:59:17Z</time>
      </trkpt>
      <trkpt lat="43.20661" lon="5.4459">
        <ele>77.52</ele>
        <time>2012-05-27T10:59:27Z</time>
      </trkpt>
      <trkpt lat="43.20663" lon="5.44595">
        <ele>74.64</ele>
        <time>2012-05-27T10:59:38Z</time>
      </trkpt>
      <trkpt lat="43.20667" lon="5.44599">
        <ele>73.2</ele>
        <time>2012-05-27T10:59:54Z</time>
      </trkpt>
      <trkpt lat="43.20669" lon="5.44599">
        <ele>71.76</ele>
        <time>2012-05-27T11:00:05Z</time>
      </trkpt>
      <trkpt lat="43.2067" lon="5.44601">
        <ele>69.83</ele>
        <time>2012-05-27T11:00:15Z</time>
      </trkpt>
      <trkpt lat="43.2067" lon="5.44601">
        <ele>69.35</ele>
        <time>2012-05-27T11:00:27Z</time>
      </trkpt>
      <trkpt lat="43.20673" lon="5.446">
        <ele>67.43</ele>
        <time>2012-05-27T11:00:43Z</time>
      </trkpt>
      <trkpt lat="43.20675" lon="5.44604">
        <ele>66.47</ele>
        <time>2012-05-27T11:00:59Z</time>
      </trkpt>
      <trkpt lat="43.20677" lon="5.44606">
        <ele>63.58</ele>
        <time>2012-05-27T11:01:12Z</time>
      </trkpt>
      <trkpt lat="43.2068" lon="5.44609">
        <ele>62.62</ele>
        <time>2012-05-27T11:01:22Z</time>
      </trkpt>
      <trkpt lat="43.20681" lon="5.44608">
        <ele>61.18</ele>
        <time>2012-05-27T11:01:33Z</time>
      </trkpt>
      <trkpt lat="43.20682" lon="5.44609">
        <ele>60.22</ele>
        <time>2012-05-27T11:02:18Z</time>
      </trkpt>
      <trkpt lat="43.20684" lon="5.44617">
        <ele>58.78</ele>
        <time>2012-05-27T11:02:31Z</time>
      </trkpt>
      <trkpt lat="43.20685" lon="5.44618">
        <ele>56.37</ele>
        <time>2012-05-27T11:02:43Z</time>
      </trkpt>
      <trkpt lat="43.20688" lon="5.44617">
        <ele>55.41</ele>
        <time>2012-05-27T11:02:54Z</time>
      </trkpt>
      <trkpt lat="43.20692" lon="5.44613">
        <ele>53.49</ele>
        <time>2012-05-27T11:03:11Z</time>
      </trkpt>
      <trkpt lat="43.20699" lon="5.44614">
        <ele>51.57</ele>
        <time>2012-05-27T11:03:23Z</time>
      </trkpt>
      <trkpt lat="43.20705" lon="5.4461">
        <ele>49.65</ele>
        <time>2012-05-27T11:03:36Z</time>
      </trkpt>
      <trkpt lat="43.20709" lon="5.44608">
        <ele>47.24</ele>
        <time>2012-05-27T11:03:52Z</time>
      </trkpt>
      <trkpt lat="43.20716" lon="5.44611">
        <ele>44.84</ele>
        <time>2012-05-27T11:04:06Z</time>
      </trkpt>
      <trkpt lat="43.20722" lon="5.44612">
        <ele>42.92</ele>
        <time>2012-05-27T11:04:18Z</time>
      </trkpt>
      <trkpt lat="43.20728" lon="5.44614">
        <ele>41.95</ele>
        <time>2012-05-27T11:04:28Z</time>
      </trkpt>
      <trkpt lat="43.20733" lon="5.4461">
        <ele>40.51</ele>
        <time>2012-05-27T11:04:42Z</time>
      </trkpt>
      <trkpt lat="43.20738" lon="5.44605">
        <ele>39.07</ele>
        <time>2012-05-27T11:04:48Z</time>
      </trkpt>
      <trkpt lat="43.20741" lon="5.446">
        <ele>37.15</ele>
        <time>2012-05-27T11:05:01Z</time>
      </trkpt>
      <trkpt lat="43.20743" lon="5.44598">
        <ele>35.71</ele>
        <time>2012-05-27T11:05:13Z</time>
      </trkpt>
      <trkpt lat="43.20753" lon="5.44597">
        <ele>33.3</ele>
        <time>2012-05-27T11:05:25Z</time>
      </trkpt>
      <trkpt lat="43.20756" lon="5.44595">
        <ele>31.86</ele>
        <time>2012-05-27T11:05:36Z</time>
      </trkpt>
      <trkpt lat="43.20761" lon="5.44595">
        <ele>30.9</ele>
        <time>2012-05-27T11:05:50Z</time>
      </trkpt>
      <trkpt lat="43.20765" lon="5.44594">
        <ele>31.38</ele>
        <time>2012-05-27T11:06:03Z</time>
      </trkpt>
      <trkpt lat="43.20775" lon="5.44598">
        <ele>30.42</ele>
        <time>2012-05-27T11:06:09Z</time>
      </trkpt>
      <trkpt lat="43.20788" lon="5.446">
        <ele>32.34</ele>
        <time>2012-05-27T11:06:21Z</time>
      </trkpt>
      <trkpt lat="43.20789" lon="5.446">
        <ele>32.34</ele>
        <time>2012-05-27T11:06:25Z</time>
      </trkpt>
      <trkpt lat="43.20796" lon="5.44606">
        <ele>30.9</ele>
        <time>2012-05-27T11:06:37Z</time>
      </trkpt>
      <trkpt lat="43.20807" lon="5.44608">
        <ele>28.98</ele>
        <time>2012-05-27T11:06:49Z</time>
      </trkpt>
      <trkpt lat="43.20807" lon="5.44608">
        <ele>27.05</ele>
        <time>2012-05-27T11:07:01Z</time>
      </trkpt>
      <trkpt lat="43.20821" lon="5.44618">
        <ele>26.57</ele>
        <time>2012-05-27T11:07:16Z</time>
      </trkpt>
      <trkpt lat="43.20836" lon="5.4463">
        <ele>26.57</ele>
        <time>2012-05-27T11:07:28Z</time>
      </trkpt>
      <trkpt lat="43.20845" lon="5.44634">
        <ele>28.98</ele>
        <time>2012-05-27T11:07:41Z</time>
      </trkpt>
      <trkpt lat="43.20853" lon="5.44637">
        <ele>28.02</ele>
        <time>2012-05-27T11:07:53Z</time>
      </trkpt>
      <trkpt lat="43.20857" lon="5.44637">
        <ele>28.02</ele>
        <time>2012-05-27T11:07:57Z</time>
      </trkpt>
      <trkpt lat="43.20862" lon="5.44631">
        <ele>28.98</ele>
        <time>2012-05-27T11:08:05Z</time>
      </trkpt>
      <trkpt lat="43.20871" lon="5.44625">
        <ele>27.53</ele>
        <time>2012-05-27T11:08:19Z</time>
      </trkpt>
      <trkpt lat="43.20879" lon="5.44626">
        <ele>25.61</ele>
        <time>2012-05-27T11:08:30Z</time>
      </trkpt>
      <trkpt lat="43.20886" lon="5.44624">
        <ele>24.17</ele>
        <time>2012-05-27T11:08:42Z</time>
      </trkpt>
      <trkpt lat="43.20888" lon="5.44623">
        <ele>24.65</ele>
        <time>2012-05-27T11:08:50Z</time>
      </trkpt>
      <trkpt lat="43.20894" lon="5.44627">
        <ele>25.61</ele>
        <time>2012-05-27T11:09:05Z</time>
      </trkpt>
      <trkpt lat="43.20898" lon="5.4463">
        <ele>26.57</ele>
        <time>2012-05-27T11:09:25Z</time>
      </trkpt>
      <trkpt lat="43.20905" lon="5.44638">
        <ele>28.02</ele>
        <time>2012-05-27T11:09:37Z</time>
      </trkpt>
      <trkpt lat="43.20912" lon="5.44636">
        <ele>29.94</ele>
        <time>2012-05-27T11:09:48Z</time>
      </trkpt>
      <trkpt lat="43.20918" lon="5.44637">
        <ele>28.5</ele>
        <time>2012-05-27T11:10:00Z</time>
      </trkpt>
      <trkpt lat="43.20931" lon="5.44631">
        <ele>28.02</ele>
        <time>2012-05-27T11:10:15Z</time>
      </trkpt>
      <trkpt lat="43.20941" lon="5.44622">
        <ele>28.98</ele>
        <time>2012-05-27T11:10:29Z</time>
      </trkpt>
      <trkpt lat="43.20951" lon="5.44614">
        <ele>28.02</ele>
        <time>2012-05-27T11:10:42Z</time>
      </trkpt>
      <trkpt lat="43.20962" lon="5.44611">
        <ele>25.13</ele>
        <time>2012-05-27T11:10:56Z</time>
      </trkpt>
      <trkpt lat="43.20965" lon="5.44609">
        <ele>25.13</ele>
        <time>2012-05-27T11:11:02Z</time>
      </trkpt>
      <trkpt lat="43.20975" lon="5.44602">
        <ele>24.17</ele>
        <time>2012-05-27T11:11:11Z</time>
      </trkpt>
      <trkpt lat="43.20976" lon="5.446">
        <ele>23.69</ele>
        <time>2012-05-27T11:11:14Z</time>
      </trkpt>
      <trkpt lat="43.20986" lon="5.44589">
        <ele>23.21</ele>
        <time>2012-05-27T11:11:26Z</time>
      </trkpt>
      <trkpt lat="43.2099" lon="5.44589">
        <ele>22.25</ele>
        <time>2012-05-27T11:11:36Z</time>
      </trkpt>
      <trkpt lat="43.2099" lon="5.44589">
        <ele>21.77</ele>
        <time>2012-05-27T11:11:39Z</time>
      </trkpt>
      <trkpt lat="43.20992" lon="5.44584">
        <ele>20.81</ele>
        <time>2012-05-27T11:11:47Z</time>
      </trkpt>
      <trkpt lat="43.20995" lon="5.44581">
        <ele>20.32</ele>
        <time>2012-05-27T11:11:51Z</time>
      </trkpt>
      <trkpt lat="43.20999" lon="5.44577">
        <ele>19.36</ele>
        <time>2012-05-27T11:11:55Z</time>
      </trkpt>
      <trkpt lat="43.21005" lon="5.44577">
        <ele>18.88</ele>
        <time>2012-05-27T11:12:01Z</time>
      </trkpt>
      <trkpt lat="43.2101" lon="5.44578">
        <ele>18.88</ele>
        <time>2012-05-27T11:12:06Z</time>
      </trkpt>
      <trkpt lat="43.21021" lon="5.44568">
        <ele>19.36</ele>
        <time>2012-05-27T11:12:19Z</time>
      </trkpt>
      <trkpt lat="43.21033" lon="5.44563">
        <ele>19.36</ele>
        <time>2012-05-27T11:12:32Z</time>
      </trkpt>
      <trkpt lat="43.2104" lon="5.4456">
        <ele>21.77</ele>
        <time>2012-05-27T11:12:44Z</time>
      </trkpt>
      <trkpt lat="43.21046" lon="5.44561">
        <ele>20.81</ele>
        <time>2012-05-27T11:12:54Z</time>
      </trkpt>
      <trkpt lat="43.21051" lon="5.44556">
        <ele>20.32</ele>
        <time>2012-05-27T11:13:01Z</time>
      </trkpt>
      <trkpt lat="43.21055" lon="5.44546">
        <ele>20.81</ele>
        <time>2012-05-27T11:13:12Z</time>
      </trkpt>
      <trkpt lat="43.21057" lon="5.44545">
        <ele>22.73</ele>
        <time>2012-05-27T11:13:26Z</time>
      </trkpt>
      <trkpt lat="43.21057" lon="5.44542">
        <ele>22.73</ele>
        <time>2012-05-27T11:14:14Z</time>
      </trkpt>
      <trkpt lat="43.21056" lon="5.44538">
        <ele>22.73</ele>
        <time>2012-05-27T11:14:44Z</time>
      </trkpt>
      <trkpt lat="43.21061" lon="5.44536">
        <ele>21.77</ele>
        <time>2012-05-27T11:15:06Z</time>
      </trkpt>
      <trkpt lat="43.21062" lon="5.44535">
        <ele>20.81</ele>
        <time>2012-05-27T11:15:11Z</time>
      </trkpt>
      <trkpt lat="43.21073" lon="5.44524">
        <ele>21.29</ele>
        <time>2012-05-27T11:15:24Z</time>
      </trkpt>
      <trkpt lat="43.21074" lon="5.44521">
        <ele>22.25</ele>
        <time>2012-05-27T11:15:28Z</time>
      </trkpt>
      <trkpt lat="43.21081" lon="5.44515">
        <ele>22.73</ele>
        <time>2012-05-27T11:15:38Z</time>
      </trkpt>
      <trkpt lat="43.21085" lon="5.4451">
        <ele>22.73</ele>
        <time>2012-05-27T11:15:44Z</time>
      </trkpt>
      <trkpt lat="43.21089" lon="5.44506">
        <ele>22.73</ele>
        <time>2012-05-27T11:15:56Z</time>
      </trkpt>
      <trkpt lat="43.21099" lon="5.44501">
        <ele>21.29</ele>
        <time>2012-05-27T11:16:06Z</time>
      </trkpt>
      <trkpt lat="43.21102" lon="5.44491">
        <ele>22.73</ele>
        <time>2012-05-27T11:16:16Z</time>
      </trkpt>
      <trkpt lat="43.21109" lon="5.44483">
        <ele>24.17</ele>
        <time>2012-05-27T11:16:29Z</time>
      </trkpt>
      <trkpt lat="43.21112" lon="5.44483">
        <ele>25.61</ele>
        <time>2012-05-27T11:16:32Z</time>
      </trkpt>
      <trkpt lat="43.21121" lon="5.44479">
        <ele>27.05</ele>
        <time>2012-05-27T11:16:46Z</time>
      </trkpt>
      <trkpt lat="43.21123" lon="5.44479">
        <ele>28.98</ele>
        <time>2012-05-27T11:17:14Z</time>
      </trkpt>
      <trkpt lat="43.21123" lon="5.44479">
        <ele>28.5</ele>
        <time>2012-05-27T11:18:14Z</time>
      </trkpt>
      <trkpt lat="43.21122" lon="5.44471">
        <ele>27.53</ele>
        <time>2012-05-27T11:18:22Z</time>
      </trkpt>
      <trkpt lat="43.21122" lon="5.44457">
        <ele>28.02</ele>
        <time>2012-05-27T11:18:34Z</time>
      </trkpt>
      <trkpt lat="43.21123" lon="5.44453">
        <ele>27.53</ele>
        <time>2012-05-27T11:18:37Z</time>
      </trkpt>
      <trkpt lat="43.21125" lon="5.44451">
        <ele>27.53</ele>
        <time>2012-05-27T11:18:39Z</time>
      </trkpt>
      <trkpt lat="43.21128" lon="5.44439">
        <ele>27.05</ele>
        <time>2012-05-27T11:18:50Z</time>
      </trkpt>
      <trkpt lat="43.21126" lon="5.44435">
        <ele>24.17</ele>
        <time>2012-05-27T11:19:00Z</time>
      </trkpt>
      <trkpt lat="43.21127" lon="5.44432">
        <ele>23.21</ele>
        <time>2012-05-27T11:19:11Z</time>
      </trkpt>
      <trkpt lat="43.2113" lon="5.44426">
        <ele>21.77</ele>
        <time>2012-05-27T11:19:20Z</time>
      </trkpt>
      <trkpt lat="43.21134" lon="5.44418">
        <ele>20.81</ele>
        <time>2012-05-27T11:19:31Z</time>
      </trkpt>
      <trkpt lat="43.21136" lon="5.44416">
        <ele>18.88</ele>
        <time>2012-05-27T11:19:42Z</time>
      </trkpt>
      <trkpt lat="43.21144" lon="5.44407">
        <ele>17.44</ele>
        <time>2012-05-27T11:19:53Z</time>
      </trkpt>
      <trkpt lat="43.21147" lon="5.44408">
        <ele>17.44</ele>
        <time>2012-05-27T11:20:09Z</time>
      </trkpt>
      <trkpt lat="43.21155" lon="5.44409">
        <ele>16.48</ele>
        <time>2012-05-27T11:20:18Z</time>
      </trkpt>
      <trkpt lat="43.21157" lon="5.44411">
        <ele>16.48</ele>
        <time>2012-05-27T11:20:32Z</time>
      </trkpt>
      <trkpt lat="43.21162" lon="5.44415">
        <ele>15.04</ele>
        <time>2012-05-27T11:20:43Z</time>
      </trkpt>
      <trkpt lat="43.21169" lon="5.44416">
        <ele>14.08</ele>
        <time>2012-05-27T11:20:55Z</time>
      </trkpt>
      <trkpt lat="43.21172" lon="5.44416">
        <ele>13.12</ele>
        <time>2012-05-27T11:21:13Z</time>
      </trkpt>
      <trkpt lat="43.21172" lon="5.44416">
        <ele>11.67</ele>
        <time>2012-05-27T11:21:32Z</time>
      </trkpt>
      <trkpt lat="43.21172" lon="5.44416">
        <ele>11.67</ele>
        <time>2012-05-27T11:21:33Z</time>
      </trkpt>
      <trkpt lat="43.21172" lon="5.4442">
        <ele>9.75</ele>
        <time>2012-05-27T11:21:42Z</time>
      </trkpt>
      <trkpt lat="43.21174" lon="5.44421">
        <ele>8.79</ele>
        <time>2012-05-27T11:21:57Z</time>
      </trkpt>
      <trkpt lat="43.21174" lon="5.44421">
        <ele>7.83</ele>
        <time>2012-05-27T11:22:12Z</time>
      </trkpt>
      <trkpt lat="43.21174" lon="5.44421">
        <ele>4.46</ele>
        <time>2012-05-27T11:22:28Z</time>
      </trkpt>
      <trkpt lat="43.21174" lon="5.44421">
        <ele>3.98</ele>
        <time>2012-05-27T11:22:41Z</time>
      </trkpt>
      <trkpt lat="43.21174" lon="5.44421">
        <ele>3.5</ele>
        <time>2012-05-27T11:22:57Z</time>
      </trkpt>
      <trkpt lat="43.21178" lon="5.44417">
        <ele>3.02</ele>
        <time>2012-05-27T11:23:32Z</time>
      </trkpt>
      <trkpt lat="43.21187" lon="5.44414">
        <ele>2.06</ele>
        <time>2012-05-27T11:23:44Z</time>
      </trkpt>
      <trkpt lat="43.21211" lon="5.44407">
        <ele>1.1</ele>
        <time>2012-05-27T11:23:56Z</time>
      </trkpt>
      <trkpt lat="43.21219" lon="5.44402">
        <ele>1.1</ele>
        <time>2012-05-27T11:24:02Z</time>
      </trkpt>
      <trkpt lat="43.21226" lon="5.44396">
        <ele>1.1</ele>
        <time>2012-05-27T11:24:16Z</time>
      </trkpt>
      <trkpt lat="43.21229" lon="5.44393">
        <ele>0.62</ele>
        <time>2012-05-27T11:24:52Z</time>
      </trkpt>
      <trkpt lat="43.21236" lon="5.44384">
        <ele>0.62</ele>
        <time>2012-05-27T11:25:06Z</time>
      </trkpt>
      <trkpt lat="43.21244" lon="5.44379">
        <ele>0.62</ele>
        <time>2012-05-27T11:25:20Z</time>
      </trkpt>
      <trkpt lat="43.21247" lon="5.44373">
        <ele>0.62</ele>
        <time>2012-05-27T11:25:32Z</time>
      </trkpt>
      <trkpt lat="43.21254" lon="5.44363">
        <ele>0.62</ele>
        <time>2012-05-27T11:25:43Z</time>
      </trkpt>
      <trkpt lat="43.21261" lon="5.44349">
        <ele>1.1</ele>
        <time>2012-05-27T11:25:54Z</time>
      </trkpt>
      <trkpt lat="43.21263" lon="5.44342">
        <ele>0.62</ele>
        <time>2012-05-27T11:25:59Z</time>
      </trkpt>
      <trkpt lat="43.21267" lon="5.44335">
        <ele>0.62</ele>
        <time>2012-05-27T11:26:06Z</time>
      </trkpt>
      <trkpt lat="43.2127" lon="5.44323">
        <ele>0.62</ele>
        <time>2012-05-27T11:26:17Z</time>
      </trkpt>
      <trkpt lat="43.21272" lon="5.4432">
        <ele>0.62</ele>
        <time>2012-05-27T11:26:30Z</time>
      </trkpt>
      <trkpt lat="43.21272" lon="5.44321">
        <ele>0.14</ele>
        <time>2012-05-27T11:26:49Z</time>
      </trkpt>
      <trkpt lat="43.21272" lon="5.44322">
        <ele>0.62</ele>
        <time>2012-05-27T11:27:30Z</time>
      </trkpt>
      <trkpt lat="43.21272" lon="5.44322">
        <ele>0.62</ele>
        <time>2012-05-27T11:28:29Z</time>
      </trkpt>
      <trkpt lat="43.21272" lon="5.44322">
        <ele>0.62</ele>
        <time>2012-05-27T11:29:32Z</time>
      </trkpt>
      <trkpt lat="43.21271" lon="5.44324">
        <ele>0.62</ele>
        <time>2012-05-27T11:30:12Z</time>
      </trkpt>
      <trkpt lat="43.21271" lon="5.44324">
        <ele>1.1</ele>
        <time>2012-05-27T11:31:09Z</time>
      </trkpt>
      <trkpt lat="43.21272" lon="5.44324">
        <ele>1.58</ele>
        <time>2012-05-27T11:32:37Z</time>
      </trkpt>
      <trkpt lat="43.2128" lon="5.44324">
        <ele>1.58</ele>
        <time>2012-05-27T11:32:48Z</time>
      </trkpt>
      <trkpt lat="43.21283" lon="5.44324">
        <ele>1.58</ele>
        <time>2012-05-27T11:32:59Z</time>
      </trkpt>
      <trkpt lat="43.21293" lon="5.44327">
        <ele>2.06</ele>
        <time>2012-05-27T11:33:16Z</time>
      </trkpt>
      <trkpt lat="43.21297" lon="5.4433">
        <ele>1.58</ele>
        <time>2012-05-27T11:33:31Z</time>
      </trkpt>
      <trkpt lat="43.21304" lon="5.44336">
        <ele>2.06</ele>
        <time>2012-05-27T11:33:48Z</time>
      </trkpt>
      <trkpt lat="43.21306" lon="5.44341">
        <ele>1.58</ele>
        <time>2012-05-27T11:33:59Z</time>
      </trkpt>
      <trkpt lat="43.21304" lon="5.44341">
        <ele>2.06</ele>
        <time>2012-05-27T11:34:23Z</time>
      </trkpt>
      <trkpt lat="43.21306" lon="5.44347">
        <ele>1.58</ele>
        <time>2012-05-27T11:34:34Z</time>
      </trkpt>
      <trkpt lat="43.21306" lon="5.44353">
        <ele>1.58</ele>
        <time>2012-05-27T11:34:40Z</time>
      </trkpt>
      <trkpt lat="43.21306" lon="5.44366">
        <ele>1.1</ele>
        <time>2012-05-27T11:34:53Z</time>
      </trkpt>
      <trkpt lat="43.21303" lon="5.44381">
        <ele>1.1</ele>
        <time>2012-05-27T11:35:07Z</time>
      </trkpt>
      <trkpt lat="43.21296" lon="5.44403">
        <ele>2.54</ele>
        <time>2012-05-27T11:35:23Z</time>
      </trkpt>
      <trkpt lat="43.21294" lon="5.44405">
        <ele>4.46</ele>
        <time>2012-05-27T11:35:38Z</time>
      </trkpt>
      <trkpt lat="43.2129" lon="5.44409">
        <ele>4.94</ele>
        <time>2012-05-27T11:35:49Z</time>
      </trkpt>
      <trkpt lat="43.21293" lon="5.44418">
        <ele>7.83</ele>
        <time>2012-05-27T11:36:03Z</time>
      </trkpt>
      <trkpt lat="43.21292" lon="5.44428">
        <ele>9.27</ele>
        <time>2012-05-27T11:36:14Z</time>
      </trkpt>
      <trkpt lat="43.2129" lon="5.44432">
        <ele>10.71</ele>
        <time>2012-05-27T11:36:28Z</time>
      </trkpt>
      <trkpt lat="43.21279" lon="5.44444">
        <ele>10.71</ele>
        <time>2012-05-27T11:36:41Z</time>
      </trkpt>
      <trkpt lat="43.21277" lon="5.44451">
        <ele>11.67</ele>
        <time>2012-05-27T11:36:53Z</time>
      </trkpt>
      <trkpt lat="43.21274" lon="5.44449">
        <ele>10.23</ele>
        <time>2012-05-27T11:37:09Z</time>
      </trkpt>
      <trkpt lat="43.21273" lon="5.44449">
        <ele>10.23</ele>
        <time>2012-05-27T11:37:14Z</time>
      </trkpt>
      <trkpt lat="43.21263" lon="5.44446">
        <ele>7.83</ele>
        <time>2012-05-27T11:37:26Z</time>
      </trkpt>
      <trkpt lat="43.21263" lon="5.44451">
        <ele>9.27</ele>
        <time>2012-05-27T11:37:37Z</time>
      </trkpt>
      <trkpt lat="43.21265" lon="5.44441">
        <ele>8.31</ele>
        <time>2012-05-27T11:37:46Z</time>
      </trkpt>
      <trkpt lat="43.21263" lon="5.44438">
        <ele>6.87</ele>
        <time>2012-05-27T11:37:57Z</time>
      </trkpt>
      <trkpt lat="43.21263" lon="5.44438">
        <ele>6.87</ele>
        <time>2012-05-27T11:38:29Z</time>
      </trkpt>
      <trkpt lat="43.21263" lon="5.44435">
        <ele>5.91</ele>
        <time>2012-05-27T11:39:29Z</time>
      </trkpt>
      <trkpt lat="43.21269" lon="5.44427">
        <ele>4.94</ele>
        <time>2012-05-27T11:39:42Z</time>
      </trkpt>
      <trkpt lat="43.21274" lon="5.44423">
        <ele>3.98</ele>
        <time>2012-05-27T11:39:53Z</time>
      </trkpt>
      <trkpt lat="43.21277" lon="5.44424">
        <ele>3.02</ele>
        <time>2012-05-27T11:40:08Z</time>
      </trkpt>
      <trkpt lat="43.2128" lon="5.44424">
        <ele>2.54</ele>
        <time>2012-05-27T11:40:28Z</time>
      </trkpt>
      <trkpt lat="43.21281" lon="5.44424">
        <ele>1.1</ele>
        <time>2012-05-27T11:40:47Z</time>
      </trkpt>
      <trkpt lat="43.21281" lon="5.44424">
        <ele>0.14</ele>
        <time>2012-05-27T11:41:52Z</time>
      </trkpt>
      <trkpt lat="43.2128" lon="5.44424">
        <ele>0.62</ele>
        <time>2012-05-27T11:42:27Z</time>
      </trkpt>
      <trkpt lat="43.21281" lon="5.44426">
        <ele>0.14</ele>
        <time>2012-05-27T11:42:58Z</time>
      </trkpt>
      <trkpt lat="43.21278" lon="5.44425">
        <ele>-0.82</ele>
        <time>2012-05-27T11:52:55Z</time>
      </trkpt>
      <trkpt lat="43.21278" lon="5.44424">
        <ele>-1.3</ele>
        <time>2012-05-27T11:59:37Z</time>
      </trkpt>
      <trkpt lat="43.21277" lon="5.44424">
        <ele>-1.3</ele>
        <time>2012-05-27T12:03:55Z</time>
      </trkpt>
      <trkpt lat="43.21277" lon="5.44423">
        <ele>-1.79</ele>
        <time>2012-05-27T12:09:22Z</time>
      </trkpt>
      <trkpt lat="43.21276" lon="5.44424">
        <ele>-1.79</ele>
        <time>2012-05-27T12:10:08Z</time>
      </trkpt>
      <trkpt lat="43.21276" lon="5.44424">
        <ele>-1.79</ele>
        <time>2012-05-27T12:11:47Z</time>
      </trkpt>
      <trkpt lat="43.21276" lon="5.44423">
        <ele>-1.79</ele>
        <time>2012-05-27T12:12:22Z</time>
      </trkpt>
      <trkpt lat="43.21276" lon="5.44423">
        <ele>-2.27</ele>
        <time>2012-05-27T12:13:15Z</time>
      </trkpt>
      <trkpt lat="43.21277" lon="5.44424">
        <ele>-1.79</ele>
        <time>2012-05-27T12:13:39Z</time>
      </trkpt>
      <trkpt lat="43.21277" lon="5.44423">
        <ele>-2.75</ele>
        <time>2012-05-27T12:13:56Z</time>
      </trkpt>
      <trkpt lat="43.21277" lon="5.44423">
        <ele>-1.3</ele>
        <time>2012-05-27T12:13:59Z</time>
      </trkpt>
      <trkpt lat="43.21276" lon="5.44419">
        <ele>-1.79</ele>
        <time>2012-05-27T12:14:20Z</time>
      </trkpt>
      <trkpt lat="43.21279" lon="5.44417">
        <ele>-1.3</ele>
        <time>2012-05-27T12:14:31Z</time>
      </trkpt>
      <trkpt lat="43.21283" lon="5.44415">
        <ele>-0.34</ele>
        <time>2012-05-27T12:14:48Z</time>
      </trkpt>
      <trkpt lat="43.21279" lon="5.44412">
        <ele>-0.34</ele>
        <time>2012-05-27T12:15:01Z</time>
      </trkpt>
      <trkpt lat="43.21283" lon="5.44408">
        <ele>-1.3</ele>
        <time>2012-05-27T12:15:10Z</time>
      </trkpt>
      <trkpt lat="43.21284" lon="5.44405">
        <ele>-0.34</ele>
        <time>2012-05-27T12:15:17Z</time>
      </trkpt>
      <trkpt lat="43.21284" lon="5.44404">
        <ele>1.58</ele>
        <time>2012-05-27T12:15:22Z</time>
      </trkpt>
      <trkpt lat="43.2129" lon="5.444">
        <ele>0.14</ele>
        <time>2012-05-27T12:15:31Z</time>
      </trkpt>
      <trkpt lat="43.21292" lon="5.44394">
        <ele>-1.3</ele>
        <time>2012-05-27T12:15:40Z</time>
      </trkpt>
      <trkpt lat="43.21294" lon="5.44383">
        <ele>-2.27</ele>
        <time>2012-05-27T12:15:51Z</time>
      </trkpt>
      <trkpt lat="43.21294" lon="5.44373">
        <ele>-1.79</ele>
        <time>2012-05-27T12:15:59Z</time>
      </trkpt>
      <trkpt lat="43.21303" lon="5.44359">
        <ele>-2.27</ele>
        <time>2012-05-27T12:16:14Z</time>
      </trkpt>
      <trkpt lat="43.21308" lon="5.4435">
        <ele>-1.79</ele>
        <time>2012-05-27T12:16:32Z</time>
      </trkpt>
      <trkpt lat="43.21305" lon="5.44342">
        <ele>-1.79</ele>
        <time>2012-05-27T12:16:47Z</time>
      </trkpt>
      <trkpt lat="43.21308" lon="5.4433">
        <ele>-1.79</ele>
        <time>2012-05-27T12:17:04Z</time>
      </trkpt>
      <trkpt lat="43.21309" lon="5.44324">
        <ele>-1.3</ele>
        <time>2012-05-27T12:17:19Z</time>
      </trkpt>
      <trkpt lat="43.21308" lon="5.44325">
        <ele>-1.79</ele>
        <time>2012-05-27T12:18:25Z</time>
      </trkpt>
      <trkpt lat="43.21311" lon="5.44322">
        <ele>-1.79</ele>
        <time>2012-05-27T12:18:34Z</time>
      </trkpt>
      <trkpt lat="43.21312" lon="5.44304">
        <ele>-1.79</ele>
        <time>2012-05-27T12:18:48Z</time>
      </trkpt>
      <trkpt lat="43.21314" lon="5.44284">
        <ele>-2.27</ele>
        <time>2012-05-27T12:19:02Z</time>
      </trkpt>
      <trkpt lat="43.21316" lon="5.44268">
        <ele>-1.79</ele>
        <time>2012-05-27T12:19:15Z</time>
      </trkpt>
      <trkpt lat="43.21317" lon="5.44258">
        <ele>-2.27</ele>
        <time>2012-05-27T12:19:33Z</time>
      </trkpt>
      <trkpt lat="43.21318" lon="5.44239">
        <ele>-2.75</ele>
        <time>2012-05-27T12:19:47Z</time>
      </trkpt>
      <trkpt lat="43.2132" lon="5.44222">
        <ele>-2.27</ele>
        <time>2012-05-27T12:20:01Z</time>
      </trkpt>
      <trkpt lat="43.21322" lon="5.44206">
        <ele>-2.75</ele>
        <time>2012-05-27T12:20:16Z</time>
      </trkpt>
      <trkpt lat="43.21325" lon="5.44188">
        <ele>-2.27</ele>
        <time>2012-05-27T12:20:29Z</time>
      </trkpt>
      <trkpt lat="43.21327" lon="5.44171">
        <ele>-2.27</ele>
        <time>2012-05-27T12:20:41Z</time>
      </trkpt>
      <trkpt lat="43.21329" lon="5.44155">
        <ele>-2.27</ele>
        <time>2012-05-27T12:20:55Z</time>
      </trkpt>
      <trkpt lat="43.21333" lon="5.44144">
        <ele>-1.79</ele>
        <time>2012-05-27T12:21:10Z</time>
      </trkpt>
      <trkpt lat="43.21347" lon="5.44134">
        <ele>-1.3</ele>
        <time>2012-05-27T12:21:28Z</time>
      </trkpt>
      <trkpt lat="43.21356" lon="5.44133">
        <ele>-0.34</ele>
        <time>2012-05-27T12:21:39Z</time>
      </trkpt>
      <trkpt lat="43.21368" lon="5.44123">
        <ele>-0.34</ele>
        <time>2012-05-27T12:21:53Z</time>
      </trkpt>
      <trkpt lat="43.21384" lon="5.44116">
        <ele>0.14</ele>
        <time>2012-05-27T12:22:05Z</time>
      </trkpt>
      <trkpt lat="43.21387" lon="5.44103">
        <ele>1.58</ele>
        <time>2012-05-27T12:22:17Z</time>
      </trkpt>
      <trkpt lat="43.2139" lon="5.44093">
        <ele>3.02</ele>
        <time>2012-05-27T12:22:28Z</time>
      </trkpt>
      <trkpt lat="43.21394" lon="5.44081">
        <ele>4.94</ele>
        <time>2012-05-27T12:22:41Z</time>
      </trkpt>
      <trkpt lat="43.21396" lon="5.44075">
        <ele>5.42</ele>
        <time>2012-05-27T12:22:47Z</time>
      </trkpt>
      <trkpt lat="43.21397" lon="5.44072">
        <ele>5.91</ele>
        <time>2012-05-27T12:23:01Z</time>
      </trkpt>
      <trkpt lat="43.21397" lon="5.4407">
        <ele>5.42</ele>
        <time>2012-05-27T12:23:05Z</time>
      </trkpt>
      <trkpt lat="43.21396" lon="5.44064">
        <ele>5.91</ele>
        <time>2012-05-27T12:23:09Z</time>
      </trkpt>
      <trkpt lat="43.21395" lon="5.4405">
        <ele>6.87</ele>
        <time>2012-05-27T12:23:19Z</time>
      </trkpt>
      <trkpt lat="43.21397" lon="5.44033">
        <ele>6.39</ele>
        <time>2012-05-27T12:23:29Z</time>
      </trkpt>
      <trkpt lat="43.21402" lon="5.4402">
        <ele>5.91</ele>
        <time>2012-05-27T12:23:40Z</time>
      </trkpt>
      <trkpt lat="43.21414" lon="5.44008">
        <ele>4.94</ele>
        <time>2012-05-27T12:23:54Z</time>
      </trkpt>
      <trkpt lat="43.21424" lon="5.43997">
        <ele>4.46</ele>
        <time>2012-05-27T12:24:07Z</time>
      </trkpt>
      <trkpt lat="43.21428" lon="5.43992">
        <ele>3.98</ele>
        <time>2012-05-27T12:24:13Z</time>
      </trkpt>
      <trkpt lat="43.21434" lon="5.43982">
        <ele>4.94</ele>
        <time>2012-05-27T12:24:23Z</time>
      </trkpt>
      <trkpt lat="43.21441" lon="5.43967">
        <ele>4.94</ele>
        <time>2012-05-27T12:24:35Z</time>
      </trkpt>
      <trkpt lat="43.21444" lon="5.43965">
        <ele>4.94</ele>
        <time>2012-05-27T12:24:38Z</time>
      </trkpt>
      <trkpt lat="43.21445" lon="5.43964">
        <ele>5.42</ele>
        <time>2012-05-27T12:24:40Z</time>
      </trkpt>
      <trkpt lat="43.21444" lon="5.43957">
        <ele>4.94</ele>
        <time>2012-05-27T12:24:44Z</time>
      </trkpt>
      <trkpt lat="43.21449" lon="5.43953">
        <ele>4.94</ele>
        <time>2012-05-27T12:24:49Z</time>
      </trkpt>
      <trkpt lat="43.21451" lon="5.43948">
        <ele>5.42</ele>
        <time>2012-05-27T12:24:53Z</time>
      </trkpt>
      <trkpt lat="43.2146" lon="5.4394">
        <ele>5.91</ele>
        <time>2012-05-27T12:25:04Z</time>
      </trkpt>
      <trkpt lat="43.21462" lon="5.43938">
        <ele>6.39</ele>
        <time>2012-05-27T12:25:11Z</time>
      </trkpt>
      <trkpt lat="43.21471" lon="5.43939">
        <ele>6.87</ele>
        <time>2012-05-27T12:25:20Z</time>
      </trkpt>
      <trkpt lat="43.21477" lon="5.43939">
        <ele>6.87</ele>
        <time>2012-05-27T12:25:27Z</time>
      </trkpt>
      <trkpt lat="43.21487" lon="5.43938">
        <ele>7.35</ele>
        <time>2012-05-27T12:25:36Z</time>
      </trkpt>
      <trkpt lat="43.21499" lon="5.43934">
        <ele>8.31</ele>
        <time>2012-05-27T12:25:50Z</time>
      </trkpt>
      <trkpt lat="43.21499" lon="5.43933">
        <ele>8.79</ele>
        <time>2012-05-27T12:25:56Z</time>
      </trkpt>
      <trkpt lat="43.21504" lon="5.4393">
        <ele>8.79</ele>
        <time>2012-05-27T12:26:00Z</time>
      </trkpt>
      <trkpt lat="43.2151" lon="5.43927">
        <ele>9.27</ele>
        <time>2012-05-27T12:26:05Z</time>
      </trkpt>
      <trkpt lat="43.21516" lon="5.4391">
        <ele>9.75</ele>
        <time>2012-05-27T12:26:17Z</time>
      </trkpt>
      <trkpt lat="43.21524" lon="5.43899">
        <ele>9.75</ele>
        <time>2012-05-27T12:26:29Z</time>
      </trkpt>
      <trkpt lat="43.21531" lon="5.43884">
        <ele>10.71</ele>
        <time>2012-05-27T12:26:41Z</time>
      </trkpt>
      <trkpt lat="43.21535" lon="5.43876">
        <ele>11.19</ele>
        <time>2012-05-27T12:26:51Z</time>
      </trkpt>
      <trkpt lat="43.21539" lon="5.43865">
        <ele>12.15</ele>
        <time>2012-05-27T12:27:01Z</time>
      </trkpt>
      <trkpt lat="43.21542" lon="5.43858">
        <ele>12.15</ele>
        <time>2012-05-27T12:27:11Z</time>
      </trkpt>
      <trkpt lat="43.21545" lon="5.43847">
        <ele>13.6</ele>
        <time>2012-05-27T12:27:22Z</time>
      </trkpt>
      <trkpt lat="43.21547" lon="5.4384">
        <ele>14.08</ele>
        <time>2012-05-27T12:27:27Z</time>
      </trkpt>
      <trkpt lat="43.21546" lon="5.43826">
        <ele>14.08</ele>
        <time>2012-05-27T12:27:39Z</time>
      </trkpt>
      <trkpt lat="43.21546" lon="5.43814">
        <ele>15.04</ele>
        <time>2012-05-27T12:27:47Z</time>
      </trkpt>
      <trkpt lat="43.21549" lon="5.43801">
        <ele>15.52</ele>
        <time>2012-05-27T12:27:58Z</time>
      </trkpt>
      <trkpt lat="43.21556" lon="5.43791">
        <ele>15.52</ele>
        <time>2012-05-27T12:28:07Z</time>
      </trkpt>
      <trkpt lat="43.21564" lon="5.43783">
        <ele>16</ele>
        <time>2012-05-27T12:28:18Z</time>
      </trkpt>
      <trkpt lat="43.21567" lon="5.43782">
        <ele>16</ele>
        <time>2012-05-27T12:28:20Z</time>
      </trkpt>
      <trkpt lat="43.21578" lon="5.43773">
        <ele>16.96</ele>
        <time>2012-05-27T12:28:32Z</time>
      </trkpt>
      <trkpt lat="43.21586" lon="5.43771">
        <ele>17.44</ele>
        <time>2012-05-27T12:28:43Z</time>
      </trkpt>
      <trkpt lat="43.216" lon="5.43767">
        <ele>18.4</ele>
        <time>2012-05-27T12:28:56Z</time>
      </trkpt>
      <trkpt lat="43.21612" lon="5.4376">
        <ele>18.88</ele>
        <time>2012-05-27T12:29:08Z</time>
      </trkpt>
      <trkpt lat="43.21617" lon="5.43758">
        <ele>19.36</ele>
        <time>2012-05-27T12:29:13Z</time>
      </trkpt>
      <trkpt lat="43.21624" lon="5.43755">
        <ele>18.88</ele>
        <time>2012-05-27T12:29:19Z</time>
      </trkpt>
      <trkpt lat="43.2163" lon="5.43749">
        <ele>19.36</ele>
        <time>2012-05-27T12:29:26Z</time>
      </trkpt>
      <trkpt lat="43.21634" lon="5.43741">
        <ele>19.84</ele>
        <time>2012-05-27T12:29:32Z</time>
      </trkpt>
      <trkpt lat="43.21637" lon="5.43733">
        <ele>20.32</ele>
        <time>2012-05-27T12:29:39Z</time>
      </trkpt>
      <trkpt lat="43.21639" lon="5.43729">
        <ele>20.32</ele>
        <time>2012-05-27T12:29:42Z</time>
      </trkpt>
      <trkpt lat="43.21643" lon="5.43725">
        <ele>20.32</ele>
        <time>2012-05-27T12:29:47Z</time>
      </trkpt>
      <trkpt lat="43.2165" lon="5.43718">
        <ele>21.29</ele>
        <time>2012-05-27T12:29:55Z</time>
      </trkpt>
      <trkpt lat="43.21663" lon="5.43706">
        <ele>21.77</ele>
        <time>2012-05-27T12:30:10Z</time>
      </trkpt>
      <trkpt lat="43.21672" lon="5.43689">
        <ele>22.25</ele>
        <time>2012-05-27T12:30:25Z</time>
      </trkpt>
      <trkpt lat="43.21673" lon="5.43685">
        <ele>22.25</ele>
        <time>2012-05-27T12:30:29Z</time>
      </trkpt>
      <trkpt lat="43.21674" lon="5.43675">
        <ele>22.73</ele>
        <time>2012-05-27T12:30:36Z</time>
      </trkpt>
      <trkpt lat="43.21677" lon="5.43666">
        <ele>23.69</ele>
        <time>2012-05-27T12:30:43Z</time>
      </trkpt>
      <trkpt lat="43.21677" lon="5.43662">
        <ele>23.69</ele>
        <time>2012-05-27T12:30:45Z</time>
      </trkpt>
      <trkpt lat="43.21679" lon="5.43656">
        <ele>24.65</ele>
        <time>2012-05-27T12:30:50Z</time>
      </trkpt>
      <trkpt lat="43.21674" lon="5.43637">
        <ele>25.13</ele>
        <time>2012-05-27T12:31:04Z</time>
      </trkpt>
      <trkpt lat="43.21671" lon="5.4362">
        <ele>26.09</ele>
        <time>2012-05-27T12:31:16Z</time>
      </trkpt>
      <trkpt lat="43.21667" lon="5.43604">
        <ele>26.09</ele>
        <time>2012-05-27T12:31:26Z</time>
      </trkpt>
      <trkpt lat="43.21667" lon="5.43601">
        <ele>26.57</ele>
        <time>2012-05-27T12:31:28Z</time>
      </trkpt>
      <trkpt lat="43.21671" lon="5.43585">
        <ele>27.05</ele>
        <time>2012-05-27T12:31:41Z</time>
      </trkpt>
      <trkpt lat="43.21672" lon="5.43581">
        <ele>27.53</ele>
        <time>2012-05-27T12:31:44Z</time>
      </trkpt>
      <trkpt lat="43.21672" lon="5.43571">
        <ele>28.5</ele>
        <time>2012-05-27T12:31:51Z</time>
      </trkpt>
      <trkpt lat="43.21672" lon="5.43556">
        <ele>29.46</ele>
        <time>2012-05-27T12:32:02Z</time>
      </trkpt>
      <trkpt lat="43.21673" lon="5.43552">
        <ele>29.94</ele>
        <time>2012-05-27T12:32:05Z</time>
      </trkpt>
      <trkpt lat="43.21679" lon="5.43543">
        <ele>30.42</ele>
        <time>2012-05-27T12:32:14Z</time>
      </trkpt>
      <trkpt lat="43.21683" lon="5.43533">
        <ele>31.38</ele>
        <time>2012-05-27T12:32:23Z</time>
      </trkpt>
      <trkpt lat="43.21689" lon="5.43516">
        <ele>33.3</ele>
        <time>2012-05-27T12:32:36Z</time>
      </trkpt>
      <trkpt lat="43.21689" lon="5.43515">
        <ele>33.3</ele>
        <time>2012-05-27T12:32:37Z</time>
      </trkpt>
      <trkpt lat="43.21691" lon="5.43505">
        <ele>34.74</ele>
        <time>2012-05-27T12:32:45Z</time>
      </trkpt>
      <trkpt lat="43.21691" lon="5.4349">
        <ele>37.15</ele>
        <time>2012-05-27T12:32:59Z</time>
      </trkpt>
      <trkpt lat="43.21684" lon="5.43475">
        <ele>40.03</ele>
        <time>2012-05-27T12:33:14Z</time>
      </trkpt>
      <trkpt lat="43.21683" lon="5.43462">
        <ele>42.44</ele>
        <time>2012-05-27T12:33:27Z</time>
      </trkpt>
      <trkpt lat="43.21684" lon="5.43461">
        <ele>42.44</ele>
        <time>2012-05-27T12:33:28Z</time>
      </trkpt>
      <trkpt lat="43.21688" lon="5.43446">
        <ele>44.36</ele>
        <time>2012-05-27T12:33:41Z</time>
      </trkpt>
      <trkpt lat="43.21689" lon="5.43445">
        <ele>45.32</ele>
        <time>2012-05-27T12:33:42Z</time>
      </trkpt>
      <trkpt lat="43.21693" lon="5.43443">
        <ele>45.32</ele>
        <time>2012-05-27T12:33:46Z</time>
      </trkpt>
      <trkpt lat="43.217" lon="5.43437">
        <ele>46.76</ele>
        <time>2012-05-27T12:33:57Z</time>
      </trkpt>
      <trkpt lat="43.21703" lon="5.4343">
        <ele>47.72</ele>
        <time>2012-05-27T12:34:03Z</time>
      </trkpt>
      <trkpt lat="43.21708" lon="5.43424">
        <ele>49.16</ele>
        <time>2012-05-27T12:34:11Z</time>
      </trkpt>
      <trkpt lat="43.21718" lon="5.43418">
        <ele>50.13</ele>
        <time>2012-05-27T12:34:22Z</time>
      </trkpt>
      <trkpt lat="43.21725" lon="5.43416">
        <ele>50.13</ele>
        <time>2012-05-27T12:34:27Z</time>
      </trkpt>
      <trkpt lat="43.21737" lon="5.43415">
        <ele>51.57</ele>
        <time>2012-05-27T12:34:38Z</time>
      </trkpt>
      <trkpt lat="43.21748" lon="5.43415">
        <ele>53.01</ele>
        <time>2012-05-27T12:34:50Z</time>
      </trkpt>
      <trkpt lat="43.21751" lon="5.43413">
        <ele>53.49</ele>
        <time>2012-05-27T12:34:56Z</time>
      </trkpt>
      <trkpt lat="43.21754" lon="5.4341">
        <ele>54.45</ele>
        <time>2012-05-27T12:35:01Z</time>
      </trkpt>
      <trkpt lat="43.21761" lon="5.43394">
        <ele>55.89</ele>
        <time>2012-05-27T12:35:14Z</time>
      </trkpt>
      <trkpt lat="43.21764" lon="5.43375">
        <ele>56.86</ele>
        <time>2012-05-27T12:35:28Z</time>
      </trkpt>
      <trkpt lat="43.21764" lon="5.43371">
        <ele>56.86</ele>
        <time>2012-05-27T12:35:32Z</time>
      </trkpt>
      <trkpt lat="43.21765" lon="5.43353">
        <ele>58.3</ele>
        <time>2012-05-27T12:35:47Z</time>
      </trkpt>
      <trkpt lat="43.21761" lon="5.43337">
        <ele>59.26</ele>
        <time>2012-05-27T12:36:00Z</time>
      </trkpt>
      <trkpt lat="43.21758" lon="5.43313">
        <ele>60.7</ele>
        <time>2012-05-27T12:36:19Z</time>
      </trkpt>
      <trkpt lat="43.21757" lon="5.4331">
        <ele>60.7</ele>
        <time>2012-05-27T12:36:21Z</time>
      </trkpt>
      <trkpt lat="43.21756" lon="5.43304">
        <ele>60.7</ele>
        <time>2012-05-27T12:36:24Z</time>
      </trkpt>
      <trkpt lat="43.21758" lon="5.43282">
        <ele>62.14</ele>
        <time>2012-05-27T12:36:40Z</time>
      </trkpt>
      <trkpt lat="43.21758" lon="5.43281">
        <ele>62.14</ele>
        <time>2012-05-27T12:36:41Z</time>
      </trkpt>
      <trkpt lat="43.21759" lon="5.43277">
        <ele>62.62</ele>
        <time>2012-05-27T12:36:44Z</time>
      </trkpt>
      <trkpt lat="43.21761" lon="5.43274">
        <ele>63.1</ele>
        <time>2012-05-27T12:36:46Z</time>
      </trkpt>
      <trkpt lat="43.21761" lon="5.4327">
        <ele>63.1</ele>
        <time>2012-05-27T12:36:49Z</time>
      </trkpt>
      <trkpt lat="43.21763" lon="5.43261">
        <ele>63.58</ele>
        <time>2012-05-27T12:36:57Z</time>
      </trkpt>
      <trkpt lat="43.21767" lon="5.43248">
        <ele>65.03</ele>
        <time>2012-05-27T12:37:07Z</time>
      </trkpt>
      <trkpt lat="43.21772" lon="5.43233">
        <ele>66.47</ele>
        <time>2012-05-27T12:37:23Z</time>
      </trkpt>
      <trkpt lat="43.21775" lon="5.4323">
        <ele>66.95</ele>
        <time>2012-05-27T12:37:26Z</time>
      </trkpt>
      <trkpt lat="43.2178" lon="5.43217">
        <ele>68.39</ele>
        <time>2012-05-27T12:37:37Z</time>
      </trkpt>
      <trkpt lat="43.21786" lon="5.43196">
        <ele>69.35</ele>
        <time>2012-05-27T12:37:52Z</time>
      </trkpt>
      <trkpt lat="43.21789" lon="5.43182">
        <ele>71.27</ele>
        <time>2012-05-27T12:38:03Z</time>
      </trkpt>
      <trkpt lat="43.21796" lon="5.43167">
        <ele>71.76</ele>
        <time>2012-05-27T12:38:15Z</time>
      </trkpt>
      <trkpt lat="43.21802" lon="5.43152">
        <ele>72.24</ele>
        <time>2012-05-27T12:38:26Z</time>
      </trkpt>
      <trkpt lat="43.21804" lon="5.43146">
        <ele>72.72</ele>
        <time>2012-05-27T12:38:30Z</time>
      </trkpt>
      <trkpt lat="43.218" lon="5.43126">
        <ele>73.68</ele>
        <time>2012-05-27T12:38:44Z</time>
      </trkpt>
      <trkpt lat="43.21797" lon="5.43121">
        <ele>74.16</ele>
        <time>2012-05-27T12:38:50Z</time>
      </trkpt>
      <trkpt lat="43.21793" lon="5.43104">
        <ele>75.6</ele>
        <time>2012-05-27T12:39:04Z</time>
      </trkpt>
      <trkpt lat="43.21795" lon="5.431">
        <ele>75.6</ele>
        <time>2012-05-27T12:39:07Z</time>
      </trkpt>
      <trkpt lat="43.21806" lon="5.43095">
        <ele>77.04</ele>
        <time>2012-05-27T12:39:19Z</time>
      </trkpt>
      <trkpt lat="43.2181" lon="5.43092">
        <ele>77.52</ele>
        <time>2012-05-27T12:39:23Z</time>
      </trkpt>
      <trkpt lat="43.21816" lon="5.43086">
        <ele>78</ele>
        <time>2012-05-27T12:39:29Z</time>
      </trkpt>
      <trkpt lat="43.21826" lon="5.43071">
        <ele>78.48</ele>
        <time>2012-05-27T12:39:42Z</time>
      </trkpt>
      <trkpt lat="43.21829" lon="5.43068">
        <ele>79.45</ele>
        <time>2012-05-27T12:39:45Z</time>
      </trkpt>
      <trkpt lat="43.21833" lon="5.43061">
        <ele>79.45</ele>
        <time>2012-05-27T12:39:51Z</time>
      </trkpt>
      <trkpt lat="43.21836" lon="5.43054">
        <ele>80.41</ele>
        <time>2012-05-27T12:39:58Z</time>
      </trkpt>
      <trkpt lat="43.21842" lon="5.4304">
        <ele>80.41</ele>
        <time>2012-05-27T12:40:09Z</time>
      </trkpt>
      <trkpt lat="43.21846" lon="5.43028">
        <ele>80.89</ele>
        <time>2012-05-27T12:40:19Z</time>
      </trkpt>
      <trkpt lat="43.21848" lon="5.43012">
        <ele>81.85</ele>
        <time>2012-05-27T12:40:30Z</time>
      </trkpt>
      <trkpt lat="43.21849" lon="5.43001">
        <ele>82.33</ele>
        <time>2012-05-27T12:40:37Z</time>
      </trkpt>
      <trkpt lat="43.21848" lon="5.42992">
        <ele>81.85</ele>
        <time>2012-05-27T12:40:43Z</time>
      </trkpt>
      <trkpt lat="43.21854" lon="5.4298">
        <ele>83.29</ele>
        <time>2012-05-27T12:40:54Z</time>
      </trkpt>
      <trkpt lat="43.21863" lon="5.42975">
        <ele>84.25</ele>
        <time>2012-05-27T12:41:05Z</time>
      </trkpt>
      <trkpt lat="43.21875" lon="5.42977">
        <ele>85.21</ele>
        <time>2012-05-27T12:41:16Z</time>
      </trkpt>
      <trkpt lat="43.21879" lon="5.42978">
        <ele>85.21</ele>
        <time>2012-05-27T12:41:20Z</time>
      </trkpt>
      <trkpt lat="43.21892" lon="5.42978">
        <ele>86.66</ele>
        <time>2012-05-27T12:41:33Z</time>
      </trkpt>
      <trkpt lat="43.21902" lon="5.42982">
        <ele>87.62</ele>
        <time>2012-05-27T12:41:44Z</time>
      </trkpt>
      <trkpt lat="43.21916" lon="5.42978">
        <ele>88.1</ele>
        <time>2012-05-27T12:41:56Z</time>
      </trkpt>
      <trkpt lat="43.2192" lon="5.42973">
        <ele>88.58</ele>
        <time>2012-05-27T12:42:02Z</time>
      </trkpt>
      <trkpt lat="43.21926" lon="5.42961">
        <ele>89.06</ele>
        <time>2012-05-27T12:42:12Z</time>
      </trkpt>
      <trkpt lat="43.21929" lon="5.42952">
        <ele>89.06</ele>
        <time>2012-05-27T12:42:19Z</time>
      </trkpt>
      <trkpt lat="43.21925" lon="5.42945">
        <ele>89.54</ele>
        <time>2012-05-27T12:42:25Z</time>
      </trkpt>
      <trkpt lat="43.2193" lon="5.42935">
        <ele>90.5</ele>
        <time>2012-05-27T12:42:34Z</time>
      </trkpt>
      <trkpt lat="43.21932" lon="5.4293">
        <ele>91.46</ele>
        <time>2012-05-27T12:42:51Z</time>
      </trkpt>
      <trkpt lat="43.21932" lon="5.4293">
        <ele>90.98</ele>
        <time>2012-05-27T12:43:18Z</time>
      </trkpt>
      <trkpt lat="43.21938" lon="5.42918">
        <ele>91.94</ele>
        <time>2012-05-27T12:43:37Z</time>
      </trkpt>
      <trkpt lat="43.21939" lon="5.42917">
        <ele>92.42</ele>
        <time>2012-05-27T12:43:38Z</time>
      </trkpt>
      <trkpt lat="43.21939" lon="5.42905">
        <ele>92.9</ele>
        <time>2012-05-27T12:43:47Z</time>
      </trkpt>
      <trkpt lat="43.21942" lon="5.42895">
        <ele>93.39</ele>
        <time>2012-05-27T12:43:53Z</time>
      </trkpt>
      <trkpt lat="43.21943" lon="5.42892">
        <ele>93.39</ele>
        <time>2012-05-27T12:43:55Z</time>
      </trkpt>
      <trkpt lat="43.21944" lon="5.42884">
        <ele>93.87</ele>
        <time>2012-05-27T12:43:59Z</time>
      </trkpt>
      <trkpt lat="43.21944" lon="5.42878">
        <ele>93.39</ele>
        <time>2012-05-27T12:44:03Z</time>
      </trkpt>
      <trkpt lat="43.21945" lon="5.42875">
        <ele>94.35</ele>
        <time>2012-05-27T12:44:05Z</time>
      </trkpt>
      <trkpt lat="43.21946" lon="5.42854">
        <ele>94.83</ele>
        <time>2012-05-27T12:44:18Z</time>
      </trkpt>
      <trkpt lat="43.21947" lon="5.42833">
        <ele>95.79</ele>
        <time>2012-05-27T12:44:30Z</time>
      </trkpt>
      <trkpt lat="43.21947" lon="5.42827">
        <ele>95.79</ele>
        <time>2012-05-27T12:44:34Z</time>
      </trkpt>
      <trkpt lat="43.21949" lon="5.42817">
        <ele>97.23</ele>
        <time>2012-05-27T12:44:44Z</time>
      </trkpt>
      <trkpt lat="43.2195" lon="5.4281">
        <ele>97.23</ele>
        <time>2012-05-27T12:44:48Z</time>
      </trkpt>
      <trkpt lat="43.21955" lon="5.42799">
        <ele>98.67</ele>
        <time>2012-05-27T12:44:57Z</time>
      </trkpt>
      <trkpt lat="43.21962" lon="5.42789">
        <ele>100.6</ele>
        <time>2012-05-27T12:45:08Z</time>
      </trkpt>
      <trkpt lat="43.21966" lon="5.42775">
        <ele>103</ele>
        <time>2012-05-27T12:45:20Z</time>
      </trkpt>
      <trkpt lat="43.21972" lon="5.42763">
        <ele>104.44</ele>
        <time>2012-05-27T12:45:33Z</time>
      </trkpt>
      <trkpt lat="43.21972" lon="5.42761">
        <ele>105.4</ele>
        <time>2012-05-27T12:45:36Z</time>
      </trkpt>
      <trkpt lat="43.21977" lon="5.4275">
        <ele>107.32</ele>
        <time>2012-05-27T12:45:48Z</time>
      </trkpt>
      <trkpt lat="43.21978" lon="5.42749">
        <ele>107.81</ele>
        <time>2012-05-27T12:45:49Z</time>
      </trkpt>
      <trkpt lat="43.2198" lon="5.42747">
        <ele>108.29</ele>
        <time>2012-05-27T12:45:51Z</time>
      </trkpt>
      <trkpt lat="43.21983" lon="5.42736">
        <ele>110.21</ele>
        <time>2012-05-27T12:46:01Z</time>
      </trkpt>
      <trkpt lat="43.21988" lon="5.42725">
        <ele>112.61</ele>
        <time>2012-05-27T12:46:13Z</time>
      </trkpt>
      <trkpt lat="43.21987" lon="5.4271">
        <ele>115.5</ele>
        <time>2012-05-27T12:46:28Z</time>
      </trkpt>
      <trkpt lat="43.21988" lon="5.42699">
        <ele>118.38</ele>
        <time>2012-05-27T12:46:40Z</time>
      </trkpt>
      <trkpt lat="43.21991" lon="5.42684">
        <ele>121.26</ele>
        <time>2012-05-27T12:46:53Z</time>
      </trkpt>
      <trkpt lat="43.21994" lon="5.42675">
        <ele>121.74</ele>
        <time>2012-05-27T12:47:02Z</time>
      </trkpt>
      <trkpt lat="43.21995" lon="5.42673">
        <ele>122.22</ele>
        <time>2012-05-27T12:47:04Z</time>
      </trkpt>
      <trkpt lat="43.22001" lon="5.42669">
        <ele>122.71</ele>
        <time>2012-05-27T12:47:12Z</time>
      </trkpt>
      <trkpt lat="43.2202" lon="5.42666">
        <ele>124.63</ele>
        <time>2012-05-27T12:47:25Z</time>
      </trkpt>
      <trkpt lat="43.22029" lon="5.42655">
        <ele>126.07</ele>
        <time>2012-05-27T12:47:37Z</time>
      </trkpt>
      <trkpt lat="43.22032" lon="5.42655">
        <ele>127.03</ele>
        <time>2012-05-27T12:47:43Z</time>
      </trkpt>
      <trkpt lat="43.22036" lon="5.42658">
        <ele>127.51</ele>
        <time>2012-05-27T12:47:45Z</time>
      </trkpt>
      <trkpt lat="43.22041" lon="5.42659">
        <ele>127.99</ele>
        <time>2012-05-27T12:47:47Z</time>
      </trkpt>
      <trkpt lat="43.22047" lon="5.42661">
        <ele>128.95</ele>
        <time>2012-05-27T12:47:53Z</time>
      </trkpt>
      <trkpt lat="43.22056" lon="5.42659">
        <ele>129.92</ele>
        <time>2012-05-27T12:48:01Z</time>
      </trkpt>
      <trkpt lat="43.22067" lon="5.42647">
        <ele>131.36</ele>
        <time>2012-05-27T12:48:13Z</time>
      </trkpt>
      <trkpt lat="43.22069" lon="5.42644">
        <ele>131.84</ele>
        <time>2012-05-27T12:48:16Z</time>
      </trkpt>
      <trkpt lat="43.22074" lon="5.42628">
        <ele>132.8</ele>
        <time>2012-05-27T12:48:29Z</time>
      </trkpt>
      <trkpt lat="43.22076" lon="5.42625">
        <ele>133.28</ele>
        <time>2012-05-27T12:48:32Z</time>
      </trkpt>
      <trkpt lat="43.22078" lon="5.4262">
        <ele>133.28</ele>
        <time>2012-05-27T12:48:36Z</time>
      </trkpt>
      <trkpt lat="43.22078" lon="5.42613">
        <ele>133.76</ele>
        <time>2012-05-27T12:48:40Z</time>
      </trkpt>
      <trkpt lat="43.22077" lon="5.42599">
        <ele>134.24</ele>
        <time>2012-05-27T12:48:48Z</time>
      </trkpt>
      <trkpt lat="43.22075" lon="5.42587">
        <ele>135.2</ele>
        <time>2012-05-27T12:48:55Z</time>
      </trkpt>
      <trkpt lat="43.22075" lon="5.42575">
        <ele>134.72</ele>
        <time>2012-05-27T12:49:02Z</time>
      </trkpt>
      <trkpt lat="43.22077" lon="5.42568">
        <ele>136.16</ele>
        <time>2012-05-27T12:49:07Z</time>
      </trkpt>
      <trkpt lat="43.22081" lon="5.42561">
        <ele>135.68</ele>
        <time>2012-05-27T12:49:12Z</time>
      </trkpt>
      <trkpt lat="43.22094" lon="5.42541">
        <ele>138.09</ele>
        <time>2012-05-27T12:49:29Z</time>
      </trkpt>
      <trkpt lat="43.22098" lon="5.42523">
        <ele>139.05</ele>
        <time>2012-05-27T12:49:41Z</time>
      </trkpt>
      <trkpt lat="43.221" lon="5.4251">
        <ele>140.49</ele>
        <time>2012-05-27T12:49:49Z</time>
      </trkpt>
      <trkpt lat="43.22104" lon="5.42494">
        <ele>141.93</ele>
        <time>2012-05-27T12:50:00Z</time>
      </trkpt>
      <trkpt lat="43.22108" lon="5.42487">
        <ele>143.37</ele>
        <time>2012-05-27T12:50:07Z</time>
      </trkpt>
      <trkpt lat="43.22109" lon="5.42484">
        <ele>143.37</ele>
        <time>2012-05-27T12:50:09Z</time>
      </trkpt>
      <trkpt lat="43.2212" lon="5.42471">
        <ele>144.82</ele>
        <time>2012-05-27T12:50:23Z</time>
      </trkpt>
      <trkpt lat="43.22122" lon="5.4247">
        <ele>145.3</ele>
        <time>2012-05-27T12:50:25Z</time>
      </trkpt>
      <trkpt lat="43.22137" lon="5.4247">
        <ele>145.78</ele>
        <time>2012-05-27T12:50:37Z</time>
      </trkpt>
      <trkpt lat="43.2214" lon="5.42472">
        <ele>145.78</ele>
        <time>2012-05-27T12:50:40Z</time>
      </trkpt>
      <trkpt lat="43.22149" lon="5.42479">
        <ele>147.7</ele>
        <time>2012-05-27T12:50:53Z</time>
      </trkpt>
      <trkpt lat="43.22161" lon="5.42483">
        <ele>148.66</ele>
        <time>2012-05-27T12:51:04Z</time>
      </trkpt>
      <trkpt lat="43.22167" lon="5.42481">
        <ele>149.62</ele>
        <time>2012-05-27T12:51:11Z</time>
      </trkpt>
      <trkpt lat="43.22175" lon="5.42465">
        <ele>151.54</ele>
        <time>2012-05-27T12:51:23Z</time>
      </trkpt>
      <trkpt lat="43.22175" lon="5.42455">
        <ele>152.51</ele>
        <time>2012-05-27T12:51:31Z</time>
      </trkpt>
      <trkpt lat="43.22176" lon="5.42443">
        <ele>153.95</ele>
        <time>2012-05-27T12:51:39Z</time>
      </trkpt>
      <trkpt lat="43.22178" lon="5.42431">
        <ele>154.43</ele>
        <time>2012-05-27T12:51:49Z</time>
      </trkpt>
      <trkpt lat="43.2218" lon="5.42411">
        <ele>156.35</ele>
        <time>2012-05-27T12:52:02Z</time>
      </trkpt>
      <trkpt lat="43.22184" lon="5.42398">
        <ele>157.31</ele>
        <time>2012-05-27T12:52:13Z</time>
      </trkpt>
      <trkpt lat="43.22185" lon="5.42386">
        <ele>158.75</ele>
        <time>2012-05-27T12:52:22Z</time>
      </trkpt>
      <trkpt lat="43.22184" lon="5.42367">
        <ele>161.16</ele>
        <time>2012-05-27T12:52:36Z</time>
      </trkpt>
      <trkpt lat="43.22182" lon="5.42361">
        <ele>162.12</ele>
        <time>2012-05-27T12:52:54Z</time>
      </trkpt>
      <trkpt lat="43.22183" lon="5.4236">
        <ele>161.64</ele>
        <time>2012-05-27T12:53:31Z</time>
      </trkpt>
      <trkpt lat="43.22183" lon="5.4236">
        <ele>162.6</ele>
        <time>2012-05-27T12:53:40Z</time>
      </trkpt>
      <trkpt lat="43.22189" lon="5.42363">
        <ele>164.04</ele>
        <time>2012-05-27T12:53:51Z</time>
      </trkpt>
      <trkpt lat="43.22195" lon="5.42362">
        <ele>165.48</ele>
        <time>2012-05-27T12:53:59Z</time>
      </trkpt>
      <trkpt lat="43.22198" lon="5.42358">
        <ele>165.96</ele>
        <time>2012-05-27T12:54:05Z</time>
      </trkpt>
      <trkpt lat="43.22204" lon="5.4235">
        <ele>167.89</ele>
        <time>2012-05-27T12:54:17Z</time>
      </trkpt>
      <trkpt lat="43.22204" lon="5.42345">
        <ele>171.25</ele>
        <time>2012-05-27T12:54:29Z</time>
      </trkpt>
      <trkpt lat="43.22208" lon="5.4234">
        <ele>173.17</ele>
        <time>2012-05-27T12:54:41Z</time>
      </trkpt>
      <trkpt lat="43.22212" lon="5.42338">
        <ele>175.1</ele>
        <time>2012-05-27T12:54:52Z</time>
      </trkpt>
      <trkpt lat="43.22217" lon="5.4233">
        <ele>177.02</ele>
        <time>2012-05-27T12:55:04Z</time>
      </trkpt>
      <trkpt lat="43.22219" lon="5.42329">
        <ele>178.46</ele>
        <time>2012-05-27T12:55:08Z</time>
      </trkpt>
      <trkpt lat="43.22227" lon="5.42326">
        <ele>180.87</ele>
        <time>2012-05-27T12:55:23Z</time>
      </trkpt>
      <trkpt lat="43.22229" lon="5.42326">
        <ele>180.87</ele>
        <time>2012-05-27T12:55:26Z</time>
      </trkpt>
      <trkpt lat="43.2223" lon="5.42318">
        <ele>183.27</ele>
        <time>2012-05-27T12:55:38Z</time>
      </trkpt>
      <trkpt lat="43.22233" lon="5.42316">
        <ele>185.19</ele>
        <time>2012-05-27T12:55:50Z</time>
      </trkpt>
      <trkpt lat="43.22237" lon="5.42307">
        <ele>187.11</ele>
        <time>2012-05-27T12:56:01Z</time>
      </trkpt>
      <trkpt lat="43.22239" lon="5.42304">
        <ele>189.52</ele>
        <time>2012-05-27T12:56:12Z</time>
      </trkpt>
      <trkpt lat="43.22246" lon="5.42306">
        <ele>190.48</ele>
        <time>2012-05-27T12:56:23Z</time>
      </trkpt>
      <trkpt lat="43.22255" lon="5.42307">
        <ele>192.88</ele>
        <time>2012-05-27T12:56:36Z</time>
      </trkpt>
      <trkpt lat="43.22259" lon="5.42307">
        <ele>194.32</ele>
        <time>2012-05-27T12:56:41Z</time>
      </trkpt>
      <trkpt lat="43.22263" lon="5.42304">
        <ele>196.73</ele>
        <time>2012-05-27T12:56:52Z</time>
      </trkpt>
      <trkpt lat="43.22266" lon="5.42306">
        <ele>197.21</ele>
        <time>2012-05-27T12:56:57Z</time>
      </trkpt>
      <trkpt lat="43.22258" lon="5.42297">
        <ele>195.77</ele>
        <time>2012-05-27T12:57:06Z</time>
      </trkpt>
      <trkpt lat="43.22254" lon="5.42289">
        <ele>195.28</ele>
        <time>2012-05-27T12:57:12Z</time>
      </trkpt>
      <trkpt lat="43.22253" lon="5.42288">
        <ele>194.8</ele>
        <time>2012-05-27T12:57:25Z</time>
      </trkpt>
      <trkpt lat="43.22254" lon="5.42289">
        <ele>194.32</ele>
        <time>2012-05-27T12:57:40Z</time>
      </trkpt>
      <trkpt lat="43.22255" lon="5.42289">
        <ele>194.8</ele>
        <time>2012-05-27T12:57:55Z</time>
      </trkpt>
      <trkpt lat="43.22255" lon="5.42287">
        <ele>194.32</ele>
        <time>2012-05-27T12:57:58Z</time>
      </trkpt>
      <trkpt lat="43.22254" lon="5.42272">
        <ele>193.36</ele>
        <time>2012-05-27T12:58:11Z</time>
      </trkpt>
      <trkpt lat="43.22255" lon="5.42271">
        <ele>193.36</ele>
        <time>2012-05-27T12:58:13Z</time>
      </trkpt>
      <trkpt lat="43.2226" lon="5.42263">
        <ele>190</ele>
        <time>2012-05-27T12:58:26Z</time>
      </trkpt>
      <trkpt lat="43.22262" lon="5.42256">
        <ele>187.59</ele>
        <time>2012-05-27T12:58:39Z</time>
      </trkpt>
      <trkpt lat="43.22265" lon="5.4225">
        <ele>185.67</ele>
        <time>2012-05-27T12:58:49Z</time>
      </trkpt>
      <trkpt lat="43.22268" lon="5.42242">
        <ele>183.75</ele>
        <time>2012-05-27T12:59:00Z</time>
      </trkpt>
      <trkpt lat="43.22272" lon="5.42235">
        <ele>181.35</ele>
        <time>2012-05-27T12:59:16Z</time>
      </trkpt>
      <trkpt lat="43.22283" lon="5.4223">
        <ele>178.94</ele>
        <time>2012-05-27T12:59:28Z</time>
      </trkpt>
      <trkpt lat="43.22293" lon="5.42213">
        <ele>177.5</ele>
        <time>2012-05-27T12:59:41Z</time>
      </trkpt>
      <trkpt lat="43.22298" lon="5.42197">
        <ele>177.5</ele>
        <time>2012-05-27T12:59:53Z</time>
      </trkpt>
      <trkpt lat="43.22304" lon="5.42175">
        <ele>176.54</ele>
        <time>2012-05-27T13:00:07Z</time>
      </trkpt>
      <trkpt lat="43.22303" lon="5.42166">
        <ele>176.06</ele>
        <time>2012-05-27T13:00:17Z</time>
      </trkpt>
      <trkpt lat="43.22293" lon="5.42161">
        <ele>174.14</ele>
        <time>2012-05-27T13:00:28Z</time>
      </trkpt>
      <trkpt lat="43.22289" lon="5.42154">
        <ele>172.69</ele>
        <time>2012-05-27T13:00:40Z</time>
      </trkpt>
      <trkpt lat="43.2229" lon="5.42137">
        <ele>169.81</ele>
        <time>2012-05-27T13:00:53Z</time>
      </trkpt>
      <trkpt lat="43.22293" lon="5.42132">
        <ele>167.89</ele>
        <time>2012-05-27T13:01:04Z</time>
      </trkpt>
      <trkpt lat="43.22301" lon="5.42137">
        <ele>165.48</ele>
        <time>2012-05-27T13:01:16Z</time>
      </trkpt>
      <trkpt lat="43.22303" lon="5.42133">
        <ele>163.08</ele>
        <time>2012-05-27T13:01:26Z</time>
      </trkpt>
      <trkpt lat="43.22315" lon="5.42126">
        <ele>161.16</ele>
        <time>2012-05-27T13:01:41Z</time>
      </trkpt>
      <trkpt lat="43.22319" lon="5.42124">
        <ele>159.24</ele>
        <time>2012-05-27T13:01:45Z</time>
      </trkpt>
      <trkpt lat="43.22318" lon="5.42103">
        <ele>157.79</ele>
        <time>2012-05-27T13:01:59Z</time>
      </trkpt>
      <trkpt lat="43.22317" lon="5.42092">
        <ele>155.39</ele>
        <time>2012-05-27T13:02:13Z</time>
      </trkpt>
      <trkpt lat="43.22319" lon="5.42081">
        <ele>152.99</ele>
        <time>2012-05-27T13:02:28Z</time>
      </trkpt>
      <trkpt lat="43.22322" lon="5.42084">
        <ele>151.54</ele>
        <time>2012-05-27T13:02:49Z</time>
      </trkpt>
      <trkpt lat="43.22331" lon="5.4209">
        <ele>148.66</ele>
        <time>2012-05-27T13:03:04Z</time>
      </trkpt>
      <trkpt lat="43.22333" lon="5.42081">
        <ele>146.26</ele>
        <time>2012-05-27T13:03:17Z</time>
      </trkpt>
      <trkpt lat="43.22345" lon="5.42075">
        <ele>143.37</ele>
        <time>2012-05-27T13:03:33Z</time>
      </trkpt>
      <trkpt lat="43.22354" lon="5.42067">
        <ele>140.49</ele>
        <time>2012-05-27T13:03:50Z</time>
      </trkpt>
      <trkpt lat="43.22364" lon="5.4206">
        <ele>138.09</ele>
        <time>2012-05-27T13:04:05Z</time>
      </trkpt>
      <trkpt lat="43.22369" lon="5.42061">
        <ele>135.68</ele>
        <time>2012-05-27T13:04:19Z</time>
      </trkpt>
      <trkpt lat="43.22378" lon="5.42066">
        <ele>133.28</ele>
        <time>2012-05-27T13:04:35Z</time>
      </trkpt>
      <trkpt lat="43.22388" lon="5.42061">
        <ele>130.88</ele>
        <time>2012-05-27T13:04:51Z</time>
      </trkpt>
      <trkpt lat="43.22401" lon="5.42064">
        <ele>128.95</ele>
        <time>2012-05-27T13:05:05Z</time>
      </trkpt>
      <trkpt lat="43.22412" lon="5.42074">
        <ele>126.07</ele>
        <time>2012-05-27T13:05:20Z</time>
      </trkpt>
      <trkpt lat="43.22416" lon="5.42073">
        <ele>124.63</ele>
        <time>2012-05-27T13:05:30Z</time>
      </trkpt>
      <trkpt lat="43.22418" lon="5.42068">
        <ele>124.15</ele>
        <time>2012-05-27T13:05:39Z</time>
      </trkpt>
      <trkpt lat="43.22424" lon="5.42061">
        <ele>121.74</ele>
        <time>2012-05-27T13:05:52Z</time>
      </trkpt>
      <trkpt lat="43.22428" lon="5.42061">
        <ele>120.78</ele>
        <time>2012-05-27T13:05:57Z</time>
      </trkpt>
      <trkpt lat="43.22442" lon="5.42054">
        <ele>117.9</ele>
        <time>2012-05-27T13:06:11Z</time>
      </trkpt>
      <trkpt lat="43.22457" lon="5.42044">
        <ele>115.98</ele>
        <time>2012-05-27T13:06:25Z</time>
      </trkpt>
      <trkpt lat="43.22471" lon="5.42035">
        <ele>114.05</ele>
        <time>2012-05-27T13:06:38Z</time>
      </trkpt>
      <trkpt lat="43.22475" lon="5.4203">
        <ele>113.09</ele>
        <time>2012-05-27T13:06:46Z</time>
      </trkpt>
      <trkpt lat="43.22483" lon="5.42013">
        <ele>111.65</ele>
        <time>2012-05-27T13:06:56Z</time>
      </trkpt>
      <trkpt lat="43.22489" lon="5.42006">
        <ele>110.69</ele>
        <time>2012-05-27T13:07:04Z</time>
      </trkpt>
      <trkpt lat="43.22497" lon="5.41999">
        <ele>110.21</ele>
        <time>2012-05-27T13:07:12Z</time>
      </trkpt>
      <trkpt lat="43.225" lon="5.41994">
        <ele>109.73</ele>
        <time>2012-05-27T13:07:17Z</time>
      </trkpt>
      <trkpt lat="43.225" lon="5.41979">
        <ele>108.77</ele>
        <time>2012-05-27T13:07:26Z</time>
      </trkpt>
      <trkpt lat="43.22502" lon="5.41962">
        <ele>107.32</ele>
        <time>2012-05-27T13:07:37Z</time>
      </trkpt>
      <trkpt lat="43.22502" lon="5.41952">
        <ele>106.84</ele>
        <time>2012-05-27T13:07:43Z</time>
      </trkpt>
      <trkpt lat="43.22505" lon="5.41941">
        <ele>106.84</ele>
        <time>2012-05-27T13:07:51Z</time>
      </trkpt>
      <trkpt lat="43.22511" lon="5.41935">
        <ele>106.36</ele>
        <time>2012-05-27T13:07:55Z</time>
      </trkpt>
      <trkpt lat="43.2252" lon="5.41924">
        <ele>105.88</ele>
        <time>2012-05-27T13:08:04Z</time>
      </trkpt>
      <trkpt lat="43.22521" lon="5.41923">
        <ele>105.4</ele>
        <time>2012-05-27T13:08:07Z</time>
      </trkpt>
      <trkpt lat="43.2252" lon="5.41907">
        <ele>104.44</ele>
        <time>2012-05-27T13:08:17Z</time>
      </trkpt>
      <trkpt lat="43.22518" lon="5.41886">
        <ele>103.48</ele>
        <time>2012-05-27T13:08:30Z</time>
      </trkpt>
      <trkpt lat="43.22514" lon="5.41872">
        <ele>102.52</ele>
        <time>2012-05-27T13:08:38Z</time>
      </trkpt>
      <trkpt lat="43.22514" lon="5.41862">
        <ele>102.04</ele>
        <time>2012-05-27T13:08:45Z</time>
      </trkpt>
      <trkpt lat="43.22525" lon="5.41853">
        <ele>100.6</ele>
        <time>2012-05-27T13:08:55Z</time>
      </trkpt>
      <trkpt lat="43.22535" lon="5.41845">
        <ele>100.11</ele>
        <time>2012-05-27T13:09:06Z</time>
      </trkpt>
      <trkpt lat="43.22536" lon="5.41844">
        <ele>99.63</ele>
        <time>2012-05-27T13:09:09Z</time>
      </trkpt>
      <trkpt lat="43.22541" lon="5.41832">
        <ele>99.15</ele>
        <time>2012-05-27T13:09:16Z</time>
      </trkpt>
      <trkpt lat="43.22535" lon="5.41806">
        <ele>97.23</ele>
        <time>2012-05-27T13:09:31Z</time>
      </trkpt>
      <trkpt lat="43.22535" lon="5.41795">
        <ele>97.23</ele>
        <time>2012-05-27T13:09:38Z</time>
      </trkpt>
      <trkpt lat="43.22532" lon="5.41778">
        <ele>96.27</ele>
        <time>2012-05-27T13:09:48Z</time>
      </trkpt>
      <trkpt lat="43.2253" lon="5.41764">
        <ele>96.27</ele>
        <time>2012-05-27T13:09:58Z</time>
      </trkpt>
      <trkpt lat="43.22525" lon="5.41743">
        <ele>94.83</ele>
        <time>2012-05-27T13:10:10Z</time>
      </trkpt>
      <trkpt lat="43.22525" lon="5.4174">
        <ele>94.83</ele>
        <time>2012-05-27T13:10:13Z</time>
      </trkpt>
      <trkpt lat="43.22522" lon="5.41725">
        <ele>94.35</ele>
        <time>2012-05-27T13:10:24Z</time>
      </trkpt>
      <trkpt lat="43.22521" lon="5.41705">
        <ele>93.87</ele>
        <time>2012-05-27T13:10:34Z</time>
      </trkpt>
      <trkpt lat="43.2252" lon="5.41695">
        <ele>93.87</ele>
        <time>2012-05-27T13:10:41Z</time>
      </trkpt>
      <trkpt lat="43.22507" lon="5.41694">
        <ele>93.39</ele>
        <time>2012-05-27T13:10:52Z</time>
      </trkpt>
      <trkpt lat="43.22496" lon="5.41696">
        <ele>94.83</ele>
        <time>2012-05-27T13:11:01Z</time>
      </trkpt>
      <trkpt lat="43.22487" lon="5.41701">
        <ele>95.31</ele>
        <time>2012-05-27T13:11:10Z</time>
      </trkpt>
      <trkpt lat="43.22474" lon="5.41702">
        <ele>96.75</ele>
        <time>2012-05-27T13:11:21Z</time>
      </trkpt>
      <trkpt lat="43.22469" lon="5.41703">
        <ele>97.71</ele>
        <time>2012-05-27T13:11:31Z</time>
      </trkpt>
      <trkpt lat="43.2246" lon="5.41703">
        <ele>98.19</ele>
        <time>2012-05-27T13:11:43Z</time>
      </trkpt>
      <trkpt lat="43.22448" lon="5.41702">
        <ele>99.63</ele>
        <time>2012-05-27T13:11:55Z</time>
      </trkpt>
      <trkpt lat="43.22437" lon="5.41704">
        <ele>101.56</ele>
        <time>2012-05-27T13:12:07Z</time>
      </trkpt>
      <trkpt lat="43.22432" lon="5.41703">
        <ele>101.56</ele>
        <time>2012-05-27T13:12:12Z</time>
      </trkpt>
      <trkpt lat="43.22425" lon="5.41704">
        <ele>102.52</ele>
        <time>2012-05-27T13:12:18Z</time>
      </trkpt>
      <trkpt lat="43.22412" lon="5.41708">
        <ele>103</ele>
        <time>2012-05-27T13:12:33Z</time>
      </trkpt>
      <trkpt lat="43.22403" lon="5.4171">
        <ele>103.96</ele>
        <time>2012-05-27T13:12:43Z</time>
      </trkpt>
      <trkpt lat="43.22391" lon="5.41717">
        <ele>105.4</ele>
        <time>2012-05-27T13:12:55Z</time>
      </trkpt>
      <trkpt lat="43.22379" lon="5.41722">
        <ele>105.88</ele>
        <time>2012-05-27T13:13:04Z</time>
      </trkpt>
      <trkpt lat="43.22373" lon="5.41726">
        <ele>106.36</ele>
        <time>2012-05-27T13:13:10Z</time>
      </trkpt>
      <trkpt lat="43.22365" lon="5.4173">
        <ele>107.81</ele>
        <time>2012-05-27T13:13:27Z</time>
      </trkpt>
      <trkpt lat="43.22358" lon="5.41738">
        <ele>108.29</ele>
        <time>2012-05-27T13:13:42Z</time>
      </trkpt>
      <trkpt lat="43.22336" lon="5.41742">
        <ele>109.73</ele>
        <time>2012-05-27T13:13:57Z</time>
      </trkpt>
      <trkpt lat="43.22328" lon="5.41748">
        <ele>110.69</ele>
        <time>2012-05-27T13:14:11Z</time>
      </trkpt>
      <trkpt lat="43.22321" lon="5.41752">
        <ele>111.17</ele>
        <time>2012-05-27T13:14:17Z</time>
      </trkpt>
      <trkpt lat="43.2231" lon="5.41765">
        <ele>112.13</ele>
        <time>2012-05-27T13:14:30Z</time>
      </trkpt>
      <trkpt lat="43.22305" lon="5.41771">
        <ele>113.09</ele>
        <time>2012-05-27T13:14:36Z</time>
      </trkpt>
      <trkpt lat="43.22302" lon="5.41773">
        <ele>113.09</ele>
        <time>2012-05-27T13:14:39Z</time>
      </trkpt>
      <trkpt lat="43.2229" lon="5.41784">
        <ele>114.05</ele>
        <time>2012-05-27T13:14:52Z</time>
      </trkpt>
      <trkpt lat="43.22289" lon="5.41785">
        <ele>113.57</ele>
        <time>2012-05-27T13:14:53Z</time>
      </trkpt>
      <trkpt lat="43.22278" lon="5.418">
        <ele>114.53</ele>
        <time>2012-05-27T13:15:08Z</time>
      </trkpt>
      <trkpt lat="43.22271" lon="5.4181">
        <ele>115.5</ele>
        <time>2012-05-27T13:15:21Z</time>
      </trkpt>
      <trkpt lat="43.22266" lon="5.41807">
        <ele>115.98</ele>
        <time>2012-05-27T13:15:42Z</time>
      </trkpt>
      <trkpt lat="43.22265" lon="5.41807">
        <ele>115.5</ele>
        <time>2012-05-27T13:17:03Z</time>
      </trkpt>
      <trkpt lat="43.22265" lon="5.41807">
        <ele>115.01</ele>
        <time>2012-05-27T13:18:22Z</time>
      </trkpt>
      <trkpt lat="43.22264" lon="5.41807">
        <ele>115.5</ele>
        <time>2012-05-27T13:19:07Z</time>
      </trkpt>
      <trkpt lat="43.22264" lon="5.41807">
        <ele>115.01</ele>
        <time>2012-05-27T13:20:22Z</time>
      </trkpt>
      <trkpt lat="43.22265" lon="5.41807">
        <ele>114.05</ele>
        <time>2012-05-27T13:20:39Z</time>
      </trkpt>
    </trkseg>
  </trk>
</gpx>